Provisional Data: Meshoppen Creek near Kaiserville, PA


Please select a monitoring station.
Please select start date.
Please select start date.

Toggle Unit: C/F Toggle Unit: C/F
Sample Time Temperature (C) Temperature (F) Specific Conductivity (mS/cm) pH   Turbidity (NTU+) DO (mg/L)
4/13/2022 12:00:00 AM 10.09 50.162 0.102 7.21 10.39 10.8
4/13/2022 12:15:00 AM 10.01 50.018 0.104 7.23 10.48 10.83
4/13/2022 12:30:00 AM 9.92 49.856 0.104 7.23 9.85 10.85
4/13/2022 12:45:00 AM 9.83 49.694 0.104 7.23 9.95 10.87
4/13/2022 1:00:00 AM 9.75 49.55 0.104 7.22 9.81 10.88
4/13/2022 1:15:00 AM 9.66 49.388 0.104 7.22 9.86 10.91
4/13/2022 1:30:00 AM 9.58 49.244 0.104 7.22 10.16 10.93
4/13/2022 1:45:00 AM 9.5 49.1 0.105 7.22 10.33 10.95
4/13/2022 2:00:00 AM 9.42 48.956 0.104 7.22 9.99 10.97
4/13/2022 2:15:00 AM 9.35 48.83 0.104 7.22 9.86 10.99
4/13/2022 2:30:00 AM 9.27 48.686 0.104 7.2 9.69 11.01
4/13/2022 2:45:00 AM 9.2 48.56 0.105 7.22 9.99 11.03
4/13/2022 3:00:00 AM 9.13 48.434 0.105 7.22 10.22 11.04
4/13/2022 3:15:00 AM 9.07 48.326 0.105 7.22 10.13 11.06
4/13/2022 3:30:00 AM 9.02 48.236 0.105 7.2 10.27 11.08
4/13/2022 3:45:00 AM 8.98 48.164 0.105 7.21 9.83 11.09
4/13/2022 4:00:00 AM 8.95 48.11 0.105 7.21 10.44 11.1
4/13/2022 4:15:00 AM 8.91 48.038 0.105 7.2 9.7 11.11
4/13/2022 4:30:00 AM 8.89 48.002 0.105 7.22 10.12 11.11
4/13/2022 4:45:00 AM 8.87 47.966 0.105 7.19 10 11.13
4/13/2022 5:00:00 AM 8.86 47.948 0.105 7.21 9.52 11.13
4/13/2022 5:15:00 AM 8.85 47.93 0.105 7.22 9.67 11.13
4/13/2022 5:30:00 AM 8.84 47.912 0.105 7.22 9.38 11.14
4/13/2022 5:45:00 AM 8.83 47.894 0.105 7.2 9.08 11.13
4/13/2022 6:00:00 AM 8.82 47.876 0.105 7.21 9.15 11.14
4/13/2022 6:15:00 AM 8.81 47.858 0.105 7.22 10.84 11.14
4/13/2022 6:30:00 AM 8.81 47.858 0.105 7.21 9.39 11.15
4/13/2022 6:45:00 AM 8.81 47.858 0.106 7.2 8.9 11.14
4/13/2022 7:00:00 AM 8.81 47.858 0.105 7.21 9.12 11.15
4/13/2022 7:15:00 AM 8.81 47.858 0.105 7.2 9.35 11.15
4/13/2022 7:30:00 AM 8.82 47.876 0.105 7.2 9.13 11.15
4/13/2022 7:45:00 AM 8.82 47.876 0.105 7.22 8.73 11.16
4/13/2022 8:00:00 AM 8.84 47.912 0.105 7.22 9.21 11.17
4/13/2022 8:15:00 AM 8.86 47.948 0.105 7.21 8.56 11.18
4/13/2022 8:30:00 AM 8.91 48.038 0.105 7.23 8.98 11.19
4/13/2022 8:45:00 AM 8.99 48.182 0.105 7.25 9.01 11.18
4/13/2022 9:00:00 AM 9.08 48.344 0.105 7.24 8.63 11.18
4/13/2022 9:15:00 AM 9.18 48.524 0.105 7.25 8.89 11.17
4/13/2022 9:30:00 AM 9.27 48.686 0.105 7.26 8.94 11.16
4/13/2022 9:45:00 AM 9.38 48.884 0.105 7.27 8.36 11.15
4/13/2022 10:00:00 AM 9.53 49.154 0.105 7.28 9.05 11.12
4/13/2022 10:15:00 AM 9.71 49.478 0.105 7.27 8.46 11.1
4/13/2022 10:30:00 AM 9.9 49.82 0.105 7.29 8.53 11.06
4/13/2022 10:45:00 AM 10.14 50.252 0.105 7.3 9.28 11.02
4/13/2022 11:00:00 AM 10.35 50.63 0.105 7.3 8.43 10.98
4/13/2022 11:15:00 AM 10.56 51.008 0.105 7.3 8.58 10.94
4/13/2022 11:30:00 AM 10.72 51.296 0.105 7.32 8.58 10.91
4/13/2022 11:45:00 AM 10.84 51.512 0.105 7.31 8.54 10.87
4/13/2022 12:00:00 PM 11.11 51.998 0.105 7.31 8.13 10.84
4/13/2022 12:15:00 PM 11.39 52.502 0.105 7.33 8.58 10.78
4/13/2022 12:30:00 PM 11.51 52.718 0.105 7.33 8.24 10.72
4/13/2022 12:45:00 PM 11.65 52.97 0.105 7.34 8.48 10.69
4/13/2022 1:00:00 PM 11.74 53.132 0.104 7.35 8.33 10.67
4/13/2022 1:15:00 PM 11.82 53.276 0.104 7.35 9.05 10.64
4/13/2022 1:30:00 PM 12.02 53.636 0.105 7.35 8.08 10.6
4/13/2022 1:45:00 PM 12.21 53.978 0.105 7.34 8.68 10.55
4/13/2022 2:00:00 PM 12.37 54.266 0.105 7.34 8.76 10.53
4/13/2022 2:15:00 PM 12.47 54.446 0.104 7.35 8.36 10.49
4/13/2022 2:30:00 PM 12.59 54.662 0.104 7.36 8.17 10.45
4/13/2022 2:45:00 PM 12.73 54.914 0.105 7.36 8.42 10.41
4/13/2022 3:00:00 PM 12.83 55.094 0.105 7.35 8.07 10.38
4/13/2022 3:15:00 PM 12.92 55.256 0.105 7.36 7.96 10.34
4/13/2022 3:30:00 PM 12.97 55.346 0.105 7.34 8.5 10.29
4/13/2022 3:45:00 PM 13.01 55.418 0.105 7.35 8.18 10.26
4/13/2022 4:00:00 PM 13.05 55.49 0.105 7.33 8.6 10.23
4/13/2022 4:15:00 PM 13.14 55.652 0.105 7.34 8.47 10.22
4/13/2022 4:30:00 PM 13.24 55.832 0.105 7.33 8.48 10.21
4/13/2022 4:45:00 PM 13.32 55.976 0.105 7.34 8.16 10.19
4/13/2022 5:00:00 PM 13.38 56.084 0.105 7.35 8.04 10.16
4/13/2022 5:15:00 PM 13.41 56.138 0.105 7.35 8.66 10.14
4/13/2022 5:30:00 PM 13.42 56.156 0.105 7.35 9.17 10.13
4/13/2022 5:45:00 PM 13.42 56.156 0.105 7.34 8.26 10.11
4/13/2022 6:00:00 PM 13.41 56.138 0.105 7.34 8.07 10.09
4/13/2022 6:15:00 PM 13.41 56.138 0.106 7.31 8.86 10.07
4/13/2022 6:30:00 PM 13.39 56.102 0.106 7.3 8.83 10.05
4/13/2022 6:45:00 PM 13.37 56.066 0.106 7.28 9.12 10.04
4/13/2022 7:00:00 PM 13.34 56.012 0.106 7.29 8.69 10.03
4/13/2022 7:15:00 PM 13.31 55.958 0.106 7.29 8.59 10.02
4/13/2022 7:30:00 PM 13.28 55.904 0.106 7.26 9.15 10.01
4/13/2022 7:45:00 PM 13.24 55.832 0.106 7.25 9.41 10
4/13/2022 8:00:00 PM 13.2 55.76 0.106 7.25 8.87 9.99
4/13/2022 8:15:00 PM 13.16 55.688 0.107 7.23 9.39 10
4/13/2022 8:30:00 PM 13.12 55.616 0.107 7.25 9.35 9.99
4/13/2022 8:45:00 PM 13.07 55.526 0.107 7.24 9.6 10
4/13/2022 9:00:00 PM 13.01 55.418 0.107 7.24 9.88 10.01
4/13/2022 9:15:00 PM 12.96 55.328 0.107 7.24 9.64 10.01
4/13/2022 9:30:00 PM 12.9 55.22 0.107 7.24 9.59 10.02
4/13/2022 9:45:00 PM 12.83 55.094 0.107 7.22 9.21 10.03
4/13/2022 10:00:00 PM 12.76 54.968 0.107 7.23 9.23 10.05
4/13/2022 10:15:00 PM 12.69 54.842 0.108 7.23 9.33 10.05
4/13/2022 10:30:00 PM 12.63 54.734 0.108 7.23 9.44 10.06
4/13/2022 10:45:00 PM 12.57 54.626 0.108 7.23 8.98 10.08
4/13/2022 11:00:00 PM 12.51 54.518 0.108 7.22 9.23 10.09
4/13/2022 11:15:00 PM 12.44 54.392 0.109 7.23 9.19 10.1
4/13/2022 11:30:00 PM 12.36 54.248 0.109 7.22 9.54 10.11
4/13/2022 11:45:00 PM 12.28 54.104 0.109 7.23 8.92 10.13
4/14/2022 12:00:00 AM 12.2 53.96 0.109 7.22 9.15 10.15
4/14/2022 12:15:00 AM 12.13 53.834 0.109 7.23 8.32 10.16
4/14/2022 12:30:00 AM 12.06 53.708 0.109 7.23 8.77 10.17
4/14/2022 12:45:00 AM 11.99 53.582 0.109 7.24 8.86 10.2
4/14/2022 1:00:00 AM 11.92 53.456 0.11 7.22 9.29 10.21
4/14/2022 1:15:00 AM 11.85 53.33 0.11 7.23 9.38 10.22
4/14/2022 1:30:00 AM 11.78 53.204 0.11 7.24 9.37 10.24
4/14/2022 1:45:00 AM 11.71 53.078 0.11 7.23 9.14 10.26
4/14/2022 2:00:00 AM 11.65 52.97 0.11 7.24 9.11 10.27
4/14/2022 2:15:00 AM 11.63 52.934 0.11 7.25 8.63 10.28
4/14/2022 2:30:00 AM 11.61 52.898 0.11 7.25 8.81 10.28
4/14/2022 2:45:00 AM 11.58 52.844 0.11 7.24 8.81 10.29
4/14/2022 3:00:00 AM 11.55 52.79 0.11 7.25 8.7 10.3
4/14/2022 3:15:00 AM 11.5 52.7 0.11 7.25 8.84 10.31
4/14/2022 3:30:00 AM 11.47 52.646 0.11 7.23 8.96 10.32
4/14/2022 3:45:00 AM 11.43 52.574 0.11 7.24 8.99 10.32
4/14/2022 4:00:00 AM 11.41 52.538 0.11 7.24 8.52 10.33
4/14/2022 4:15:00 AM 11.38 52.484 0.11 7.22 8.5 10.34
4/14/2022 4:30:00 AM 11.34 52.412 0.11 7.23 8.9 10.35
4/14/2022 4:45:00 AM 11.29 52.322 0.11 7.23 8.52 10.35
4/14/2022 5:00:00 AM 11.24 52.232 0.11 7.22 8.74 10.36
4/14/2022 5:15:00 AM 11.19 52.142 0.109 7.22 8.14 10.37
4/14/2022 5:30:00 AM 11.14 52.052 0.107 7.2 8.14 10.38
4/14/2022 5:45:00 AM 11.1 51.98 0.109 7.2 9.07 10.39
4/14/2022 6:00:00 AM 11.06 51.908 0.11 7.22 9.01 10.4
4/14/2022 6:15:00 AM 11.01 51.818 0.11 7.21 8.2 10.4
4/14/2022 6:30:00 AM 10.97 51.746 0.11 7.21 8.47 10.42
4/14/2022 6:45:00 AM 10.93 51.674 0.11 7.22 9.06 10.43
4/14/2022 7:00:00 AM 10.9 51.62 0.11 7.22 8.89 10.45
4/14/2022 7:15:00 AM 10.87 51.566 0.11 7.22 9.02 10.47
4/14/2022 7:30:00 AM 10.86 51.548 0.11 7.23 8.5 10.48
4/14/2022 7:45:00 AM 10.85 51.53 0.11 7.24 8.43 10.5
4/14/2022 8:00:00 AM 10.87 51.566 0.11 7.24 8.05 10.52
4/14/2022 8:15:00 AM 10.9 51.62 0.11 7.25 8.09 10.53
4/14/2022 8:30:00 AM 10.94 51.692 0.11 7.24 8.15 10.54
4/14/2022 8:45:00 AM 11 51.8 0.11 7.24 11.59 10.55
4/14/2022 9:00:00 AM 11.1 51.98 0.11 7.28 8.52 10.55
4/14/2022 9:15:00 AM 11.19 52.142 0.11 7.29 8.32 10.55
4/14/2022 9:30:00 AM 11.32 52.376 0.11 7.3 8.21 10.54
4/14/2022 9:45:00 AM 11.46 52.628 0.11 7.31 8.5 10.52
4/14/2022 10:00:00 AM 11.61 52.898 0.11 7.32 7.76 10.51
4/14/2022 10:15:00 AM 11.82 53.276 0.11 7.33 7.98 10.49
4/14/2022 10:30:00 AM 12.02 53.636 0.109 7.33 8.23 10.46
4/14/2022 10:45:00 AM 12.25 54.05 0.109 7.33 8.28 10.43
4/14/2022 11:00:00 AM 12.39 54.302 0.11 7.35 7.38 10.4
4/14/2022 11:15:00 AM 12.56 54.608 0.11 7.36 7.44 10.37
4/14/2022 11:30:00 AM 12.8 55.04 0.109 7.38 7.9 10.33
4/14/2022 11:45:00 AM 12.98 55.364 0.109 7.38 7.32 10.29
4/14/2022 12:00:00 PM 13.15 55.67 0.109 7.38 7.91 10.26
4/14/2022 12:15:00 PM 13.21 55.778 0.115 7.38 7.12 10.22
4/14/2022 12:30:00 PM 13.21 55.778 0.109 7.38 9.09 10.18
4/14/2022 12:45:00 PM 13.17 55.706 0.115 7.37 7.04 10.15
4/14/2022 1:00:00 PM 13.18 55.724 0.109 7.37 7.13 10.14
4/14/2022 1:15:00 PM 13.21 55.778 0.109 7.36 7.19 10.1
4/14/2022 1:30:00 PM 13.25 55.85 0.109 7.36 12.15 10.09
4/14/2022 1:45:00 PM 13.29 55.922 0.109 7.35 9.41 10.09
4/14/2022 2:00:00 PM 13.34 56.012 0.109 7.37 6.96 10.1
4/14/2022 2:15:00 PM 13.36 56.048 0.109 7.37 7.63 10.09
4/14/2022 2:30:00 PM 13.36 56.048 0.109 7.36 7.49 10.07
4/14/2022 2:45:00 PM 13.38 56.084 0.115 7.35 7.16 10.06
4/14/2022 3:00:00 PM 13.38 56.084 0.109 7.35 7.59 10.04
4/14/2022 3:15:00 PM 13.39 56.102 0.108 7.35 7.56 10.04
4/14/2022 3:30:00 PM 13.39 56.102 0.114 7.37 7.55 10.03
4/14/2022 3:45:00 PM 13.4 56.12 0.114 7.35 8.03 10.03
4/14/2022 4:00:00 PM 13.41 56.138 0.108 7.34 7.31 10.03
4/14/2022 4:15:00 PM 13.45 56.21 0.108 7.35 7.08 10.04
4/14/2022 4:30:00 PM 13.46 56.228 0.108 7.36 7.85 10.03
4/14/2022 4:45:00 PM 13.45 56.21 0.108 7.35 7.42 10.01
4/14/2022 5:00:00 PM 13.44 56.192 0.108 7.34 7.69 10.01
4/14/2022 5:15:00 PM 13.43 56.174 0.108 7.35 8.09 10.01
4/14/2022 5:30:00 PM 13.4 56.12 0.108 7.35 8.36 10
4/14/2022 5:45:00 PM 13.39 56.102 0.108 7.36 7.93 10.01
4/14/2022 6:00:00 PM 13.38 56.084 0.108 7.36 7.53 10.02
4/14/2022 6:15:00 PM 13.35 56.03 0.108 7.35 8.01 10.02
4/14/2022 6:30:00 PM 13.3 55.94 0.115 7.35 7.42 10.02
4/14/2022 6:45:00 PM 13.25 55.85 0.109 7.34 8.18 10.01
4/14/2022 7:00:00 PM 13.2 55.76 0.109 7.35 7.72 10.02
4/14/2022 7:15:00 PM 13.13 55.634 0.109 7.34 7.97 10.02
4/14/2022 7:30:00 PM 13.08 55.544 0.109 7.33 7.77 10.02
4/14/2022 7:45:00 PM 13.02 55.436 0.109 7.32 7.61 10.03
4/14/2022 8:00:00 PM 12.94 55.292 0.109 7.31 7.88 10.03
4/14/2022 8:15:00 PM 12.85 55.13 0.109 7.31 7.73 10.05
4/14/2022 8:30:00 PM 12.75 54.95 0.109 7.3 7.57 10.05
4/14/2022 8:45:00 PM 12.66 54.788 0.109 7.31 8.4 10.07
4/14/2022 9:00:00 PM 12.55 54.59 0.109 7.3 8.24 10.1
4/14/2022 9:15:00 PM 12.45 54.41 0.109 7.29 11.02 10.12
4/14/2022 9:30:00 PM 12.35 54.23 0.109 7.28 8.33 10.14
4/14/2022 9:45:00 PM 12.24 54.032 0.109 7.3 8.33 10.17
4/14/2022 10:00:00 PM 12.12 53.816 0.109 7.29 9.17 10.19
4/14/2022 10:15:00 PM 12.02 53.636 0.109 7.29 8.65 10.22
4/14/2022 10:30:00 PM 11.9 53.42 0.109 7.29 8.18 10.24
4/14/2022 10:45:00 PM 11.79 53.222 0.109 7.27 8.79 10.27
4/14/2022 11:00:00 PM 11.68 53.024 0.11 7.29 7.98 10.3
4/14/2022 11:15:00 PM 11.57 52.826 0.11 7.29 8.43 10.33
4/14/2022 11:30:00 PM 11.48 52.664 0.11 7.28 8.93 10.36
4/14/2022 11:45:00 PM 11.38 52.484 0.11 7.28 8.18 10.38
4/15/2022 12:00:00 AM 11.28 52.304 0.11 7.28 8.14 10.41
4/15/2022 12:15:00 AM 11.17 52.106 0.11 7.29 8.28 10.44
4/15/2022 12:30:00 AM 11.07 51.926 0.11 7.29 8.2 10.46
4/15/2022 12:45:00 AM 10.98 51.764 0.11 7.27 8.51 10.48
4/15/2022 1:00:00 AM 10.9 51.62 0.11 7.29 7.75 10.51
4/15/2022 1:15:00 AM 10.81 51.458 0.11 7.27 31.36 10.53
4/15/2022 1:30:00 AM 10.72 51.296 0.11 7.27 7.77 10.56
4/15/2022 1:45:00 AM 10.63 51.134 0.11 7.27 7.71 10.58
4/15/2022 2:00:00 AM 10.53 50.954 0.111 7.27 8.24 10.61
4/15/2022 2:15:00 AM 10.42 50.756 0.11 7.26 7.86 10.63
4/15/2022 2:30:00 AM 10.33 50.594 0.11 7.28 8.05 10.66
4/15/2022 2:45:00 AM 10.25 50.45 0.11 7.28 7.86 10.68
4/15/2022 3:00:00 AM 10.17 50.306 0.11 7.28 7.53 10.7
4/15/2022 3:15:00 AM 10.08 50.144 0.11 7.27 7.42 10.72
4/15/2022 3:30:00 AM 9.99 49.982 0.111 7.28 8.09 10.75
4/15/2022 3:45:00 AM 9.9 49.82 0.11 7.27 7.3 10.77
4/15/2022 4:00:00 AM 9.8 49.64 0.111 7.25 7.21 10.81
4/15/2022 4:15:00 AM 9.71 49.478 0.11 7.24 7.74 10.82
4/15/2022 4:30:00 AM 9.62 49.316 0.111 7.24 7.48 10.85
4/15/2022 4:45:00 AM 9.54 49.172 0.111 7.25 7.37 10.88
4/15/2022 5:00:00 AM 9.45 49.01 0.111 7.24 8.16 10.91
4/15/2022 5:15:00 AM 9.36 48.848 0.111 7.24 8.01 10.94
4/15/2022 5:30:00 AM 9.29 48.722 0.111 7.25 6.93 10.96
4/15/2022 5:45:00 AM 9.21 48.578 0.111 7.24 8.04 10.97
4/15/2022 6:00:00 AM 9.14 48.452 0.111 7.26 7.29 11
4/15/2022 6:15:00 AM 9.06 48.308 0.111 7.24 7.67 11.02
4/15/2022 6:30:00 AM 8.98 48.164 0.111 7.24 7.89 11.05
4/15/2022 6:45:00 AM 8.91 48.038 0.111 7.26 7.2 11.08
4/15/2022 7:00:00 AM 8.85 47.93 0.111 7.25 8.2 11.1
4/15/2022 7:15:00 AM 8.8 47.84 0.111 7.25 7.35 11.13
4/15/2022 7:30:00 AM 8.76 47.768 0.111 7.25 7.53 11.17
4/15/2022 7:45:00 AM 8.73 47.714 0.111 7.26 6.88 11.19
4/15/2022 8:00:00 AM 8.72 47.696 0.111 7.29 6.72 11.22
4/15/2022 8:15:00 AM 8.72 47.696 0.111 7.29 9.02 11.25
4/15/2022 8:30:00 AM 8.7 47.66 0.111 7.3 6.69 11.28
4/15/2022 8:45:00 AM 8.75 47.75 0.111 7.3 7.33 11.29
4/15/2022 9:00:00 AM 8.78 47.804 0.111 7.29 6.92 11.31
4/15/2022 9:15:00 AM 8.85 47.93 0.111 7.31 6.28 11.31
4/15/2022 9:30:00 AM 8.93 48.074 0.111 7.32 6.51 11.31
4/15/2022 9:45:00 AM 9.03 48.254 0.111 7.32 6.68 11.3
4/15/2022 10:00:00 AM 9.16 48.488 0.111 7.33 6.77 11.28
4/15/2022 10:15:00 AM 9.3 48.74 0.111 7.34 6.84 11.26
4/15/2022 10:30:00 AM 9.48 49.064 0.111 7.34 6.3 11.24
4/15/2022 10:45:00 AM 9.68 49.424 0.111 7.34 6.63 11.21
4/15/2022 11:00:00 AM 9.89 49.802 0.111 7.35 6.19 11.17
4/15/2022 11:15:00 AM 10.12 50.216 0.112 7.37 6.25 11.12
4/15/2022 11:30:00 AM 10.35 50.63 0.111 7.39 6.64 11.08
4/15/2022 11:45:00 AM 10.58 51.044 0.111 7.39 5.96 11.04
4/15/2022 12:00:00 PM 10.83 51.494 0.111 7.39 6.04 10.98
4/15/2022 12:15:00 PM 11.07 51.926 0.111 7.39 6.21 10.93
4/15/2022 12:30:00 PM 11.3 52.34 0.111 7.4 6.29 10.87
4/15/2022 12:45:00 PM 11.51 52.718 0.111 7.41 6.19 10.82
4/15/2022 1:00:00 PM 11.74 53.132 0.111 7.42 6.47 10.77
4/15/2022 1:15:00 PM 11.95 53.51 0.111 7.42 6.05 10.7
4/15/2022 1:30:00 PM 12.18 53.924 0.111 7.41 6.39 10.65
4/15/2022 1:45:00 PM 12.37 54.266 0.111 7.42 6.63 10.6
4/15/2022 2:00:00 PM 12.56 54.608 0.111 7.43 6.34 10.55
4/15/2022 2:15:00 PM 12.72 54.896 0.111 7.44 6.3 10.5
4/15/2022 2:30:00 PM 12.86 55.148 0.111 7.43 6.3 10.45
4/15/2022 2:45:00 PM 13.01 55.418 0.111 7.44 6.74 10.42
4/15/2022 3:00:00 PM 13.12 55.616 0.111 7.44 6.57 10.37
4/15/2022 3:15:00 PM 13.1 55.58 0.111 7.44 6.41 10.34
4/15/2022 3:30:00 PM 13.1 55.58 0.111 7.45 6.62 10.34
4/15/2022 3:45:00 PM 13.11 55.598 0.111 7.45 6.42 10.31
4/15/2022 4:00:00 PM 13.12 55.616 0.117 7.45 6.53 10.29
4/15/2022 4:15:00 PM 13.16 55.688 0.117 7.45 6.69 10.27
4/15/2022 4:30:00 PM 13.17 55.706 0.111 7.44 6.52 10.26
4/15/2022 4:45:00 PM 13.14 55.652 0.111 7.44 6.44 10.25
4/15/2022 5:00:00 PM 13.15 55.67 0.117 7.45 7.01 10.24
4/15/2022 5:15:00 PM 13.15 55.67 0.111 7.44 6.68 10.21
4/15/2022 5:30:00 PM 13.12 55.616 0.111 7.44 6.32 10.18
4/15/2022 5:45:00 PM 13.08 55.544 0.111 7.43 6.87 10.17
4/15/2022 6:00:00 PM 13.05 55.49 0.111 7.42 6.31 10.17
4/15/2022 6:15:00 PM 13.05 55.49 0.111 7.42 6.83 10.16
4/15/2022 6:30:00 PM 13.04 55.472 0.111 7.41 7.02 10.13
4/15/2022 6:45:00 PM 13.03 55.454 0.111 7.41 6.95 10.11
4/15/2022 7:00:00 PM 13.01 55.418 0.117 7.41 7.11 10.1
4/15/2022 7:15:00 PM 12.99 55.382 0.111 7.38 7.31 10.07
4/15/2022 7:30:00 PM 12.95 55.31 0.111 7.39 7.32 10.05
4/15/2022 7:45:00 PM 12.93 55.274 0.111 7.37 7.02 10.04
4/15/2022 8:00:00 PM 12.87 55.166 0.118 7.37 7.11 10.03
4/15/2022 8:15:00 PM 12.82 55.076 0.111 7.37 7.97 10.04
4/15/2022 8:30:00 PM 12.74 54.932 0.111 7.35 7.54 10.04
4/15/2022 8:45:00 PM 12.66 54.788 0.111 7.34 7.51 10.06
4/15/2022 9:00:00 PM 12.58 54.644 0.111 7.36 7.46 10.07
4/15/2022 9:15:00 PM 12.51 54.518 0.118 7.34 7.55 10.08
4/15/2022 9:30:00 PM 12.42 54.356 0.118 7.35 7.79 10.1
4/15/2022 9:45:00 PM 12.34 54.212 0.111 7.35 8.37 10.12
4/15/2022 10:00:00 PM 12.25 54.05 0.111 7.34 7.35 10.14
4/15/2022 10:15:00 PM 12.15 53.87 0.112 7.35 7.79 10.15
4/15/2022 10:30:00 PM 12.06 53.708 0.112 7.35 7.55 10.18
4/15/2022 10:45:00 PM 11.95 53.51 0.112 7.34 7.55 10.2
4/15/2022 11:00:00 PM 11.86 53.348 0.112 7.33 7.06 10.22
4/15/2022 11:15:00 PM 11.77 53.186 0.112 7.34 7.64 10.24
4/15/2022 11:30:00 PM 11.69 53.042 0.112 7.34 7.81 10.26
4/15/2022 11:45:00 PM 11.59 52.862 0.112 7.33 7.57 10.28
4/16/2022 12:00:00 AM 11.5 52.7 0.112 7.32 7.81 10.31
4/16/2022 12:15:00 AM 11.41 52.538 0.112 7.32 7.17 10.33
4/16/2022 12:30:00 AM 11.31 52.358 0.112 7.33 8.07 10.35
4/16/2022 12:45:00 AM 11.23 52.214 0.112 7.31 7.21 10.37
4/16/2022 1:00:00 AM 11.15 52.07 0.112 7.32 7.35 10.39
4/16/2022 1:15:00 AM 11.07 51.926 0.112 7.33 8.02 10.41
4/16/2022 1:30:00 AM 11 51.8 0.112 7.32 7.32 10.43
4/16/2022 1:45:00 AM 10.94 51.692 0.112 7.33 7.73 10.45
4/16/2022 2:00:00 AM 10.88 51.584 0.112 7.31 7.1 10.47
4/16/2022 2:15:00 AM 10.81 51.458 0.112 7.31 7.17 10.48
4/16/2022 2:30:00 AM 10.76 51.368 0.112 7.3 7.7 10.5
4/16/2022 2:45:00 AM 10.69 51.242 0.112 7.32 7.66 10.51
4/16/2022 3:00:00 AM 10.63 51.134 0.112 7.32 7.91 10.53
4/16/2022 3:15:00 AM 10.56 51.008 0.112 7.31 7.31 10.54
4/16/2022 3:30:00 AM 10.51 50.918 0.112 7.3 7.17 10.56
4/16/2022 3:45:00 AM 10.47 50.846 0.113 7.3 7.02 10.57
4/16/2022 4:00:00 AM 10.42 50.756 0.113 7.31 7.11 10.59
4/16/2022 4:15:00 AM 10.36 50.648 0.113 7.3 7 10.61
4/16/2022 4:30:00 AM 10.31 50.558 0.113 7.29 7.72 10.61
4/16/2022 4:45:00 AM 10.27 50.486 0.113 7.28 7.06 10.63
4/16/2022 5:00:00 AM 10.22 50.396 0.113 7.31 6.82 10.64
4/16/2022 5:15:00 AM 10.16 50.288 0.113 7.29 7.94 10.66
4/16/2022 5:30:00 AM 10.11 50.198 0.113 7.3 6.74 10.67
4/16/2022 5:45:00 AM 10.07 50.126 0.113 7.31 7.41 10.68
4/16/2022 6:00:00 AM 10.03 50.054 0.113 7.29 10.23 10.69
4/16/2022 6:15:00 AM 10 50 0.113 7.28 7.59 10.71
4/16/2022 6:30:00 AM 9.96 49.928 0.113 7.3 7.18 10.72
4/16/2022 6:45:00 AM 9.93 49.874 0.113 7.3 7.31 10.73
4/16/2022 7:00:00 AM 9.9 49.82 0.113 7.28 6.91 10.74
4/16/2022 7:15:00 AM 9.87 49.766 0.113 7.3 6.9 10.75
4/16/2022 7:30:00 AM 9.84 49.712 0.113 7.3 7.05 10.77
4/16/2022 7:45:00 AM 9.83 49.694 0.114 7.31 6.74 10.79
4/16/2022 8:00:00 AM 9.82 49.676 0.114 7.3 6.76 10.8
4/16/2022 8:15:00 AM 9.81 49.658 0.114 7.3 6.47 10.82
4/16/2022 8:30:00 AM 9.82 49.676 0.114 7.33 6.51 10.84
4/16/2022 8:45:00 AM 9.83 49.694 0.114 7.33 6.62 10.85
4/16/2022 9:00:00 AM 9.85 49.73 0.114 7.33 6.69 10.87
4/16/2022 9:15:00 AM 9.87 49.766 0.114 7.35 6.41 10.87
4/16/2022 9:30:00 AM 9.91 49.838 0.114 7.36 5.96 10.89
4/16/2022 9:45:00 AM 9.96 49.928 0.114 7.35 6.22 10.9
4/16/2022 10:00:00 AM 10.06 50.108 0.113 7.37 6.37 10.92
4/16/2022 10:15:00 AM 10.13 50.234 0.113 7.37 6.22 10.91
4/16/2022 10:30:00 AM 10.19 50.342 0.113 7.37 6.1 10.9
4/16/2022 10:45:00 AM 10.29 50.522 0.113 7.4 6.58 10.9
4/16/2022 11:00:00 AM 10.33 50.594 0.113 7.41 6.16 10.88
4/16/2022 11:15:00 AM 10.43 50.774 0.113 7.41 6.47 10.88
4/16/2022 11:30:00 AM 10.44 50.792 0.113 7.4 6.62 10.84
4/16/2022 11:45:00 AM 10.45 50.81 0.113 7.41 8.34 10.82
4/16/2022 12:00:00 PM 10.47 50.846 0.113 7.4 5.73 10.79
4/16/2022 12:15:00 PM 10.47 50.846 0.113 7.39 5.75 10.78
4/16/2022 12:30:00 PM 10.49 50.882 0.114 7.39 5.93 10.78
4/16/2022 12:45:00 PM 10.51 50.918 0.113 7.39 6.22 10.78
4/16/2022 1:00:00 PM 10.54 50.972 0.113 7.41 6.2 10.76
4/16/2022 1:15:00 PM 10.61 51.098 0.113 7.4 6.11 10.77
4/16/2022 1:30:00 PM 10.65 51.17 0.113 7.41 6.26 10.75
4/16/2022 1:45:00 PM 10.66 51.188 0.113 7.41 5.19 10.73
4/16/2022 2:00:00 PM 10.65 51.17 0.113 7.42 5.98 10.74
4/16/2022 2:15:00 PM 10.59 51.062 0.113 7.41 6.08 10.73
4/16/2022 2:30:00 PM 10.56 51.008 0.113 7.41 6.23 10.75
4/16/2022 2:45:00 PM 10.5 50.9 0.113 7.4 6.3 10.75
4/16/2022 3:00:00 PM 10.44 50.792 0.112 7.4 6.05 10.74
4/16/2022 3:15:00 PM 10.39 50.702 0.112 7.37 6.17 10.73
4/16/2022 3:30:00 PM 10.34 50.612 0.112 7.37 6.08 10.74
4/16/2022 3:45:00 PM 10.32 50.576 0.112 7.39 5.95 10.76
4/16/2022 4:00:00 PM 10.3 50.54 0.112 7.38 6.13 10.77
4/16/2022 4:15:00 PM 10.28 50.504 0.112 7.39 6.26 10.78
4/16/2022 4:30:00 PM 10.27 50.486 0.112 7.39 6.21 10.8
4/16/2022 4:45:00 PM 10.26 50.468 0.112 7.4 6.39 10.8
4/16/2022 5:00:00 PM 10.25 50.45 0.112 7.4 6.41 10.8
4/16/2022 5:15:00 PM 10.22 50.396 0.112 7.39 6.57 10.78
4/16/2022 5:30:00 PM 10.19 50.342 0.112 7.37 6.62 10.78
4/16/2022 5:45:00 PM 10.15 50.27 0.112 7.38 6.47 10.77
4/16/2022 6:00:00 PM 10.13 50.234 0.112 7.38 6.42 10.78
4/16/2022 6:15:00 PM 10.1 50.18 0.112 7.38 6.46 10.76
4/16/2022 6:30:00 PM 10.07 50.126 0.112 7.35 6.5 10.76
4/16/2022 6:45:00 PM 10.04 50.072 0.112 7.34 6.65 10.77
4/16/2022 7:00:00 PM 10.01 50.018 0.112 7.36 6.78 10.76
4/16/2022 7:15:00 PM 9.97 49.946 0.112 7.35 6.7 10.76
4/16/2022 7:30:00 PM 9.94 49.892 0.113 7.33 7.07 10.77
4/16/2022 7:45:00 PM 9.9 49.82 0.113 7.34 7.04 10.77
4/16/2022 8:00:00 PM 9.87 49.766 0.113 7.33 6.91 10.77
4/16/2022 8:15:00 PM 9.82 49.676 0.113 7.32 7.17 10.77
4/16/2022 8:30:00 PM 9.79 49.622 0.113 7.34 7.41 10.78
4/16/2022 8:45:00 PM 9.74 49.532 0.113 7.33 9 10.79
4/16/2022 9:00:00 PM 9.68 49.424 0.113 7.31 9.47 10.8
4/16/2022 9:15:00 PM 9.62 49.316 0.113 7.31 8.38 10.82
4/16/2022 9:30:00 PM 9.56 49.208 0.113 7.33 7.67 10.84
4/16/2022 9:45:00 PM 9.51 49.118 0.113 7.31 7.8 10.85
4/16/2022 10:00:00 PM 9.46 49.028 0.113 7.31 7.9 10.87
4/16/2022 10:15:00 PM 9.4 48.92 0.113 7.32 8.26 10.89
4/16/2022 10:30:00 PM 9.36 48.848 0.113 7.33 7.99 10.9
4/16/2022 10:45:00 PM 9.31 48.758 0.113 7.33 9.72 10.93
4/16/2022 11:00:00 PM 9.25 48.65 0.113 7.32 8.25 10.94
4/16/2022 11:15:00 PM 9.18 48.524 0.113 7.32 8.02 10.96
4/16/2022 11:30:00 PM 9.12 48.416 0.113 7.31 7.82 10.98
4/16/2022 11:45:00 PM 9.06 48.308 0.114 7.3 8.1 11
4/17/2022 12:00:00 AM 8.97 48.146 0.113 7.32 7.98 11.02
4/17/2022 12:15:00 AM 8.89 48.002 0.113 7.33 7.89 11.04
4/17/2022 12:30:00 AM 8.81 47.858 0.113 7.32 7.58 11.07
4/17/2022 12:45:00 AM 8.73 47.714 0.113 7.3 7.91 11.08
4/17/2022 1:00:00 AM 8.65 47.57 0.113 7.31 8.08 11.11
4/17/2022 1:15:00 AM 8.57 47.426 0.113 7.32 8.08 11.13
4/17/2022 1:30:00 AM 8.52 47.336 0.113 7.31 7.56 11.15
4/17/2022 1:45:00 AM 8.46 47.228 0.113 7.3 7.78 11.17
4/17/2022 2:00:00 AM 8.38 47.084 0.113 7.31 8.49 11.19
4/17/2022 2:15:00 AM 8.31 46.958 0.113 7.31 7.39 11.21
4/17/2022 2:30:00 AM 8.25 46.85 0.113 7.3 7.26 11.23
4/17/2022 2:45:00 AM 8.2 46.76 0.114 7.32 8.2 11.26
4/17/2022 3:00:00 AM 8.14 46.652 0.113 7.32 7.81 11.28
4/17/2022 3:15:00 AM 8.06 46.508 0.114 7.3 7.97 11.3
4/17/2022 3:30:00 AM 7.98 46.364 0.114 7.29 8.21 11.31
4/17/2022 3:45:00 AM 7.91 46.238 0.114 7.32 7.56 11.34
4/17/2022 4:00:00 AM 7.83 46.094 0.114 7.31 7.25 11.35
4/17/2022 4:15:00 AM 7.76 45.968 0.114 7.3 7.71 11.38
4/17/2022 4:30:00 AM 7.69 45.842 0.114 7.3 7.5 11.4
4/17/2022 4:45:00 AM 7.63 45.734 0.114 7.3 7.51 11.43
4/17/2022 5:00:00 AM 7.57 45.626 0.114 7.29 7.38 11.44
4/17/2022 5:15:00 AM 7.52 45.536 0.114 7.29 7.24 11.46
4/17/2022 5:30:00 AM 7.48 45.464 0.114 7.29 7.31 11.48
4/17/2022 5:45:00 AM 7.43 45.374 0.114 7.29 7.43 11.49
4/17/2022 6:00:00 AM 7.38 45.284 0.114 7.29 6.87 11.51
4/17/2022 6:15:00 AM 7.34 45.212 0.114 7.29 6.77 11.54
4/17/2022 6:30:00 AM 7.29 45.122 0.114 7.29 6.89 11.55
4/17/2022 6:45:00 AM 7.24 45.032 0.114 7.32 6.96 11.57
4/17/2022 7:00:00 AM 7.2 44.96 0.114 7.3 7.36 11.6
4/17/2022 7:15:00 AM 7.16 44.888 0.114 7.32 6.71 11.62
4/17/2022 7:30:00 AM 7.12 44.816 0.114 7.31 7.34 11.64
4/17/2022 7:45:00 AM 7.09 44.762 0.114 7.33 7.04 11.68
4/17/2022 8:00:00 AM 7.06 44.708 0.114 7.34 8.71 11.71
4/17/2022 8:15:00 AM 7.05 44.69 0.114 7.35 6.89 11.74
4/17/2022 8:30:00 AM 7.04 44.672 0.113 7.36 7.15 11.76
4/17/2022 8:45:00 AM 7.04 44.672 0.113 7.35 6.84 11.78
4/17/2022 9:00:00 AM 7.02 44.636 0.113 7.36 7.24 11.8
4/17/2022 9:15:00 AM 7 44.6 0.114 7.36 6.65 11.82
4/17/2022 9:30:00 AM 7.05 44.69 0.113 7.37 6.94 11.84
4/17/2022 9:45:00 AM 7.11 44.798 0.113 7.38 7.11 11.85
4/17/2022 10:00:00 AM 7.16 44.888 0.113 7.39 6.78 11.86
4/17/2022 10:15:00 AM 7.21 44.978 0.113 7.4 6.84 11.86
4/17/2022 10:30:00 AM 7.23 45.014 0.113 7.4 6.53 11.86
4/17/2022 10:45:00 AM 7.26 45.068 0.113 7.41 6.65 11.86
4/17/2022 11:00:00 AM 7.24 45.032 0.113 7.41 6.05 11.87
4/17/2022 11:15:00 AM 7.38 45.284 0.113 7.4 6.28 11.87
4/17/2022 11:30:00 AM 7.52 45.536 0.113 7.42 6.39 11.85
4/17/2022 11:45:00 AM 7.64 45.752 0.113 7.42 6.64 11.83
4/17/2022 12:00:00 PM 7.71 45.878 0.112 7.42 6.61 11.81
4/17/2022 12:15:00 PM 7.77 45.986 0.112 7.42 6.35 11.8
4/17/2022 12:30:00 PM 7.83 46.094 0.112 7.43 6.39 11.79
4/17/2022 12:45:00 PM 7.97 46.346 0.112 7.43 6.37 11.77
4/17/2022 1:00:00 PM 8.09 46.562 0.112 7.44 6.3 11.73
4/17/2022 1:15:00 PM 8.27 46.886 0.112 7.44 6.01 11.7
4/17/2022 1:30:00 PM 8.46 47.228 0.112 7.44 6.1 11.67
4/17/2022 1:45:00 PM 8.6 47.48 0.112 7.44 5.9 11.62
4/17/2022 2:00:00 PM 8.67 47.606 0.112 7.45 6.34 11.59
4/17/2022 2:15:00 PM 8.67 47.606 0.112 7.45 6.26 11.58
4/17/2022 2:30:00 PM 8.74 47.732 0.112 7.46 6.16 11.57
4/17/2022 2:45:00 PM 8.82 47.876 0.112 7.46 6.16 11.56
4/17/2022 3:00:00 PM 9 48.2 0.112 7.47 6.33 11.53
4/17/2022 3:15:00 PM 9.15 48.47 0.112 7.46 5.97 11.47
4/17/2022 3:30:00 PM 9.28 48.704 0.112 7.47 6.06 11.44
4/17/2022 3:45:00 PM 9.27 48.686 0.112 7.46 5.91 11.4
4/17/2022 4:00:00 PM 9.21 48.578 0.112 7.46 6.13 11.39
4/17/2022 4:15:00 PM 9.12 48.416 0.112 7.46 6.07 11.39
4/17/2022 4:30:00 PM 9.12 48.416 0.112 7.46 5.91 11.41
4/17/2022 4:45:00 PM 9.11 48.398 0.112 7.46 5.91 11.4
4/17/2022 5:00:00 PM 9.14 48.452 0.112 7.46 6.15 11.4
4/17/2022 5:15:00 PM 9.14 48.452 0.112 7.46 6.31 11.38
4/17/2022 5:30:00 PM 9.08 48.344 0.112 7.47 6.22 11.36
4/17/2022 5:45:00 PM 9.09 48.362 0.112 7.44 6.2 11.37
4/17/2022 6:00:00 PM 9.1 48.38 0.112 7.45 6.11 11.36
4/17/2022 6:15:00 PM 9.06 48.308 0.112 7.46 6.09 11.34
4/17/2022 6:30:00 PM 9.05 48.29 0.112 7.45 6.2 11.32
4/17/2022 6:45:00 PM 9.01 48.218 0.112 7.44 6.16 11.3
4/17/2022 7:00:00 PM 8.96 48.128 0.112 7.44 6.57 11.29
4/17/2022 7:15:00 PM 8.92 48.056 0.112 7.43 6.52 11.27
4/17/2022 7:30:00 PM 8.89 48.002 0.112 7.42 6.32 11.26
4/17/2022 7:45:00 PM 8.86 47.948 0.112 7.39 6.22 11.24
4/17/2022 8:00:00 PM 8.81 47.858 0.112 7.4 6.35 11.23
4/17/2022 8:15:00 PM 8.75 47.75 0.113 7.39 6.17 11.24
4/17/2022 8:30:00 PM 8.67 47.606 0.113 7.37 6.34 11.25
4/17/2022 8:45:00 PM 8.58 47.444 0.113 7.37 6.5 11.27
4/17/2022 9:00:00 PM 8.48 47.264 0.113 7.35 6.33 11.3
4/17/2022 9:15:00 PM 8.38 47.084 0.113 7.34 6.49 11.31
4/17/2022 9:30:00 PM 8.29 46.922 0.113 7.34 6.58 11.33
4/17/2022 9:45:00 PM 8.2 46.76 0.113 7.33 6.87 11.36
4/17/2022 10:00:00 PM 8.1 46.58 0.113 7.34 6.64 11.38
4/17/2022 10:15:00 PM 8.01 46.418 0.113 7.34 6.22 11.4
4/17/2022 10:30:00 PM 7.92 46.256 0.113 7.33 6.39 11.43
4/17/2022 10:45:00 PM 7.82 46.076 0.113 7.32 6.3 11.46
4/17/2022 11:00:00 PM 7.73 45.914 0.113 7.33 6.29 11.48
4/17/2022 11:15:00 PM 7.65 45.77 0.113 7.33 6.05 11.5
4/17/2022 11:30:00 PM 7.55 45.59 0.113 7.31 6.56 11.53
4/17/2022 11:45:00 PM 7.46 45.428 0.113 7.31 6.95 11.56
4/18/2022 12:00:00 AM 7.36 45.248 0.113 7.32 6.32 11.59
4/18/2022 12:15:00 AM 7.27 45.086 0.113 7.32 6 11.62
4/18/2022 12:30:00 AM 7.17 44.906 0.113 7.31 6.52 11.64
4/18/2022 12:45:00 AM 7.07 44.726 0.113 7.31 6.42 11.68
4/18/2022 1:00:00 AM 6.97 44.546 0.113 7.3 6.16 11.7
4/18/2022 1:15:00 AM 6.88 44.384 0.113 7.28 6.4 11.73
4/18/2022 1:30:00 AM 6.78 44.204 0.113 7.28 6.03 11.77
4/18/2022 1:45:00 AM 6.68 44.024 0.113 7.31 6.11 11.79
4/18/2022 2:00:00 AM 6.59 43.862 0.113 7.31 6.11 11.82
4/18/2022 2:15:00 AM 6.49 43.682 0.113 7.31 5.85 11.86
4/18/2022 2:30:00 AM 6.41 43.538 0.113 7.29 7.2 11.88
4/18/2022 2:45:00 AM 6.31 43.358 0.113 7.3 6.24 11.91
4/18/2022 3:00:00 AM 6.22 43.196 0.113 7.3 6.04 11.94
4/18/2022 3:15:00 AM 6.13 43.034 0.113 7.29 5.76 11.97
4/18/2022 3:30:00 AM 6.04 42.872 0.113 7.29 5.93 12
4/18/2022 3:45:00 AM 5.95 42.71 0.113 7.29 6.01 12.03
4/18/2022 4:00:00 AM 5.86 42.548 0.113 7.27 5.67 12.06
4/18/2022 4:15:00 AM 5.77 42.386 0.113 7.29 5.58 12.09
4/18/2022 4:30:00 AM 5.68 42.224 0.113 7.28 5.75 12.11
4/18/2022 4:45:00 AM 5.59 42.062 0.113 7.27 6.53 12.15
4/18/2022 5:00:00 AM 5.51 41.918 0.113 7.28 6.06 12.18
4/18/2022 5:15:00 AM 5.42 41.756 0.113 7.26 5.81 12.2
4/18/2022 5:30:00 AM 5.33 41.594 0.113 7.26 6.01 12.23
4/18/2022 5:45:00 AM 5.25 41.45 0.113 7.26 5.98 12.26
4/18/2022 6:00:00 AM 5.17 41.306 0.113 7.26 5.63 12.28
4/18/2022 6:15:00 AM 5.08 41.144 0.113 7.25 6.34 12.31
4/18/2022 6:30:00 AM 5.01 41.018 0.113 7.25 5.82 12.34
4/18/2022 6:45:00 AM 4.94 40.892 0.113 7.24 5.7 12.37
4/18/2022 7:00:00 AM 4.88 40.784 0.113 7.28 5.44 12.41
4/18/2022 7:15:00 AM 4.83 40.694 0.113 7.28 6.45 12.44
4/18/2022 7:30:00 AM 4.79 40.622 0.113 7.27 5.68 12.48
4/18/2022 7:45:00 AM 4.79 40.622 0.113 7.27 5.44 12.51
4/18/2022 8:00:00 AM 4.8 40.64 0.113 7.3 5.72 12.54
4/18/2022 8:15:00 AM 4.82 40.676 0.113 7.3 5.41 12.56
4/18/2022 8:30:00 AM 4.87 40.766 0.113 7.31 5.36 12.57
4/18/2022 8:45:00 AM 4.95 40.91 0.113 7.33 5.63 12.58
4/18/2022 9:00:00 AM 5 41 0.113 7.33 5.26 12.58
4/18/2022 9:15:00 AM 5.12 41.216 0.113 7.35 5.39 12.57
4/18/2022 9:30:00 AM 5.17 41.306 0.113 7.34 5.34 12.55
4/18/2022 9:45:00 AM 5.26 41.468 0.113 7.35 5.4 12.54
4/18/2022 10:00:00 AM 5.39 41.702 0.113 7.37 5.21 12.52
4/18/2022 10:15:00 AM 5.57 42.026 0.113 7.36 5.5 12.5
4/18/2022 10:30:00 AM 5.72 42.296 0.113 7.37 5.06 12.46
4/18/2022 10:45:00 AM 5.86 42.548 0.113 7.37 5.23 12.41
4/18/2022 11:00:00 AM 5.99 42.782 0.113 7.38 5.2 12.39
4/18/2022 11:15:00 AM 6.15 43.07 0.113 7.38 5.43 12.35
4/18/2022 11:30:00 AM 6.29 43.322 0.113 7.39 5.2 12.31
4/18/2022 11:45:00 AM 6.38 43.484 0.113 7.39 5.37 12.27
4/18/2022 12:00:00 PM 6.49 43.682 0.113 7.4 4.9 12.23
4/18/2022 12:15:00 PM 6.58 43.844 0.113 7.43 4.99 12.2
4/18/2022 12:30:00 PM 6.66 43.988 0.113 7.41 5.21 12.18
4/18/2022 12:45:00 PM 6.71 44.078 0.113 7.43 5.14 12.15
4/18/2022 1:00:00 PM 6.77 44.186 0.113 7.42 5.13 12.14
4/18/2022 1:15:00 PM 6.84 44.312 0.113 7.43 4.88 12.11
4/18/2022 1:30:00 PM 6.9 44.42 0.113 7.44 4.89 12.09
4/18/2022 1:45:00 PM 6.95 44.51 0.113 7.45 4.95 12.06
4/18/2022 2:00:00 PM 6.98 44.564 0.113 7.44 5.07 12.05
4/18/2022 2:15:00 PM 7 44.6 0.113 7.45 4.97 12.02
4/18/2022 2:30:00 PM 7.01 44.618 0.113 7.45 4.85 12.01
4/18/2022 2:45:00 PM 7.01 44.618 0.113 7.45 5.05 11.99
4/18/2022 3:00:00 PM 7.01 44.618 0.113 7.45 4.92 11.98
4/18/2022 3:15:00 PM 7.02 44.636 0.113 7.44 4.95 11.97
4/18/2022 3:30:00 PM 7.03 44.654 0.113 7.45 4.97 11.95
4/18/2022 3:45:00 PM 7.02 44.636 0.113 7.43 5.01 11.94
4/18/2022 4:00:00 PM 7.03 44.654 0.113 7.43 5.08 11.91
4/18/2022 4:15:00 PM 7.03 44.654 0.113 7.42 4.9 11.9
4/18/2022 4:30:00 PM 7.01 44.618 0.113 7.42 4.94 11.88
4/18/2022 4:45:00 PM 6.99 44.582 0.113 7.43 5.47 11.86
4/18/2022 5:00:00 PM 6.97 44.546 0.113 7.42 5.04 11.85
4/18/2022 5:15:00 PM 6.96 44.528 0.113 7.42 4.73 11.83
4/18/2022 5:30:00 PM 6.92 44.456 0.113 7.4 5.08 11.83
4/18/2022 5:45:00 PM 6.86 44.348 0.113 7.4 5 11.81
4/18/2022 6:00:00 PM 6.79 44.222 0.112 7.39 5.09 11.82
4/18/2022 6:15:00 PM 6.73 44.114 0.112 7.39 5.66 11.82
4/18/2022 6:30:00 PM 6.62 43.916 0.112 7.38 5.33 11.82
4/18/2022 6:45:00 PM 6.57 43.826 0.112 7.37 5.09 11.82
4/18/2022 7:00:00 PM 6.5 43.7 0.112 7.36 5.11 11.83
4/18/2022 7:15:00 PM 6.45 43.61 0.112 7.34 5.31 11.83
4/18/2022 7:30:00 PM 6.37 43.466 0.112 7.34 5.42 11.84
4/18/2022 7:45:00 PM 6.33 43.394 0.112 7.35 5.22 11.84
4/18/2022 8:00:00 PM 6.29 43.322 0.113 7.35 5.26 11.84
4/18/2022 8:15:00 PM 6.26 43.268 0.113 7.34 5.26 11.85
4/18/2022 8:30:00 PM 6.22 43.196 0.113 7.33 5.49 11.85
4/18/2022 8:45:00 PM 6.2 43.16 0.113 7.32 5.61 11.85
4/18/2022 9:00:00 PM 6.17 43.106 0.114 7.32 5.62 11.87
4/18/2022 9:15:00 PM 6.11 42.998 0.113 7.32 5.58 11.87
4/18/2022 9:30:00 PM 6.04 42.872 0.114 7.32 5.67 11.88
4/18/2022 9:45:00 PM 5.98 42.764 0.115 7.31 5.54 11.9
4/18/2022 10:00:00 PM 5.87 42.566 0.115 7.3 5.6 11.91
4/18/2022 10:15:00 PM 5.7 42.26 0.115 7.3 6.14 11.92
4/18/2022 10:30:00 PM 5.56 42.008 0.114 7.31 5.59 11.96
4/18/2022 10:45:00 PM 5.4 41.72 0.114 7.31 5.63 11.99
4/18/2022 11:00:00 PM 5.24 41.432 0.115 7.29 5.69 12.02
4/18/2022 11:15:00 PM 5.06 41.108 0.115 7.3 5.71 12.05
4/18/2022 11:30:00 PM 4.78 40.604 0.115 7.29 6.01 12.1
4/18/2022 11:45:00 PM 4.48 40.064 0.117 7.27 5.95 12.16
4/19/2022 12:00:00 AM 4.21 39.578 0.117 7.27 6.08 12.23
4/19/2022 12:15:00 AM 3.85 38.93 0.117 7.29 5.42 12.31
4/19/2022 12:30:00 AM 3.52 38.336 0.117 7.28 5.6 12.41
4/19/2022 12:45:00 AM 3.05 37.49 0.116 7.27 6.77 12.58
4/19/2022 1:00:00 AM 2.89 37.202 0.116 7.26 6.17 12.63
4/19/2022 1:15:00 AM 2.66 36.788 0.116 7.25 5.94 12.75
4/19/2022 1:30:00 AM 2.38 36.284 0.114 7.27 6.14 12.92
4/19/2022 1:45:00 AM 2.29 36.122 0.115 7.28 6.39 12.91
4/19/2022 2:00:00 AM 2.11 35.798 0.115 7.25 5.98 13
4/19/2022 2:15:00 AM 1.96 35.528 0.115 7.27 5.87 13.05
4/19/2022 2:30:00 AM 1.85 35.33 0.115 7.25 5.98 13.11
4/19/2022 2:45:00 AM 1.71 35.078 0.115 7.26 5.68 13.2
4/19/2022 3:00:00 AM 1.57 34.826 0.114 7.26 6.09 13.26
4/19/2022 3:15:00 AM 1.44 34.592 0.114 7.23 6.42 13.31
4/19/2022 3:30:00 AM 1.36 34.448 0.114 7.24 6.48 13.38
4/19/2022 3:45:00 AM 1.32 34.376 0.114 7.22 6.39 13.4
4/19/2022 4:00:00 AM 1.31 34.358 0.114 7.22 7 13.39
4/19/2022 4:15:00 AM 1.27 34.286 0.113 7.22 6.43 13.41
4/19/2022 4:30:00 AM 1.21 34.178 0.113 7.25 6.01 13.42
4/19/2022 4:45:00 AM 1.16 34.088 0.112 7.25 6.24 13.44
4/19/2022 5:00:00 AM 1.13 34.034 0.112 7.24 6.4 13.46
4/19/2022 5:15:00 AM 1.12 34.016 0.112 7.23 6.42 13.49
4/19/2022 5:30:00 AM 1.09 33.962 0.112 7.25 6.58 13.49
4/19/2022 5:45:00 AM 1.08 33.944 0.111 7.23 6.78 13.49
4/19/2022 6:00:00 AM 1.05 33.89 0.111 7.24 7.01 13.51
4/19/2022 6:15:00 AM 1.07 33.926 0.111 7.23 6.72 13.52
4/19/2022 6:30:00 AM 1.06 33.908 0.111 7.25 6.31 13.52
4/19/2022 6:45:00 AM 1.03 33.854 0.111 7.25 6.07 13.55
4/19/2022 7:00:00 AM 0.97 33.746 0.111 7.24 6.28 13.57
4/19/2022 7:15:00 AM 0.94 33.692 0.111 7.24 6.51 13.6
4/19/2022 7:30:00 AM 0.95 33.71 0.111 7.27 6.44 13.64
4/19/2022 7:45:00 AM 1.01 33.818 0.111 7.26 6.31 13.64
4/19/2022 8:00:00 AM 1.06 33.908 0.111 7.28 6.22 13.64
4/19/2022 8:15:00 AM 1.1 33.98 0.112 7.28 6.77 13.64
4/19/2022 8:30:00 AM 1.12 34.016 0.112 7.29 8.22 13.66
4/19/2022 8:45:00 AM 1.16 34.088 0.112 7.29 8.28 13.66
4/19/2022 9:00:00 AM 1.24 34.232 0.112 7.28 7.38 13.66
4/19/2022 9:15:00 AM 1.34 34.412 0.112 7.31 7.22 13.64
4/19/2022 9:30:00 AM 1.45 34.61 0.112 7.31 6.59 13.61
4/19/2022 9:45:00 AM 1.62 34.916 0.112 7.32 7.1 13.59
4/19/2022 10:00:00 AM 1.76 35.168 0.112 7.32 7.86 13.55
4/19/2022 10:15:00 AM 1.85 35.33 0.112 7.32 8.83 13.51
4/19/2022 10:30:00 AM 1.89 35.402 0.112 7.31 8 13.5
4/19/2022 10:45:00 AM 1.99 35.582 0.112 7.33 7.73 13.49
4/19/2022 11:00:00 AM 2.06 35.708 0.112 7.34 8.16 13.45
4/19/2022 11:15:00 AM 2.3 36.14 0.112 7.32 7.32 13.42
4/19/2022 11:30:00 AM 2.45 36.41 0.112 7.33 7.47 13.35
4/19/2022 11:45:00 AM 2.62 36.716 0.113 7.34 8 13.3
4/19/2022 12:00:00 PM 2.71 36.878 0.113 7.35 8.16 13.26
4/19/2022 12:15:00 PM 2.75 36.95 0.113 7.34 7.55 13.23
4/19/2022 12:30:00 PM 2.91 37.238 0.113 7.34 8.75 13.21
4/19/2022 12:45:00 PM 3.1 37.58 0.114 7.35 8.39 13.16
4/19/2022 1:00:00 PM 3.21 37.778 0.114 7.33 8.07 13.11
4/19/2022 1:15:00 PM 3.35 38.03 0.115 7.35 8.32 13.07
4/19/2022 1:30:00 PM 3.39 38.102 0.116 7.36 8.07 13.04
4/19/2022 1:45:00 PM 3.48 38.264 0.117 7.36 7.67 13.02
4/19/2022 2:00:00 PM 3.61 38.498 0.117 7.36 8.7 12.98
4/19/2022 2:15:00 PM 3.79 38.822 0.117 7.37 9.23 12.94
4/19/2022 2:30:00 PM 3.96 39.128 0.118 7.37 8.84 12.89
4/19/2022 2:45:00 PM 4.07 39.326 0.119 7.38 8.62 12.85
4/19/2022 3:00:00 PM 4.15 39.47 0.119 7.36 9.31 12.81
4/19/2022 3:15:00 PM 4.25 39.65 0.119 7.35 9.81 12.77
4/19/2022 3:30:00 PM 4.35 39.83 0.119 7.36 8.87 12.76
4/19/2022 3:45:00 PM 4.45 40.01 0.12 7.37 9.29 12.72
4/19/2022 4:00:00 PM 4.58 40.244 0.12 7.38 9.76 12.68
4/19/2022 4:15:00 PM 4.62 40.316 0.12 7.38 10.04 12.65
4/19/2022 4:30:00 PM 4.68 40.424 0.12 7.36 9.83 12.62
4/19/2022 4:45:00 PM 4.72 40.496 0.12 7.36 9.94 12.61
4/19/2022 5:00:00 PM 4.76 40.568 0.12 7.37 11.34 12.59
4/19/2022 5:15:00 PM 4.8 40.64 0.12 7.36 11.58 12.57
4/19/2022 5:30:00 PM 4.81 40.658 0.12 7.37 12.46 12.55
4/19/2022 5:45:00 PM 4.82 40.676 0.119 7.36 11.03 12.54
4/19/2022 6:00:00 PM 4.82 40.676 0.119 7.36 11.53 12.53
4/19/2022 6:15:00 PM 4.82 40.676 0.119 7.36 12.05 12.52
4/19/2022 6:30:00 PM 4.8 40.64 0.119 7.37 12.84 12.51
4/19/2022 6:45:00 PM 4.78 40.604 0.118 7.35 12.88 12.51
4/19/2022 7:00:00 PM 4.75 40.55 0.118 7.33 12.84 12.5
4/19/2022 7:15:00 PM 4.71 40.478 0.118 7.33 13.28 12.49
4/19/2022 7:30:00 PM 4.68 40.424 0.119 7.33 18.6 12.5
4/19/2022 7:45:00 PM 4.64 40.352 0.118 7.33 14.92 12.5
4/19/2022 8:00:00 PM 4.61 40.298 0.118 7.32 16.27 12.49
4/19/2022 8:15:00 PM 4.57 40.226 0.117 7.33 15.29 12.49
4/19/2022 8:30:00 PM 4.52 40.136 0.117 7.31 16.87 12.51
4/19/2022 8:45:00 PM 4.48 40.064 0.117 7.31 15.46 12.52
4/19/2022 9:00:00 PM 4.44 39.992 0.117 7.31 17.07 12.52
4/19/2022 9:15:00 PM 4.39 39.902 0.117 7.3 17.16 12.54
4/19/2022 9:30:00 PM 4.34 39.812 0.117 7.3 15.64 12.55
4/19/2022 9:45:00 PM 4.29 39.722 0.116 7.28 15.37 12.55
4/19/2022 10:00:00 PM 4.24 39.632 0.116 7.29 15.53 12.57
4/19/2022 10:15:00 PM 4.19 39.542 0.116 7.29 24.75 12.6
4/19/2022 10:30:00 PM 4.14 39.452 0.116 7.27 15.41 12.62
4/19/2022 10:45:00 PM 4.09 39.362 0.116 7.28 14.48 12.62
4/19/2022 11:00:00 PM 4.04 39.272 0.116 7.28 15.26 12.64
4/19/2022 11:15:00 PM 3.99 39.182 0.116 7.29 14.33 12.66
4/19/2022 11:30:00 PM 3.95 39.11 0.116 7.29 14.43 12.68
4/19/2022 11:45:00 PM 3.91 39.038 0.116 7.27 16.93 12.69
4/20/2022 12:00:00 AM 3.87 38.966 0.116 7.28 15.78 12.7
4/20/2022 12:15:00 AM 3.83 38.894 0.116 7.27 15.24 12.72
4/20/2022 12:30:00 AM 3.8 38.84 0.115 7.28 15.93 12.73
4/20/2022 12:45:00 AM 3.77 38.786 0.115 7.28 14.91 12.75
4/20/2022 1:00:00 AM 3.74 38.732 0.115 7.25 14.06 12.76
4/20/2022 1:15:00 AM 3.72 38.696 0.115 7.28 13.03 12.77
4/20/2022 1:30:00 AM 3.69 38.642 0.115 7.27 13.08 12.78
4/20/2022 1:45:00 AM 3.68 38.624 0.115 7.26 12.87 12.79
4/20/2022 2:00:00 AM 3.66 38.588 0.115 7.25 13.56 12.8
4/20/2022 2:15:00 AM 3.65 38.57 0.115 7.27 11.6 12.81
4/20/2022 2:30:00 AM 3.63 38.534 0.115 7.24 11.85 12.81
4/20/2022 2:45:00 AM 3.62 38.516 0.115 7.26 12.59 12.83
4/20/2022 3:00:00 AM 3.61 38.498 0.114 7.24 11.7 12.83
4/20/2022 3:15:00 AM 3.6 38.48 0.114 7.23 11.24 12.84
4/20/2022 3:30:00 AM 3.58 38.444 0.115 7.24 12.21 12.85
4/20/2022 3:45:00 AM 3.57 38.426 0.114 7.26 11.5 12.85
4/20/2022 4:00:00 AM 3.56 38.408 0.114 7.25 11.09 12.86
4/20/2022 4:15:00 AM 3.54 38.372 0.114 7.26 12.81 12.86
4/20/2022 4:30:00 AM 3.52 38.336 0.114 7.25 11.01 12.88
4/20/2022 4:45:00 AM 3.5 38.3 0.114 7.23 10.4 12.88
4/20/2022 5:00:00 AM 3.48 38.264 0.114 7.26 9.94 12.9
4/20/2022 5:15:00 AM 3.47 38.246 0.114 7.25 10.08 12.9
4/20/2022 5:30:00 AM 3.46 38.228 0.114 7.24 10.67 12.91
4/20/2022 5:45:00 AM 3.45 38.21 0.114 7.24 10.6 12.91
4/20/2022 6:00:00 AM 3.44 38.192 0.114 7.23 10.62 12.92
4/20/2022 6:15:00 AM 3.44 38.192 0.114 7.22 10.34 12.93
4/20/2022 6:30:00 AM 3.43 38.174 0.114 7.24 11.47 12.94
4/20/2022 6:45:00 AM 3.43 38.174 0.114 7.22 11.19 12.95
4/20/2022 7:00:00 AM 3.44 38.192 0.114 7.22 10.72 12.95
4/20/2022 7:15:00 AM 3.45 38.21 0.114 7.25 9.85 12.97
4/20/2022 7:30:00 AM 3.44 38.192 0.114 7.24 9.49 12.98
4/20/2022 7:45:00 AM 3.45 38.21 0.114 7.24 9.07 13
4/20/2022 8:00:00 AM 3.46 38.228 0.114 7.26 9.32 13.01
4/20/2022 8:15:00 AM 3.5 38.3 0.114 7.25 9.13 13.01
4/20/2022 8:30:00 AM 3.56 38.408 0.114 7.27 8.85 13.02
4/20/2022 8:45:00 AM 3.58 38.444 0.114 7.28 9.09 13.03
4/20/2022 9:00:00 AM 3.65 38.57 0.114 7.26 9.22 13.04
4/20/2022 9:15:00 AM 3.77 38.786 0.114 7.27 8.69 13.03
4/20/2022 9:30:00 AM 3.87 38.966 0.114 7.27 9.55 13.02
4/20/2022 9:45:00 AM 3.93 39.074 0.114 7.27 10.37 13.01
4/20/2022 10:00:00 AM 4.02 39.236 0.114 7.29 9.43 13
4/20/2022 10:15:00 AM 4.12 39.416 0.114 7.29 10.49 12.98
4/20/2022 10:30:00 AM 4.25 39.65 0.114 7.28 8.95 12.96
4/20/2022 10:45:00 AM 4.41 39.938 0.114 7.28 8.7 12.93
4/20/2022 11:00:00 AM 4.58 40.244 0.114 7.27 8.92 12.9
4/20/2022 11:15:00 AM 4.79 40.622 0.114 7.3 8.14 12.86
4/20/2022 11:30:00 AM 4.98 40.964 0.114 7.28 8.01 12.81
4/20/2022 11:45:00 AM 5.2 41.36 0.114 7.29 8.34 12.76
4/20/2022 12:00:00 PM 5.39 41.702 0.114 7.31 7.87 12.7
4/20/2022 12:15:00 PM 5.6 42.08 0.114 7.29 7.99 12.66
4/20/2022 12:30:00 PM 5.81 42.458 0.114 7.31 7.61 12.61
4/20/2022 12:45:00 PM 6.03 42.854 0.114 7.31 7.98 12.54
4/20/2022 1:00:00 PM 6.24 43.232 0.114 7.31 9.32 12.49
4/20/2022 1:15:00 PM 6.45 43.61 0.114 7.3 8.36 12.43
4/20/2022 1:30:00 PM 6.65 43.97 0.114 7.31 9.23 12.37
4/20/2022 1:45:00 PM 6.86 44.348 0.115 7.31 10.09 12.3
4/20/2022 2:00:00 PM 7.06 44.708 0.115 7.3 9.67 12.25
4/20/2022 2:15:00 PM 7.26 45.068 0.115 7.29 10.27 12.18
4/20/2022 2:30:00 PM 7.44 45.392 0.115 7.32 11.12 12.13
4/20/2022 2:45:00 PM 7.61 45.698 0.115 7.3 13.23 12.06
4/20/2022 3:00:00 PM 7.75 45.95 0.115 7.29 16.38 12.01
4/20/2022 3:15:00 PM 7.89 46.202 0.114 7.29 28.06 11.95
4/20/2022 3:30:00 PM 8.02 46.436 0.114 7.28 28.3 11.89
4/20/2022 3:45:00 PM 8.13 46.634 0.113 7.27 32.51 11.83
4/20/2022 4:00:00 PM 8.22 46.796 0.112 7.28 36.61 11.78
4/20/2022 4:15:00 PM 8.3 46.94 0.11 7.27 38.93 11.74
4/20/2022 4:30:00 PM 8.35 47.03 0.109 7.24 40.2 11.71
4/20/2022 4:45:00 PM 8.38 47.084 0.108 7.24 40.48 11.68
4/20/2022 5:00:00 PM 8.39 47.102 0.107 7.23 41.12 11.65
4/20/2022 5:15:00 PM 8.4 47.12 0.106 7.24 40.25 11.64
4/20/2022 5:30:00 PM 8.39 47.102 0.105 7.22 41.29 11.62
4/20/2022 5:45:00 PM 8.36 47.048 0.104 7.24 44 11.61
4/20/2022 6:00:00 PM 8.32 46.976 0.103 7.23 53.38 11.61
4/20/2022 6:15:00 PM 8.28 46.904 0.103 7.22 43.42 11.62
4/20/2022 6:30:00 PM 8.23 46.814 0.103 7.2 44.39 11.61
4/20/2022 6:45:00 PM 8.19 46.742 0.103 7.22 53.3 11.6
4/20/2022 7:00:00 PM 8.15 46.67 0.103 7.22 51.42 11.61
4/20/2022 7:15:00 PM 8.1 46.58 0.103 7.21 49.78 11.6
4/20/2022 7:30:00 PM 8.04 46.472 0.104 7.22 41.31 11.62
4/20/2022 7:45:00 PM 7.98 46.364 0.104 7.21 36.66 11.63
4/20/2022 8:00:00 PM 7.91 46.238 0.105 7.22 33.9 11.63
4/20/2022 8:15:00 PM 7.83 46.094 0.105 7.19 29.55 11.64
4/20/2022 8:30:00 PM 7.75 45.95 0.105 7.18 45.77 11.66
4/20/2022 8:45:00 PM 7.67 45.806 0.105 7.19 36.04 11.68
4/20/2022 9:00:00 PM 7.58 45.644 0.105 7.21 35.54 11.7
4/20/2022 9:15:00 PM 7.49 45.482 0.105 7.2 38.99 11.72
4/20/2022 9:30:00 PM 7.39 45.302 0.105 7.17 36.93 11.74
4/20/2022 9:45:00 PM 7.31 45.158 0.105 7.16 38.02 11.76
4/20/2022 10:00:00 PM 7.23 45.014 0.104 7.16 37.91 11.79
4/20/2022 10:15:00 PM 7.15 44.87 0.104 7.17 42.31 11.82
4/20/2022 10:30:00 PM 7.06 44.708 0.104 7.16 38.46 11.83
4/20/2022 10:45:00 PM 6.99 44.582 0.103 7.15 35.03 11.85
4/20/2022 11:00:00 PM 6.91 44.438 0.103 7.17 36.81 11.87
4/20/2022 11:15:00 PM 6.84 44.312 0.102 7.16 38.34 11.89
4/20/2022 11:30:00 PM 6.77 44.186 0.102 7.17 37.34 11.91
4/20/2022 11:45:00 PM 6.7 44.06 0.102 7.17 36.08 11.92
4/21/2022 12:00:00 AM 6.63 43.934 0.102 7.16 35.51 11.94
4/21/2022 12:15:00 AM 6.58 43.844 0.102 7.16 34.52 11.95
4/21/2022 12:30:00 AM 6.53 43.754 0.102 7.13 33.58 11.96
4/21/2022 12:45:00 AM 6.48 43.664 0.102 7.13 32.15 11.97
4/21/2022 1:00:00 AM 6.45 43.61 0.101 7.15 34 11.99
4/21/2022 1:15:00 AM 6.42 43.556 0.102 7.14 31.79 11.99
4/21/2022 1:30:00 AM 6.4 43.52 0.101 7.13 31.27 12
4/21/2022 1:45:00 AM 6.39 43.502 0.101 7.15 32.57 12.01
4/21/2022 2:00:00 AM 6.38 43.484 0.101 7.16 30.04 12.01
4/21/2022 2:15:00 AM 6.37 43.466 0.101 7.13 28.8 12.01
4/21/2022 2:30:00 AM 6.37 43.466 0.101 7.15 29.39 12.02
4/21/2022 2:45:00 AM 6.35 43.43 0.101 7.13 24 12.02
4/21/2022 3:00:00 AM 6.34 43.412 0.101 7.14 28.66 12.02
4/21/2022 3:15:00 AM 6.32 43.376 0.101 7.16 28.8 12.02
4/21/2022 3:30:00 AM 6.3 43.34 0.102 7.14 24.75 12.02
4/21/2022 3:45:00 AM 6.28 43.304 0.102 7.12 26.96 12.03
4/21/2022 4:00:00 AM 6.26 43.268 0.103 7.14 26.25 12.04
4/21/2022 4:15:00 AM 6.24 43.232 0.103 7.15 26.62 12.05
4/21/2022 4:30:00 AM 6.22 43.196 0.104 7.14 26.08 12.05
4/21/2022 4:45:00 AM 6.21 43.178 0.105 7.12 26.34 12.05
4/21/2022 5:00:00 AM 6.19 43.142 0.105 7.14 26.75 12.05
4/21/2022 5:15:00 AM 6.18 43.124 0.105 7.14 26.4 12.07
4/21/2022 5:30:00 AM 6.16 43.088 0.106 7.12 26.24 12.08
4/21/2022 5:45:00 AM 6.15 43.07 0.106 7.12 25.55 12.07
4/21/2022 6:00:00 AM 6.12 43.016 0.106 7.14 26.49 12.08
4/21/2022 6:15:00 AM 6.1 42.98 0.107 7.15 26.76 12.1
4/21/2022 6:30:00 AM 6.07 42.926 0.106 7.15 26.15 12.1
4/21/2022 6:45:00 AM 6.06 42.908 0.106 7.14 24.82 12.11
4/21/2022 7:00:00 AM 6.05 42.89 0.106 7.15 24.53 12.12
4/21/2022 7:15:00 AM 6.04 42.872 0.106 7.15 24.22 12.13
4/21/2022 7:30:00 AM 6.03 42.854 0.106 7.14 24.08 12.13
4/21/2022 7:45:00 AM 6.05 42.89 0.106 7.13 24.35 12.14
4/21/2022 8:00:00 AM 6.08 42.944 0.106 7.13 23.08 12.14
4/21/2022 8:15:00 AM 6.1 42.98 0.106 7.15 26 12.14
4/21/2022 8:30:00 AM 6.14 43.052 0.105 7.16 36.22 12.14
4/21/2022 8:45:00 AM 6.21 43.178 0.105 7.17 23.09 12.13
4/21/2022 9:00:00 AM 6.24 43.232 0.104 7.17 19.72 12.13
4/21/2022 9:15:00 AM 6.28 43.304 0.104 7.16 21.1 12.13
4/21/2022 9:30:00 AM 6.32 43.376 0.103 7.15 21.9 12.12
4/21/2022 9:45:00 AM 6.36 43.448 0.103 7.17 22.19 12.11
4/21/2022 10:00:00 AM 6.39 43.502 0.102 7.15 24.19 12.11
4/21/2022 10:15:00 AM 6.43 43.574 0.102 7.18 24.95 12.11
4/21/2022 10:30:00 AM 6.45 43.61 0.102 7.16 20.23 12.11
4/21/2022 10:45:00 AM 6.5 43.7 0.101 7.19 22.45 12.11
4/21/2022 11:00:00 AM 6.54 43.772 0.101 7.19 24 12.09
4/21/2022 11:15:00 AM 6.58 43.844 0.101 7.19 29.81 12.09
4/21/2022 11:30:00 AM 6.63 43.934 0.101 7.18 21.76 12.08
4/21/2022 11:45:00 AM 6.68 44.024 0.101 7.19 22.08 12.08
4/21/2022 12:00:00 PM 6.7 44.06 0.101 7.21 20.36 12.07
4/21/2022 12:15:00 PM 6.72 44.096 0.101 7.19 23.51 12.05
4/21/2022 12:30:00 PM 6.74 44.132 0.101 7.2 18.27 12.04
4/21/2022 12:45:00 PM 6.77 44.186 0.101 7.2 17.93 12.04
4/21/2022 1:00:00 PM 6.79 44.222 0.101 7.2 23.61 12.03
4/21/2022 1:15:00 PM 6.81 44.258 0.1 7.19 18.2 12.02
4/21/2022 1:30:00 PM 6.85 44.33 0.101 7.2 17.17 12.01
4/21/2022 1:45:00 PM 6.86 44.348 0.101 7.19 17.55 12
4/21/2022 2:00:00 PM 6.86 44.348 0.101 7.2 19.64 11.99
4/21/2022 2:15:00 PM 6.86 44.348 0.101 7.19 18.35 11.98
4/21/2022 2:30:00 PM 6.86 44.348 0.1 7.18 18.12 11.97
4/21/2022 2:45:00 PM 6.87 44.366 0.1 7.21 18.66 11.96
4/21/2022 3:00:00 PM 6.88 44.384 0.1 7.21 18.5 11.95
4/21/2022 3:15:00 PM 6.9 44.42 0.101 7.19 21.54 11.94
4/21/2022 3:30:00 PM 6.9 44.42 0.101 7.22 19.49 11.94
4/21/2022 3:45:00 PM 6.9 44.42 0.101 7.2 29.75 11.93
4/21/2022 4:00:00 PM 6.9 44.42 0.1 7.2 21.84 11.93
4/21/2022 4:15:00 PM 6.9 44.42 0.101 7.2 25.17 11.93
4/21/2022 4:30:00 PM 6.9 44.42 0.1 7.18 15.84 11.92
4/21/2022 4:45:00 PM 6.89 44.402 0.1 7.19 14.62 11.92
4/21/2022 5:00:00 PM 6.88 44.384 0.1 7.18 18.98 11.92
4/21/2022 5:15:00 PM 6.87 44.366 0.1 7.18 17.66 11.92
4/21/2022 5:30:00 PM 6.86 44.348 0.1 7.18 20.05 11.92
4/21/2022 5:45:00 PM 6.85 44.33 0.1 7.18 13.17 11.91
4/21/2022 6:00:00 PM 6.84 44.312 0.1 7.21 14.72 11.91
4/21/2022 6:15:00 PM 6.82 44.276 0.1 7.19 14.41 11.9
4/21/2022 6:30:00 PM 6.81 44.258 0.1 7.17 18.22 11.91
4/21/2022 6:45:00 PM 6.79 44.222 0.1 7.18 15.15 11.91
4/21/2022 7:00:00 PM 6.78 44.204 0.1 7.19 12.77 11.91
4/21/2022 7:15:00 PM 6.77 44.186 0.1 7.17 15.7 11.91
4/21/2022 7:30:00 PM 6.76 44.168 0.1 7.17 14.21 11.9
4/21/2022 7:45:00 PM 6.74 44.132 0.1 7.2 12.28 11.92
4/21/2022 8:00:00 PM 6.73 44.114 0.1 7.17 13.3 11.92
4/21/2022 8:15:00 PM 6.71 44.078 0.1 7.17 14.98 11.91
4/21/2022 8:30:00 PM 6.7 44.06 0.1 7.2 14.64 11.91
4/21/2022 8:45:00 PM 6.7 44.06 0.1 7.18 19.81 11.92
4/21/2022 9:00:00 PM 6.69 44.042 0.1 7.18 13.39 11.9
4/21/2022 9:15:00 PM 6.69 44.042 0.1 7.17 12.97 11.9
4/21/2022 9:30:00 PM 6.67 44.006 0.1 7.16 15.36 11.92
4/21/2022 9:45:00 PM 6.65 43.97 0.1 7.17 13.61 11.92
4/21/2022 10:00:00 PM 6.62 43.916 0.1 7.16 11.38 11.92
4/21/2022 10:15:00 PM 6.6 43.88 0.1 7.15 10.94 11.92
4/21/2022 10:30:00 PM 6.57 43.826 0.1 7.16 10.84 11.93
4/21/2022 10:45:00 PM 6.55 43.79 0.1 7.18 13.15 11.94
4/21/2022 11:00:00 PM 6.52 43.736 0.1 7.17 13.02 11.94
4/21/2022 11:15:00 PM 6.5 43.7 0.1 7.16 11.67 11.94
4/21/2022 11:30:00 PM 6.48 43.664 0.1 7.15 11.3 11.95
4/21/2022 11:45:00 PM 6.45 43.61 0.1 7.14 10.92 11.97
4/22/2022 12:00:00 AM 6.42 43.556 0.1 7.14 13.44 11.96
4/22/2022 12:15:00 AM 6.4 43.52 0.1 7.15 12.96 11.98
4/22/2022 12:30:00 AM 6.38 43.484 0.1 7.16 10.91 11.98
4/22/2022 12:45:00 AM 6.36 43.448 0.099 7.15 12.6 11.98
4/22/2022 1:00:00 AM 6.34 43.412 0.099 7.14 13.17 11.99
4/22/2022 1:15:00 AM 6.32 43.376 0.099 7.14 13.52 12
4/22/2022 1:30:00 AM 6.29 43.322 0.1 7.14 13.03 12
4/22/2022 1:45:00 AM 6.27 43.286 0.099 7.14 12.5 12.01
4/22/2022 2:00:00 AM 6.25 43.25 0.099 7.17 14.15 12.01
4/22/2022 2:15:00 AM 6.23 43.214 0.099 7.14 14.32 12.02
4/22/2022 2:30:00 AM 6.2 43.16 0.099 7.14 15.76 12.03
4/22/2022 2:45:00 AM 6.18 43.124 0.099 7.17 13.28 12.04
4/22/2022 3:00:00 AM 6.16 43.088 0.1 7.16 13.69 12.04
4/22/2022 3:15:00 AM 6.13 43.034 0.1 7.12 11.91 12.05
4/22/2022 3:30:00 AM 6.11 42.998 0.101 7.13 13.91 12.06
4/22/2022 3:45:00 AM 6.08 42.944 0.101 7.14 14.25 12.07
4/22/2022 4:00:00 AM 6.06 42.908 0.101 7.12 12.69 12.07
4/22/2022 4:15:00 AM 6.03 42.854 0.101 7.13 17.89 12.09
4/22/2022 4:30:00 AM 6.01 42.818 0.101 7.15 11.47 12.1
4/22/2022 4:45:00 AM 5.99 42.782 0.101 7.14 13.42 12.1
4/22/2022 5:00:00 AM 5.98 42.764 0.101 7.14 13.26 12.11
4/22/2022 5:15:00 AM 5.97 42.746 0.101 7.14 16.81 12.12
4/22/2022 5:30:00 AM 5.96 42.728 0.101 7.14 12.99 12.12
4/22/2022 5:45:00 AM 5.95 42.71 0.1 7.15 13.55 12.14
4/22/2022 6:00:00 AM 5.93 42.674 0.1 7.15 20.27 12.14
4/22/2022 6:15:00 AM 5.92 42.656 0.1 7.14 15.84 12.15
4/22/2022 6:30:00 AM 5.91 42.638 0.1 7.13 16.2 12.16
4/22/2022 6:45:00 AM 5.91 42.638 0.099 7.13 17.15 12.17
4/22/2022 7:00:00 AM 5.92 42.656 0.099 7.12 15.55 12.17
4/22/2022 7:15:00 AM 5.92 42.656 0.099 7.15 15.6 12.18
4/22/2022 7:30:00 AM 5.93 42.674 0.098 7.15 15.85 12.18
4/22/2022 7:45:00 AM 5.95 42.71 0.098 7.16 15.96 12.19
4/22/2022 8:00:00 AM 5.97 42.746 0.098 7.17 14.86 12.2
4/22/2022 8:15:00 AM 6 42.8 0.097 7.15 14.24 12.2
4/22/2022 8:30:00 AM 6.04 42.872 0.097 7.14 17.51 12.2
4/22/2022 8:45:00 AM 6.09 42.962 0.097 7.18 12.58 12.21
4/22/2022 9:00:00 AM 6.15 43.07 0.097 7.16 15.73 12.2
4/22/2022 9:15:00 AM 6.21 43.178 0.097 7.15 13.2 12.21
4/22/2022 9:30:00 AM 6.27 43.286 0.097 7.16 15.94 12.2
4/22/2022 9:45:00 AM 6.35 43.43 0.096 7.16 14.36 12.2
4/22/2022 10:00:00 AM 6.43 43.574 0.096 7.16 17.22 12.18
4/22/2022 10:15:00 AM 6.53 43.754 0.096 7.19 18.7 12.18
4/22/2022 10:30:00 AM 6.63 43.934 0.096 7.19 25.61 12.17
4/22/2022 10:45:00 AM 6.76 44.168 0.096 7.2 16.74 12.15
4/22/2022 11:00:00 AM 6.88 44.384 0.095 7.18 20.09 12.13
4/22/2022 11:15:00 AM 7.02 44.636 0.095 7.2 13.01 12.11
4/22/2022 11:30:00 AM 7.16 44.888 0.095 7.19 26.33 12.08
4/22/2022 11:45:00 AM 7.31 45.158 0.094 7.19 14.76 12.06
4/22/2022 12:00:00 PM 7.48 45.464 0.094 7.2 15.75 12.03
4/22/2022 12:15:00 PM 7.64 45.752 0.094 7.2 39.21 12
4/22/2022 12:30:00 PM 7.81 46.058 0.094 7.23 21.09 11.96
4/22/2022 12:45:00 PM 7.98 46.364 0.094 7.24 14.53 11.93
4/22/2022 1:00:00 PM 8.16 46.688 0.094 7.24 16.12 11.89
4/22/2022 1:15:00 PM 8.33 46.994 0.094 7.24 14.38 11.85
4/22/2022 1:30:00 PM 8.5 47.3 0.093 7.25 13.82 11.81
4/22/2022 1:45:00 PM 8.67 47.606 0.093 7.26 14.38 11.77
4/22/2022 2:00:00 PM 8.83 47.894 0.093 7.24 16.86 11.73
4/22/2022 2:15:00 PM 9 48.2 0.093 7.24 19.31 11.69
4/22/2022 2:30:00 PM 9.15 48.47 0.093 7.26 16.17 11.64
4/22/2022 2:45:00 PM 9.3 48.74 0.093 7.25 15.84 11.6
4/22/2022 3:00:00 PM 9.42 48.956 0.093 7.25 17.6 11.56
4/22/2022 3:15:00 PM 9.53 49.154 0.093 7.26 14.54 11.53
4/22/2022 3:30:00 PM 9.64 49.352 0.093 7.25 14.78 11.49
4/22/2022 3:45:00 PM 9.73 49.514 0.093 7.25 13.43 11.45
4/22/2022 4:00:00 PM 9.79 49.622 0.093 7.26 13.24 11.42
4/22/2022 4:15:00 PM 9.85 49.73 0.093 7.26 13.2 11.4
4/22/2022 4:30:00 PM 9.89 49.802 0.093 7.25 13.46 11.37
4/22/2022 4:45:00 PM 9.91 49.838 0.093 7.26 9.75 11.35
4/22/2022 5:00:00 PM 9.93 49.874 0.093 7.26 11.76 11.33
4/22/2022 5:15:00 PM 9.92 49.856 0.093 7.26 13 11.31
4/22/2022 5:30:00 PM 9.9 49.82 0.093 7.25 12.12 11.3
4/22/2022 5:45:00 PM 9.88 49.784 0.093 7.26 13.33 11.29
4/22/2022 6:00:00 PM 9.85 49.73 0.093 7.25 13.65 11.28
4/22/2022 6:15:00 PM 9.8 49.64 0.093 7.25 13.85 11.27
4/22/2022 6:30:00 PM 9.76 49.568 0.093 7.24 11.58 11.26
4/22/2022 6:45:00 PM 9.7 49.46 0.093 7.23 13.24 11.26
4/22/2022 7:00:00 PM 9.64 49.352 0.093 7.24 12.78 11.26
4/22/2022 7:15:00 PM 9.56 49.208 0.093 7.26 14.59 11.26
4/22/2022 7:30:00 PM 9.49 49.082 0.093 7.22 13.42 11.26
4/22/2022 7:45:00 PM 9.4 48.92 0.094 7.22 13.96 11.27
4/22/2022 8:00:00 PM 9.31 48.758 0.094 7.2 13.22 11.27
4/22/2022 8:15:00 PM 9.22 48.596 0.094 7.19 13.06 11.28
4/22/2022 8:30:00 PM 9.12 48.416 0.094 7.19 13.56 11.29
4/22/2022 8:45:00 PM 9.03 48.254 0.094 7.21 12.85 11.29
4/22/2022 9:00:00 PM 8.95 48.11 0.094 7.22 13 11.31
4/22/2022 9:15:00 PM 8.87 47.966 0.094 7.21 13.14 11.32
4/22/2022 9:30:00 PM 8.8 47.84 0.094 7.18 9.98 11.33
4/22/2022 9:45:00 PM 8.73 47.714 0.094 7.18 13.13 11.34
4/22/2022 10:00:00 PM 8.67 47.606 0.094 7.2 13.57 11.35
4/22/2022 10:15:00 PM 8.61 47.498 0.095 7.21 12.61 11.36
4/22/2022 10:30:00 PM 8.55 47.39 0.094 7.17 13.69 11.37
4/22/2022 10:45:00 PM 8.51 47.318 0.095 7.16 12.57 11.38
4/22/2022 11:00:00 PM 8.46 47.228 0.095 7.16 12.49 11.39
4/22/2022 11:15:00 PM 8.42 47.156 0.095 7.19 13.29 11.4
4/22/2022 11:30:00 PM 8.38 47.084 0.095 7.18 11.92 11.4
4/22/2022 11:45:00 PM 8.34 47.012 0.095 7.16 12.1 11.41
4/23/2022 12:00:00 AM 8.3 46.94 0.095 7.15 12.3 11.41
4/23/2022 12:15:00 AM 8.27 46.886 0.096 7.16 12.4 11.43
4/23/2022 12:30:00 AM 8.23 46.814 0.095 7.14 11.85 11.44
4/23/2022 12:45:00 AM 8.19 46.742 0.095 7.14 11.64 11.43
4/23/2022 1:00:00 AM 8.16 46.688 0.095 7.15 11.2 11.44
4/23/2022 1:15:00 AM 8.13 46.634 0.095 7.14 12 11.44
4/23/2022 1:30:00 AM 8.12 46.616 0.095 7.16 12.39 11.45
4/23/2022 1:45:00 AM 8.1 46.58 0.096 7.17 11.93 11.45
4/23/2022 2:00:00 AM 8.09 46.562 0.096 7.16 11.15 11.45
4/23/2022 2:15:00 AM 8.09 46.562 0.096 7.15 11.64 11.45
4/23/2022 2:30:00 AM 8.09 46.562 0.096 7.15 11.7 11.45
4/23/2022 2:45:00 AM 8.09 46.562 0.096 7.14 11.53 11.45
4/23/2022 3:00:00 AM 8.09 46.562 0.096 7.15 11.77 11.45
4/23/2022 3:15:00 AM 8.1 46.58 0.096 7.15 12.03 11.44
4/23/2022 3:30:00 AM 8.1 46.58 0.096 7.14 12.31 11.44
4/23/2022 3:45:00 AM 8.12 46.616 0.096 7.16 11.62 11.44
4/23/2022 4:00:00 AM 8.12 46.616 0.096 7.14 11.41 11.43
4/23/2022 4:15:00 AM 8.13 46.634 0.096 7.16 10.49 11.43
4/23/2022 4:30:00 AM 8.14 46.652 0.096 7.15 10.91 11.42
4/23/2022 4:45:00 AM 8.15 46.67 0.096 7.14 10.95 11.43
4/23/2022 5:00:00 AM 8.16 46.688 0.096 7.14 11.35 11.42
4/23/2022 5:15:00 AM 8.16 46.688 0.096 7.14 11.3 11.42
4/23/2022 5:30:00 AM 8.17 46.706 0.096 7.13 10.92 11.42
4/23/2022 5:45:00 AM 8.17 46.706 0.096 7.11 10.94 11.41
4/23/2022 6:00:00 AM 8.18 46.724 0.096 7.13 10.79 11.42
4/23/2022 6:15:00 AM 8.18 46.724 0.096 7.16 10.36 11.42
4/23/2022 6:30:00 AM 8.19 46.742 0.096 7.16 10.73 11.41
4/23/2022 6:45:00 AM 8.2 46.76 0.097 7.14 10.48 11.42
4/23/2022 7:00:00 AM 8.21 46.778 0.096 7.14 10.56 11.42
4/23/2022 7:15:00 AM 8.22 46.796 0.097 7.18 10.93 11.42
4/23/2022 7:30:00 AM 8.23 46.814 0.097 7.18 11.22 11.42
4/23/2022 7:45:00 AM 8.24 46.832 0.097 7.15 11.55 11.43
4/23/2022 8:00:00 AM 8.25 46.85 0.097 7.16 10.64 11.43
4/23/2022 8:15:00 AM 8.27 46.886 0.097 7.18 10.19 11.44
4/23/2022 8:30:00 AM 8.3 46.94 0.097 7.17 11.32 11.45
4/23/2022 8:45:00 AM 8.35 47.03 0.097 7.17 11.64 11.47
4/23/2022 9:00:00 AM 8.39 47.102 0.097 7.17 9.98 11.48
4/23/2022 9:15:00 AM 8.48 47.264 0.097 7.2 10.74 11.49
4/23/2022 9:30:00 AM 8.56 47.408 0.097 7.2 9.52 11.5
4/23/2022 9:45:00 AM 8.58 47.444 0.097 7.23 10.1 11.5
4/23/2022 10:00:00 AM 8.63 47.534 0.097 7.24 10.71 11.5
4/23/2022 10:15:00 AM 8.7 47.66 0.096 7.24 9.49 11.51
4/23/2022 10:30:00 AM 8.77 47.786 0.096 7.25 9.73 11.5
4/23/2022 10:45:00 AM 8.89 48.002 0.097 7.24 9.47 11.5
4/23/2022 11:00:00 AM 9 48.2 0.096 7.24 9.31 11.49
4/23/2022 11:15:00 AM 9.1 48.38 0.096 7.24 10.05 11.47
4/23/2022 11:30:00 AM 9.18 48.524 0.096 7.25 10.51 11.46
4/23/2022 11:45:00 AM 9.26 48.668 0.096 7.25 9.04 11.45
4/23/2022 12:00:00 PM 9.37 48.866 0.096 7.28 9.52 11.44
4/23/2022 12:15:00 PM 9.49 49.082 0.096 7.28 9.17 11.42
4/23/2022 12:30:00 PM 9.69 49.442 0.096 7.29 9.35 11.39
4/23/2022 12:45:00 PM 9.88 49.784 0.096 7.29 8.84 11.36
4/23/2022 1:00:00 PM 10.06 50.108 0.096 7.29 8.87 11.32
4/23/2022 1:15:00 PM 10.26 50.468 0.096 7.3 10.44 11.29
4/23/2022 1:30:00 PM 10.4 50.72 0.096 7.32 9.5 11.25
4/23/2022 1:45:00 PM 10.59 51.062 0.096 7.31 9.93 11.21
4/23/2022 2:00:00 PM 10.75 51.35 0.096 7.3 9.4 11.18
4/23/2022 2:15:00 PM 10.93 51.674 0.096 7.31 9.11 11.13
4/23/2022 2:30:00 PM 11.06 51.908 0.096 7.31 9.3 11.09
4/23/2022 2:45:00 PM 11.17 52.106 0.096 7.3 8.95 11.05
4/23/2022 3:00:00 PM 11.17 52.106 0.096 7.31 9.95 11.01
4/23/2022 3:15:00 PM 11.18 52.124 0.096 7.31 11.61 10.99
4/23/2022 3:30:00 PM 11.18 52.124 0.096 7.34 8.63 10.97
4/23/2022 3:45:00 PM 11.16 52.088 0.097 7.33 9.59 10.94
4/23/2022 4:00:00 PM 11.12 52.016 0.097 7.31 8.91 10.92
4/23/2022 4:15:00 PM 11.09 51.962 0.097 7.29 10.33 10.9
4/23/2022 4:30:00 PM 11.08 51.944 0.097 7.28 9.46 10.87
4/23/2022 4:45:00 PM 11.11 51.998 0.097 7.27 9.23 10.85
4/23/2022 5:00:00 PM 11.15 52.07 0.097 7.28 9.48 10.83
4/23/2022 5:15:00 PM 11.21 52.178 0.097 7.31 9.7 10.83
4/23/2022 5:30:00 PM 11.27 52.286 0.097 7.32 9.26 10.83
4/23/2022 5:45:00 PM 11.31 52.358 0.097 7.31 9.64 10.83
4/23/2022 6:00:00 PM 11.3 52.34 0.097 7.31 9.59 10.81
4/23/2022 6:15:00 PM 11.26 52.268 0.097 7.32 9.43 10.81
4/23/2022 6:30:00 PM 11.2 52.16 0.097 7.31 9.62 10.79
4/23/2022 6:45:00 PM 11.15 52.07 0.097 7.29 10.66 10.77
4/23/2022 7:00:00 PM 11.11 51.998 0.097 7.27 9.45 10.77
4/23/2022 7:15:00 PM 11.04 51.872 0.097 7.27 9.82 10.76
4/23/2022 7:30:00 PM 10.97 51.746 0.097 7.26 10.83 10.77
4/23/2022 7:45:00 PM 10.89 51.602 0.097 7.28 9.26 10.76
4/23/2022 8:00:00 PM 10.82 51.476 0.097 7.24 9.27 10.76
4/23/2022 8:15:00 PM 10.74 51.332 0.097 7.22 9.71 10.76
4/23/2022 8:30:00 PM 10.68 51.224 0.097 7.25 8.98 10.77
4/23/2022 8:45:00 PM 10.59 51.062 0.097 7.21 10.04 10.79
4/23/2022 9:00:00 PM 10.51 50.918 0.097 7.22 9.88 10.8
4/23/2022 9:15:00 PM 10.43 50.774 0.097 7.24 9.25 10.81
4/23/2022 9:30:00 PM 10.35 50.63 0.097 7.2 11.04 10.82
4/23/2022 9:45:00 PM 10.28 50.504 0.098 7.19 13.39 10.83
4/23/2022 10:00:00 PM 10.2 50.36 0.097 7.19 10.16 10.85
4/23/2022 10:15:00 PM 10.13 50.234 0.097 7.18 9.61 10.86
4/23/2022 10:30:00 PM 10.06 50.108 0.098 7.17 9.77 10.87
4/23/2022 10:45:00 PM 9.99 49.982 0.098 7.19 9.6 10.89
4/23/2022 11:00:00 PM 9.92 49.856 0.098 7.19 9.53 10.9
4/23/2022 11:15:00 PM 9.85 49.73 0.098 7.19 9.3 10.92
4/23/2022 11:30:00 PM 9.78 49.604 0.098 7.17 9.57 10.93
4/23/2022 11:45:00 PM 9.72 49.496 0.098 7.17 9.4 10.95
4/24/2022 12:00:00 AM 9.65 49.37 0.098 7.18 8.91 10.96
4/24/2022 12:15:00 AM 9.59 49.262 0.098 7.17 9.43 10.97
4/24/2022 12:30:00 AM 9.53 49.154 0.098 7.17 9.72 10.99
4/24/2022 12:45:00 AM 9.47 49.046 0.098 7.18 8.96 11
4/24/2022 1:00:00 AM 9.42 48.956 0.098 7.18 10.37 11.01
4/24/2022 1:15:00 AM 9.37 48.866 0.098 7.18 8.97 11.02
4/24/2022 1:30:00 AM 9.32 48.776 0.098 7.2 9.86 11.03
4/24/2022 1:45:00 AM 9.27 48.686 0.098 7.17 9.37 11.05
4/24/2022 2:00:00 AM 9.23 48.614 0.098 7.16 9.42 11.06
4/24/2022 2:15:00 AM 9.18 48.524 0.098 7.17 9.35 11.06
4/24/2022 2:30:00 AM 9.14 48.452 0.098 7.17 9.21 11.07
4/24/2022 2:45:00 AM 9.09 48.362 0.098 7.16 9.3 11.09
4/24/2022 3:00:00 AM 9.05 48.29 0.098 7.16 8.88 11.1
4/24/2022 3:15:00 AM 9 48.2 0.099 7.16 10.32 11.1
4/24/2022 3:30:00 AM 8.96 48.128 0.098 7.16 9.39 11.12
4/24/2022 3:45:00 AM 8.91 48.038 0.098 7.16 8.75 11.13
4/24/2022 4:00:00 AM 8.87 47.966 0.098 7.19 8.99 11.14
4/24/2022 4:15:00 AM 8.83 47.894 0.098 7.17 9.26 11.15
4/24/2022 4:30:00 AM 8.79 47.822 0.098 7.16 8.88 11.16
4/24/2022 4:45:00 AM 8.75 47.75 0.098 7.15 8.21 11.17
4/24/2022 5:00:00 AM 8.71 47.678 0.098 7.14 9.09 11.18
4/24/2022 5:15:00 AM 8.67 47.606 0.098 7.15 9.01 11.2
4/24/2022 5:30:00 AM 8.64 47.552 0.098 7.15 9.68 11.2
4/24/2022 5:45:00 AM 8.6 47.48 0.098 7.16 8.54 11.21
4/24/2022 6:00:00 AM 8.57 47.426 0.098 7.16 8.63 11.22
4/24/2022 6:15:00 AM 8.54 47.372 0.098 7.16 8.74 11.23
4/24/2022 6:30:00 AM 8.52 47.336 0.098 7.16 8.64 11.24
4/24/2022 6:45:00 AM 8.5 47.3 0.098 7.18 9.02 11.26
4/24/2022 7:00:00 AM 8.5 47.3 0.098 7.2 8.95 11.28
4/24/2022 7:15:00 AM 8.5 47.3 0.098 7.18 8.48 11.3
4/24/2022 7:30:00 AM 8.51 47.318 0.098 7.19 9.03 11.31
4/24/2022 7:45:00 AM 8.55 47.39 0.098 7.19 8.32 11.33
4/24/2022 8:00:00 AM 8.59 47.462 0.098 7.21 7.86 11.34
4/24/2022 8:15:00 AM 8.64 47.552 0.098 7.21 8.24 11.35
4/24/2022 8:30:00 AM 8.71 47.678 0.099 7.21 8.16 11.36
4/24/2022 8:45:00 AM 8.8 47.84 0.098 7.23 8.07 11.36
4/24/2022 9:00:00 AM 8.86 47.948 0.098 7.22 7.75 11.36
4/24/2022 9:15:00 AM 8.92 48.056 0.098 7.25 7.56 11.36
4/24/2022 9:30:00 AM 9.04 48.272 0.098 7.25 7.3 11.36
4/24/2022 9:45:00 AM 9.17 48.506 0.098 7.25 7.52 11.35
4/24/2022 10:00:00 AM 9.3 48.74 0.098 7.26 6.83 11.34
4/24/2022 10:15:00 AM 9.39 48.902 0.098 7.31 7.77 11.33
4/24/2022 10:30:00 AM 9.45 49.01 0.099 7.29 7.18 11.32
4/24/2022 10:45:00 AM 9.64 49.352 0.098 7.28 7.54 11.31
4/24/2022 11:00:00 AM 9.84 49.712 0.099 7.29 8.48 11.28
4/24/2022 11:15:00 AM 10.06 50.108 0.099 7.32 7.58 11.24
4/24/2022 11:30:00 AM 10.28 50.504 0.098 7.32 7.51 11.2
4/24/2022 11:45:00 AM 10.47 50.846 0.098 7.35 7.7 11.17
4/24/2022 12:00:00 PM 10.68 51.224 0.098 7.33 7.95 11.13
4/24/2022 12:15:00 PM 10.92 51.656 0.098 7.33 7.7 11.08
4/24/2022 12:30:00 PM 11.18 52.124 0.098 7.34 7.23 11.03
4/24/2022 12:45:00 PM 11.43 52.574 0.098 7.34 7.76 10.98
4/24/2022 1:00:00 PM 11.67 53.006 0.098 7.36 7.81 10.93
4/24/2022 1:15:00 PM 11.92 53.456 0.098 7.35 7.03 10.87
4/24/2022 1:30:00 PM 12.17 53.906 0.098 7.38 7.36 10.82
4/24/2022 1:45:00 PM 12.4 54.32 0.098 7.37 8.09 10.77
4/24/2022 2:00:00 PM 12.61 54.698 0.098 7.38 7.92 10.71
4/24/2022 2:15:00 PM 12.82 55.076 0.098 7.39 7.23 10.65
4/24/2022 2:30:00 PM 13.02 55.436 0.098 7.37 7.52 10.61
4/24/2022 2:45:00 PM 13.2 55.76 0.098 7.38 7.81 10.56
4/24/2022 3:00:00 PM 13.37 56.066 0.098 7.39 7.71 10.51
4/24/2022 3:15:00 PM 13.53 56.354 0.098 7.4 7.94 10.46
4/24/2022 3:30:00 PM 13.69 56.642 0.098 7.39 8.03 10.41
4/24/2022 3:45:00 PM 13.83 56.894 0.098 7.39 7.25 10.37
4/24/2022 4:00:00 PM 13.95 57.11 0.098 7.36 7.45 10.32
4/24/2022 4:15:00 PM 14.06 57.308 0.098 7.36 7.66 10.28
4/24/2022 4:30:00 PM 14.16 57.488 0.099 7.35 7.67 10.24
4/24/2022 4:45:00 PM 14.23 57.614 0.099 7.39 8.06 10.2
4/24/2022 5:00:00 PM 14.3 57.74 0.099 7.36 7.41 10.17
4/24/2022 5:15:00 PM 14.35 57.83 0.099 7.36 7.47 10.14
4/24/2022 5:30:00 PM 14.39 57.902 0.099 7.34 8.38 10.11
4/24/2022 5:45:00 PM 14.42 57.956 0.099 7.37 7.31 10.07
4/24/2022 6:00:00 PM 14.44 57.992 0.099 7.37 8.7 10.04
4/24/2022 6:15:00 PM 14.44 57.992 0.099 7.36 7.74 10.01
4/24/2022 6:30:00 PM 14.43 57.974 0.099 7.36 8.19 9.99
4/24/2022 6:45:00 PM 14.42 57.956 0.099 7.33 7.91 9.96
4/24/2022 7:00:00 PM 14.39 57.902 0.099 7.31 8.08 9.94
4/24/2022 7:15:00 PM 14.35 57.83 0.099 7.33 8.04 9.92
4/24/2022 7:30:00 PM 14.3 57.74 0.099 7.32 7.81 9.9
4/24/2022 7:45:00 PM 14.24 57.632 0.099 7.28 8.3 9.89
4/24/2022 8:00:00 PM 14.16 57.488 0.099 7.27 9.45 9.89
4/24/2022 8:15:00 PM 14.08 57.344 0.099 7.29 7.96 9.89
4/24/2022 8:30:00 PM 13.99 57.182 0.1 7.25 8.43 9.89
4/24/2022 8:45:00 PM 13.9 57.02 0.1 7.27 10.14 9.91
4/24/2022 9:00:00 PM 13.8 56.84 0.1 7.27 8.75 9.92
4/24/2022 9:15:00 PM 13.69 56.642 0.1 7.24 9.69 9.94
4/24/2022 9:30:00 PM 13.57 56.426 0.1 7.27 9.65 9.95
4/24/2022 9:45:00 PM 13.44 56.192 0.1 7.26 8.59 9.98
4/24/2022 10:00:00 PM 13.32 55.976 0.1 7.26 8.49 9.99
4/24/2022 10:15:00 PM 13.2 55.76 0.1 7.25 9.65 10.02
4/24/2022 10:30:00 PM 13.09 55.562 0.1 7.24 8.61 10.04
4/24/2022 10:45:00 PM 12.98 55.364 0.1 7.22 9.03 10.06
4/24/2022 11:00:00 PM 12.87 55.166 0.1 7.23 10.3 10.09
4/24/2022 11:15:00 PM 12.77 54.986 0.1 7.2 10.31 10.1
4/24/2022 11:30:00 PM 12.67 54.806 0.1 7.25 9 10.12
4/24/2022 11:45:00 PM 12.58 54.644 0.101 7.25 8.25 10.15
4/25/2022 12:00:00 AM 12.49 54.482 0.101 7.21 9.32 10.17
4/25/2022 12:15:00 AM 12.4 54.32 0.101 7.2 8.57 10.19
4/25/2022 12:30:00 AM 12.32 54.176 0.101 7.24 8.65 10.21
4/25/2022 12:45:00 AM 12.24 54.032 0.101 7.25 8.65 10.22
4/25/2022 1:00:00 AM 12.15 53.87 0.101 7.25 8.98 10.24
4/25/2022 1:15:00 AM 12.07 53.726 0.101 7.23 8.53 10.26
4/25/2022 1:30:00 AM 11.99 53.582 0.101 7.25 8.81 10.27
4/25/2022 1:45:00 AM 11.92 53.456 0.101 7.25 8.63 10.3
4/25/2022 2:00:00 AM 11.84 53.312 0.101 7.22 8.54 10.31
4/25/2022 2:15:00 AM 11.76 53.168 0.101 7.25 8.73 10.33
4/25/2022 2:30:00 AM 11.69 53.042 0.101 7.24 8 10.35
4/25/2022 2:45:00 AM 11.62 52.916 0.101 7.25 8.26 10.36
4/25/2022 3:00:00 AM 11.55 52.79 0.101 7.25 8.06 10.38
4/25/2022 3:15:00 AM 11.49 52.682 0.102 7.24 9.72 10.39
4/25/2022 3:30:00 AM 11.43 52.574 0.102 7.24 8.16 10.41
4/25/2022 3:45:00 AM 11.38 52.484 0.102 7.24 7.26 10.42
4/25/2022 4:00:00 AM 11.32 52.376 0.102 7.22 9.47 10.43
4/25/2022 4:15:00 AM 11.26 52.268 0.102 7.2 8.64 10.45
4/25/2022 4:30:00 AM 11.21 52.178 0.102 7.21 9.76 10.46
4/25/2022 4:45:00 AM 11.16 52.088 0.102 7.25 9.39 10.47
4/25/2022 5:00:00 AM 11.12 52.016 0.102 7.21 8.25 10.49
4/25/2022 5:15:00 AM 11.08 51.944 0.102 7.24 12.8 10.49
4/25/2022 5:30:00 AM 11.04 51.872 0.102 7.24 9.36 10.51
4/25/2022 5:45:00 AM 11 51.8 0.102 7.23 10.03 10.52
4/25/2022 6:00:00 AM 10.96 51.728 0.102 7.22 8.35 10.53
4/25/2022 6:15:00 AM 10.93 51.674 0.102 7.23 7.16 10.54
4/25/2022 6:30:00 AM 10.9 51.62 0.102 7.24 7.31 10.55
4/25/2022 6:45:00 AM 10.88 51.584 0.102 7.23 7.67 10.58
4/25/2022 7:00:00 AM 10.87 51.566 0.102 7.27 7.28 10.61
4/25/2022 7:15:00 AM 10.87 51.566 0.102 7.26 7.48 10.64
4/25/2022 7:30:00 AM 10.88 51.584 0.102 7.26 9.91 10.66
4/25/2022 7:45:00 AM 10.89 51.602 0.102 7.25 8.16 10.7
4/25/2022 8:00:00 AM 10.91 51.638 0.102 7.29 7.81 10.71
4/25/2022 8:15:00 AM 10.94 51.692 0.102 7.3 9.04 10.74
4/25/2022 8:30:00 AM 10.97 51.746 0.102 7.3 7.81 10.75
4/25/2022 8:45:00 AM 11.02 51.836 0.102 7.3 7.53 10.77
4/25/2022 9:00:00 AM 11.08 51.944 0.102 7.33 7.03 10.79
4/25/2022 9:15:00 AM 11.15 52.07 0.102 7.34 6.69 10.79
4/25/2022 9:30:00 AM 11.22 52.196 0.102 7.35 7.27 10.79
4/25/2022 9:45:00 AM 11.3 52.34 0.102 7.35 7.05 10.8
4/25/2022 10:00:00 AM 11.46 52.628 0.102 7.38 7.61 10.79
4/25/2022 10:15:00 AM 11.56 52.808 0.102 7.37 7.02 10.78
4/25/2022 10:30:00 AM 11.64 52.952 0.102 7.35 6.68 10.78
4/25/2022 10:45:00 AM 11.81 53.258 0.102 7.36 6.81 10.76
4/25/2022 11:00:00 AM 12.04 53.672 0.102 7.37 6.94 10.74
4/25/2022 11:15:00 AM 12.24 54.032 0.102 7.39 6.68 10.7
4/25/2022 11:30:00 AM 12.44 54.392 0.102 7.4 6.56 10.67
4/25/2022 11:45:00 AM 12.64 54.752 0.102 7.42 6.65 10.64
4/25/2022 12:00:00 PM 12.85 55.13 0.102 7.43 6.84 10.61
4/25/2022 12:15:00 PM 13.07 55.526 0.102 7.43 6.51 10.56
4/25/2022 12:30:00 PM 13.31 55.958 0.101 7.43 6.79 10.52
4/25/2022 12:45:00 PM 13.54 56.372 0.101 7.42 7.07 10.48
4/25/2022 1:00:00 PM 13.76 56.768 0.101 7.43 6.71 10.44
4/25/2022 1:15:00 PM 13.98 57.164 0.101 7.45 6.98 10.39
4/25/2022 1:30:00 PM 14.2 57.56 0.101 7.45 7.14 10.34
4/25/2022 1:45:00 PM 14.41 57.938 0.101 7.44 6.76 10.3
4/25/2022 2:00:00 PM 14.6 58.28 0.101 7.46 7.01 10.26
4/25/2022 2:15:00 PM 14.79 58.622 0.102 7.45 6.8 10.2
4/25/2022 2:30:00 PM 14.96 58.928 0.101 7.46 7.22 10.16
4/25/2022 2:45:00 PM 15.11 59.198 0.101 7.45 6.59 10.13
4/25/2022 3:00:00 PM 15.24 59.432 0.101 7.46 7.04 10.09
4/25/2022 3:15:00 PM 15.37 59.666 0.101 7.44 6.67 10.06
4/25/2022 3:30:00 PM 15.47 59.846 0.101 7.47 6.98 10.01
4/25/2022 3:45:00 PM 15.58 60.044 0.101 7.45 6.62 9.98
4/25/2022 4:00:00 PM 15.65 60.17 0.101 7.47 6.71 9.95
4/25/2022 4:15:00 PM 15.71 60.278 0.101 7.44 6.33 9.91
4/25/2022 4:30:00 PM 15.77 60.386 0.101 7.45 6.54 9.89
4/25/2022 4:45:00 PM 15.8 60.44 0.101 7.46 6.85 9.86
4/25/2022 5:00:00 PM 15.83 60.494 0.102 7.44 7.16 9.83
4/25/2022 5:15:00 PM 15.82 60.476 0.101 7.45 7.09 9.8
4/25/2022 5:30:00 PM 15.81 60.458 0.102 7.42 7.16 9.79
4/25/2022 5:45:00 PM 15.79 60.422 0.102 7.44 7.11 9.77
4/25/2022 6:00:00 PM 15.78 60.404 0.102 7.42 6.91 9.75
4/25/2022 6:15:00 PM 15.78 60.404 0.102 7.41 6.61 9.73
4/25/2022 6:30:00 PM 15.76 60.368 0.102 7.42 7.14 9.71
4/25/2022 6:45:00 PM 15.71 60.278 0.102 7.38 6.83 9.67
4/25/2022 7:00:00 PM 15.65 60.17 0.102 7.39 6.63 9.64
4/25/2022 7:15:00 PM 15.59 60.062 0.102 7.38 7.45 9.63
4/25/2022 7:30:00 PM 15.53 59.954 0.102 7.36 7.73 9.6
4/25/2022 7:45:00 PM 15.47 59.846 0.102 7.35 7.26 9.59
4/25/2022 8:00:00 PM 15.4 59.72 0.102 7.34 7.41 9.57
4/25/2022 8:15:00 PM 15.31 59.558 0.102 7.31 7.12 9.57
4/25/2022 8:30:00 PM 15.21 59.378 0.103 7.3 8.54 9.56
4/25/2022 8:45:00 PM 15.11 59.198 0.103 7.31 7.63 9.57
4/25/2022 9:00:00 PM 14.99 58.982 0.103 7.31 7.89 9.58
4/25/2022 9:15:00 PM 14.88 58.784 0.103 7.29 7.47 9.61
4/25/2022 9:30:00 PM 14.77 58.586 0.103 7.27 7.61 9.62
4/25/2022 9:45:00 PM 14.69 58.442 0.103 7.3 7.83 9.64
4/25/2022 10:00:00 PM 14.58 58.244 0.103 7.3 7.42 9.66
4/25/2022 10:15:00 PM 14.47 58.046 0.103 7.26 7.65 9.68
4/25/2022 10:30:00 PM 14.36 57.848 0.103 7.27 7.65 9.69
4/25/2022 10:45:00 PM 14.26 57.668 0.103 7.29 7.25 9.72
4/25/2022 11:00:00 PM 14.15 57.47 0.103 7.27 7.08 9.75
4/25/2022 11:15:00 PM 14.06 57.308 0.104 7.28 8.49 9.76
4/25/2022 11:30:00 PM 13.97 57.146 0.104 7.27 9.51 9.77
4/25/2022 11:45:00 PM 13.88 56.984 0.104 7.26 8.6 9.79
4/26/2022 12:00:00 AM 13.81 56.858 0.104 7.28 7.81 9.81
4/26/2022 12:15:00 AM 13.74 56.732 0.104 7.27 7.49 9.82
4/26/2022 12:30:00 AM 13.67 56.606 0.104 7.26 7.34 9.84
4/26/2022 12:45:00 AM 13.59 56.462 0.104 7.27 7.49 9.85
4/26/2022 1:00:00 AM 13.53 56.354 0.104 7.29 7.57 9.87
4/26/2022 1:15:00 AM 13.45 56.21 0.104 7.28 7.68 9.88
4/26/2022 1:30:00 AM 13.39 56.102 0.104 7.28 7.41 9.9
4/26/2022 1:45:00 AM 13.32 55.976 0.104 7.27 7.76 9.92
4/26/2022 2:00:00 AM 13.26 55.868 0.104 7.25 8.28 9.93
4/26/2022 2:15:00 AM 13.21 55.778 0.104 7.28 7.6 9.94
4/26/2022 2:30:00 AM 13.15 55.67 0.104 7.25 7.45 9.96
4/26/2022 2:45:00 AM 13.09 55.562 0.105 7.25 7.44 9.97
4/26/2022 3:00:00 AM 13.03 55.454 0.105 7.23 7.41 9.98
4/26/2022 3:15:00 AM 12.97 55.346 0.105 7.28 7.52 9.98
4/26/2022 3:30:00 AM 12.91 55.238 0.105 7.28 7.66 10.01
4/26/2022 3:45:00 AM 12.85 55.13 0.105 7.25 7.49 10.02
4/26/2022 4:00:00 AM 12.8 55.04 0.105 7.28 7.68 10.02
4/26/2022 4:15:00 AM 12.75 54.95 0.105 7.27 7.38 10.04
4/26/2022 4:30:00 AM 12.7 54.86 0.105 7.28 7.56 10.06
4/26/2022 4:45:00 AM 12.65 54.77 0.105 7.27 7.36 10.07
4/26/2022 5:00:00 AM 12.61 54.698 0.105 7.28 7.46 10.08
4/26/2022 5:15:00 AM 12.56 54.608 0.106 7.28 6.91 10.09
4/26/2022 5:30:00 AM 12.52 54.536 0.106 7.28 7.67 10.09
4/26/2022 5:45:00 AM 12.49 54.482 0.106 7.28 7.66 10.1
4/26/2022 6:00:00 AM 12.45 54.41 0.106 7.27 6.89 10.11
4/26/2022 6:15:00 AM 12.42 54.356 0.106 7.28 7.77 10.12
4/26/2022 6:30:00 AM 12.39 54.302 0.106 7.28 7.13 10.12
4/26/2022 6:45:00 AM 12.36 54.248 0.106 7.27 7.07 10.16
4/26/2022 7:00:00 AM 12.34 54.212 0.106 7.25 7.46 10.16
4/26/2022 7:15:00 AM 12.32 54.176 0.106 7.25 7.5 10.17
4/26/2022 7:30:00 AM 12.3 54.14 0.106 7.28 7.02 10.18
4/26/2022 7:45:00 AM 12.28 54.104 0.106 7.26 7.6 10.21
4/26/2022 8:00:00 AM 12.27 54.086 0.106 7.3 6.83 10.23
4/26/2022 8:15:00 AM 12.26 54.068 0.106 7.31 7.06 10.23
4/26/2022 8:30:00 AM 12.25 54.05 0.106 7.28 6.79 10.26
4/26/2022 8:45:00 AM 12.26 54.068 0.106 7.27 7.61 10.29
4/26/2022 9:00:00 AM 12.28 54.104 0.106 7.33 6.62 10.32
4/26/2022 9:15:00 AM 12.28 54.104 0.105 7.33 6.77 10.33
4/26/2022 9:30:00 AM 12.29 54.122 0.106 7.34 6.61 10.34
4/26/2022 9:45:00 AM 12.3 54.14 0.105 7.35 6.64 10.35
4/26/2022 10:00:00 AM 12.32 54.176 0.106 7.32 6.7 10.36
4/26/2022 10:15:00 AM 12.35 54.23 0.106 7.32 6.67 10.39
4/26/2022 10:30:00 AM 12.39 54.302 0.105 7.34 6.95 10.41
4/26/2022 10:45:00 AM 12.4 54.32 0.105 7.34 6.38 10.4
4/26/2022 11:00:00 AM 12.43 54.374 0.105 7.39 6.48 10.41
4/26/2022 11:15:00 AM 12.43 54.374 0.106 7.38 6.96 10.39
4/26/2022 11:30:00 AM 12.5 54.5 0.105 7.38 6.6 10.43
4/26/2022 11:45:00 AM 12.54 54.572 0.105 7.38 6.32 10.43
4/26/2022 12:00:00 PM 12.58 54.644 0.106 7.39 6.25 10.42
4/26/2022 12:15:00 PM 12.6 54.68 0.105 7.38 6.62 10.42
4/26/2022 12:30:00 PM 12.65 54.77 0.105 7.39 6.88 10.44
4/26/2022 12:45:00 PM 12.68 54.824 0.106 7.42 6.7 10.43
4/26/2022 1:00:00 PM 12.71 54.878 0.106 7.43 6.19 10.43
4/26/2022 1:15:00 PM 12.76 54.968 0.106 7.42 6.93 10.43
4/26/2022 1:30:00 PM 12.83 55.094 0.106 7.42 6.66 10.44
4/26/2022 1:45:00 PM 12.89 55.202 0.106 7.46 6.29 10.44
4/26/2022 2:00:00 PM 12.92 55.256 0.106 7.44 6.75 10.42
4/26/2022 2:15:00 PM 12.92 55.256 0.106 7.44 6.29 10.39
4/26/2022 2:30:00 PM 12.93 55.274 0.106 7.42 6.27 10.38
4/26/2022 2:45:00 PM 12.97 55.346 0.105 7.46 6.45 10.4
4/26/2022 3:00:00 PM 13.01 55.418 0.105 7.46 6.04 10.39
4/26/2022 3:15:00 PM 13.07 55.526 0.105 7.46 6.43 10.38
4/26/2022 3:30:00 PM 13.16 55.688 0.105 7.47 6.1 10.39
4/26/2022 3:45:00 PM 13.16 55.688 0.106 7.46 6.67 10.33
4/26/2022 4:00:00 PM 13.14 55.652 0.105 7.45 6.33 10.28
4/26/2022 4:15:00 PM 13.11 55.598 0.105 7.41 6.42 10.23
4/26/2022 4:30:00 PM 13.09 55.562 0.106 7.41 6.64 10.22
4/26/2022 4:45:00 PM 13.1 55.58 0.105 7.41 6.19 10.22
4/26/2022 5:00:00 PM 13.11 55.598 0.105 7.38 6.66 10.21
4/26/2022 5:15:00 PM 13.11 55.598 0.105 7.39 6.64 10.19
4/26/2022 5:30:00 PM 13.1 55.58 0.106 7.37 6.81 10.18
4/26/2022 5:45:00 PM 13.09 55.562 0.105 7.36 6.43 10.17
4/26/2022 6:00:00 PM 13.08 55.544 0.105 7.36 6.62 10.16
4/26/2022 6:15:00 PM 13.06 55.508 0.105 7.38 6.22 10.14
4/26/2022 6:30:00 PM 13.05 55.49 0.105 7.34 6 10.13
4/26/2022 6:45:00 PM 13.04 55.472 0.105 7.35 6.58 10.11
4/26/2022 7:00:00 PM 13.02 55.436 0.105 7.36 6.35 10.11
4/26/2022 7:15:00 PM 13 55.4 0.105 7.34 6.68 10.09
4/26/2022 7:30:00 PM 12.97 55.346 0.105 7.34 6.76 10.07
4/26/2022 7:45:00 PM 12.94 55.292 0.106 7.3 6.93 10.06
4/26/2022 8:00:00 PM 12.9 55.22 0.105 7.33 6.4 10.05
4/26/2022 8:15:00 PM 12.86 55.148 0.106 7.3 6.75 10.05
4/26/2022 8:30:00 PM 12.83 55.094 0.106 7.3 6.7 10.05
4/26/2022 8:45:00 PM 12.79 55.022 0.106 7.32 7.04 10.05
4/26/2022 9:00:00 PM 12.75 54.95 0.106 7.32 9.19 10.06
4/26/2022 9:15:00 PM 12.7 54.86 0.106 7.32 7.74 10.06
4/26/2022 9:30:00 PM 12.66 54.788 0.106 7.31 7.57 10.08
4/26/2022 9:45:00 PM 12.6 54.68 0.106 7.29 7.24 10.08
4/26/2022 10:00:00 PM 12.53 54.554 0.106 7.32 6.72 10.09
4/26/2022 10:15:00 PM 12.47 54.446 0.106 7.32 7.34 10.11
4/26/2022 10:30:00 PM 12.42 54.356 0.106 7.29 7.6 10.12
4/26/2022 10:45:00 PM 12.37 54.266 0.106 7.31 6.57 10.12
4/26/2022 11:00:00 PM 12.31 54.158 0.106 7.32 7.12 10.14
4/26/2022 11:15:00 PM 12.26 54.068 0.107 7.31 7.05 10.17
4/26/2022 11:30:00 PM 12.2 53.96 0.107 7.3 6.96 10.17
4/26/2022 11:45:00 PM 12.14 53.852 0.107 7.28 6.63 10.19
4/27/2022 12:00:00 AM 12.08 53.744 0.107 7.28 7.18 10.2
4/27/2022 12:15:00 AM 12.01 53.618 0.107 7.32 7.14 10.21
4/27/2022 12:30:00 AM 11.93 53.474 0.107 7.31 6.8 10.23
4/27/2022 12:45:00 AM 11.85 53.33 0.107 7.3 6.84 10.25
4/27/2022 1:00:00 AM 11.76 53.168 0.107 7.32 7.07 10.27
4/27/2022 1:15:00 AM 11.67 53.006 0.107 7.29 7.86 10.28
4/27/2022 1:30:00 AM 11.59 52.862 0.107 7.31 6.98 10.31
4/27/2022 1:45:00 AM 11.5 52.7 0.107 7.32 6.93 10.33
4/27/2022 2:00:00 AM 11.41 52.538 0.107 7.28 7.4 10.35
4/27/2022 2:15:00 AM 11.32 52.376 0.107 7.31 6.8 10.37
4/27/2022 2:30:00 AM 11.25 52.25 0.107 7.27 6.98 10.38
4/27/2022 2:45:00 AM 11.18 52.124 0.107 7.32 7 10.4
4/27/2022 3:00:00 AM 11.12 52.016 0.107 7.28 7.14 10.42
4/27/2022 3:15:00 AM 11.07 51.926 0.107 7.3 9.04 10.44
4/27/2022 3:30:00 AM 11.01 51.818 0.107 7.27 7.43 10.45
4/27/2022 3:45:00 AM 10.94 51.692 0.107 7.27 7.06 10.49
4/27/2022 4:00:00 AM 10.87 51.566 0.107 7.25 6.86 10.48
4/27/2022 4:15:00 AM 10.8 51.44 0.107 7.26 6.81 10.51
4/27/2022 4:30:00 AM 10.72 51.296 0.107 7.27 7.11 10.52
4/27/2022 4:45:00 AM 10.63 51.134 0.107 7.27 7.28 10.55
4/27/2022 5:00:00 AM 10.54 50.972 0.107 7.31 6.7 10.56
4/27/2022 5:15:00 AM 10.45 50.81 0.107 7.27 7.01 10.58
4/27/2022 5:30:00 AM 10.37 50.666 0.108 7.28 7.14 10.61
4/27/2022 5:45:00 AM 10.29 50.522 0.108 7.3 6.82 10.63
4/27/2022 6:00:00 AM 10.2 50.36 0.108 7.28 6.98 10.66
4/27/2022 6:15:00 AM 10.14 50.252 0.108 7.29 6.93 10.67
4/27/2022 6:30:00 AM 10.09 50.162 0.108 7.26 6.95 10.7
4/27/2022 6:45:00 AM 10.03 50.054 0.108 7.3 6.68 10.73
4/27/2022 7:00:00 AM 9.98 49.964 0.108 7.28 6.63 10.79
4/27/2022 7:15:00 AM 9.92 49.856 0.108 7.27 6.48 10.82
4/27/2022 7:30:00 AM 9.88 49.784 0.108 7.26 6.66 10.87
4/27/2022 7:45:00 AM 9.85 49.73 0.108 7.3 6.79 10.91
4/27/2022 8:00:00 AM 9.85 49.73 0.108 7.35 6.91 10.94
4/27/2022 8:15:00 AM 9.86 49.748 0.108 7.36 6.54 10.98
4/27/2022 8:30:00 AM 9.8 49.64 0.107 7.38 6.38 11.01
4/27/2022 8:45:00 AM 9.84 49.712 0.107 7.36 6.3 11.04
4/27/2022 9:00:00 AM 9.89 49.802 0.107 7.4 6.02 11.07
4/27/2022 9:15:00 AM 9.95 49.91 0.107 7.4 6.06 11.08
4/27/2022 9:30:00 AM 9.85 49.73 0.107 7.39 6.35 11.06
4/27/2022 9:45:00 AM 9.73 49.514 0.107 7.41 6.2 11.08
4/27/2022 10:00:00 AM 9.67 49.406 0.107 7.41 6.03 11.1
4/27/2022 10:15:00 AM 9.68 49.424 0.107 7.39 6.15 11.14
4/27/2022 10:30:00 AM 9.78 49.604 0.107 7.44 5.99 11.16
4/27/2022 10:45:00 AM 9.83 49.694 0.107 7.42 5.96 11.17
4/27/2022 11:00:00 AM 9.89 49.802 0.107 7.46 5.79 11.17
4/27/2022 11:15:00 AM 10.01 50.018 0.107 7.46 5.88 11.19
4/27/2022 11:30:00 AM 9.96 49.928 0.107 7.47 5.77 11.16
4/27/2022 11:45:00 AM 9.94 49.892 0.107 7.47 5.71 11.17
4/27/2022 12:00:00 PM 9.92 49.856 0.107 7.46 5.69 11.19
4/27/2022 12:15:00 PM 10.01 50.018 0.107 7.46 5.92 11.2
4/27/2022 12:30:00 PM 10.06 50.108 0.107 7.49 5.65 11.18
4/27/2022 12:45:00 PM 10.04 50.072 0.107 7.49 6.01 11.15
4/27/2022 1:00:00 PM 10.01 50.018 0.107 7.49 5.95 11.14
4/27/2022 1:15:00 PM 9.94 49.892 0.107 7.48 5.92 11.14
4/27/2022 1:30:00 PM 10.03 50.054 0.107 7.49 6.06 11.17
4/27/2022 1:45:00 PM 10 50 0.107 7.49 6.16 11.14
4/27/2022 2:00:00 PM 10 50 0.107 7.48 5.97 11.12
4/27/2022 2:15:00 PM 9.98 49.964 0.107 7.48 6.21 11.1
4/27/2022 2:30:00 PM 9.92 49.856 0.107 7.46 6.09 11.12
4/27/2022 2:45:00 PM 9.89 49.802 0.107 7.48 6.27 11.15
4/27/2022 3:00:00 PM 9.84 49.712 0.107 7.45 6.36 11.14
4/27/2022 3:15:00 PM 9.83 49.694 0.107 7.49 6.21 11.15
4/27/2022 3:30:00 PM 9.84 49.712 0.107 7.46 6.17 11.15
4/27/2022 3:45:00 PM 9.86 49.748 0.107 7.48 6.17 11.18
4/27/2022 4:00:00 PM 9.83 49.694 0.107 7.47 6.02 11.14
4/27/2022 4:15:00 PM 9.77 49.586 0.107 7.45 6.08 11.12
4/27/2022 4:30:00 PM 9.78 49.604 0.107 7.45 6.15 11.15
4/27/2022 4:45:00 PM 9.74 49.532 0.107 7.43 6.23 11.13
4/27/2022 5:00:00 PM 9.7 49.46 0.106 7.43 5.9 11.12
4/27/2022 5:15:00 PM 9.7 49.46 0.106 7.42 6.23 11.14
4/27/2022 5:30:00 PM 9.71 49.478 0.106 7.44 6.04 11.16
4/27/2022 5:45:00 PM 9.68 49.424 0.106 7.43 6.18 11.14
4/27/2022 6:00:00 PM 9.64 49.352 0.106 7.41 6.07 11.1
4/27/2022 6:15:00 PM 9.59 49.262 0.106 7.42 5.99 11.08
4/27/2022 6:30:00 PM 9.54 49.172 0.106 7.39 6.05 11.07
4/27/2022 6:45:00 PM 9.49 49.082 0.106 7.41 6.72 11.07
4/27/2022 7:00:00 PM 9.43 48.974 0.106 7.42 7.32 11.07
4/27/2022 7:15:00 PM 9.36 48.848 0.107 7.4 6.28 11.05
4/27/2022 7:30:00 PM 9.28 48.704 0.106 7.36 5.99 11.05
4/27/2022 7:45:00 PM 9.2 48.56 0.107 7.38 6.17 11.06
4/27/2022 8:00:00 PM 9.12 48.416 0.107 7.34 6.12 11.06
4/27/2022 8:15:00 PM 9.04 48.272 0.107 7.33 6.33 11.07
4/27/2022 8:30:00 PM 8.95 48.11 0.107 7.34 7.35 11.08
4/27/2022 8:45:00 PM 8.87 47.966 0.107 7.35 6.92 11.09
4/27/2022 9:00:00 PM 8.8 47.84 0.107 7.34 6.21 11.11
4/27/2022 9:15:00 PM 8.72 47.696 0.107 7.3 6.6 11.13
4/27/2022 9:30:00 PM 8.66 47.588 0.107 7.32 6.35 11.14
4/27/2022 9:45:00 PM 8.59 47.462 0.107 7.29 6.33 11.15
4/27/2022 10:00:00 PM 8.5 47.3 0.107 7.32 6.49 11.17
4/27/2022 10:15:00 PM 8.45 47.21 0.108 7.3 6.66 11.19
4/27/2022 10:30:00 PM 8.37 47.066 0.107 7.28 6.19 11.21
4/27/2022 10:45:00 PM 8.29 46.922 0.107 7.29 6.53 11.22
4/27/2022 11:00:00 PM 8.23 46.814 0.108 7.29 6.11 11.24
4/27/2022 11:15:00 PM 8.16 46.688 0.107 7.28 6.02 11.26
4/27/2022 11:30:00 PM 8.1 46.58 0.108 7.26 6.46 11.28
4/27/2022 11:45:00 PM 8.04 46.472 0.108 7.29 6.37 11.29
4/28/2022 12:00:00 AM 7.98 46.364 0.108 7.3 6.42 11.32
4/28/2022 12:15:00 AM 7.91 46.238 0.107 7.28 6.47 11.33
4/28/2022 12:30:00 AM 7.85 46.13 0.108 7.26 6.48 11.35
4/28/2022 12:45:00 AM 7.79 46.022 0.108 7.3 6.01 11.36
4/28/2022 1:00:00 AM 7.74 45.932 0.108 7.3 6.14 11.38
4/28/2022 1:15:00 AM 7.67 45.806 0.108 7.3 6.41 11.39
4/28/2022 1:30:00 AM 7.59 45.662 0.108 7.3 6.38 11.42
4/28/2022 1:45:00 AM 7.53 45.554 0.108 7.27 6.03 11.43
4/28/2022 2:00:00 AM 7.46 45.428 0.108 7.29 6.04 11.46
4/28/2022 2:15:00 AM 7.39 45.302 0.108 7.26 6.18 11.47
4/28/2022 2:30:00 AM 7.32 45.176 0.108 7.28 5.87 11.49
4/28/2022 2:45:00 AM 7.26 45.068 0.108 7.28 6.05 11.52
4/28/2022 3:00:00 AM 7.2 44.96 0.108 7.25 6.26 11.53
4/28/2022 3:15:00 AM 7.13 44.834 0.108 7.28 6.03 11.56
4/28/2022 3:30:00 AM 7.08 44.744 0.108 7.29 5.92 11.57
4/28/2022 3:45:00 AM 7.03 44.654 0.108 7.26 5.77 11.58
4/28/2022 4:00:00 AM 6.98 44.564 0.108 7.25 5.98 11.59
4/28/2022 4:15:00 AM 6.93 44.474 0.108 7.28 6.05 11.62
4/28/2022 4:30:00 AM 6.87 44.366 0.108 7.29 5.97 11.64
4/28/2022 4:45:00 AM 6.82 44.276 0.108 7.27 5.84 11.64
4/28/2022 5:00:00 AM 6.79 44.222 0.108 7.26 5.73 11.66
4/28/2022 5:15:00 AM 6.73 44.114 0.108 7.29 5.81 11.67
4/28/2022 5:30:00 AM 6.68 44.024 0.108 7.28 6.14 11.7
4/28/2022 5:45:00 AM 6.64 43.952 0.108 7.28 5.81 11.71
4/28/2022 6:00:00 AM 6.6 43.88 0.108 7.28 5.61 11.72
4/28/2022 6:15:00 AM 6.57 43.826 0.108 7.29 5.64 11.74
4/28/2022 6:30:00 AM 6.52 43.736 0.108 7.26 5.84 11.75
4/28/2022 6:45:00 AM 6.49 43.682 0.108 7.26 5.86 11.79
4/28/2022 7:00:00 AM 6.46 43.628 0.109 7.3 5.68 11.82
4/28/2022 7:15:00 AM 6.44 43.592 0.109 7.32 5.66 11.87
4/28/2022 7:30:00 AM 6.4 43.52 0.108 7.3 5.52 11.91
4/28/2022 7:45:00 AM 6.42 43.556 0.109 7.33 5.37 11.96
4/28/2022 8:00:00 AM 6.46 43.628 0.109 7.35 5.44 12
4/28/2022 8:15:00 AM 6.47 43.646 0.108 7.36 5.45 12.02
4/28/2022 8:30:00 AM 6.5 43.7 0.108 7.37 5.28 12.05
4/28/2022 8:45:00 AM 6.51 43.718 0.109 7.38 5.38 12.06
4/28/2022 9:00:00 AM 6.59 43.862 0.108 7.37 5.3 12.08
4/28/2022 9:15:00 AM 6.67 44.006 0.109 7.38 5.41 12.08
4/28/2022 9:30:00 AM 6.71 44.078 0.109 7.38 5.22 12.07
4/28/2022 9:45:00 AM 6.82 44.276 0.108 7.38 5.06 12.07
4/28/2022 10:00:00 AM 6.94 44.492 0.108 7.39 5.21 12.06
4/28/2022 10:15:00 AM 7.06 44.708 0.108 7.44 5.34 12.06
4/28/2022 10:30:00 AM 7.24 45.032 0.108 7.42 5.14 12.03
4/28/2022 10:45:00 AM 7.44 45.392 0.108 7.45 5.22 12
4/28/2022 11:00:00 AM 7.68 45.824 0.108 7.43 9.27 11.96
4/28/2022 11:15:00 AM 7.88 46.184 0.108 7.47 5.32 11.92
4/28/2022 11:30:00 AM 8.12 46.616 0.108 7.45 5.55 11.86
4/28/2022 11:45:00 AM 8.4 47.12 0.108 7.48 5.18 11.81
4/28/2022 12:00:00 PM 8.64 47.552 0.108 7.48 5 11.75
4/28/2022 12:15:00 PM 8.88 47.984 0.108 7.46 5.06 11.69
4/28/2022 12:30:00 PM 9.15 48.47 0.108 7.5 5.27 11.63
4/28/2022 12:45:00 PM 9.39 48.902 0.108 7.51 6.39 11.57
4/28/2022 1:00:00 PM 9.62 49.316 0.108 7.5 5.17 11.51
4/28/2022 1:15:00 PM 9.85 49.73 0.108 7.52 5.17 11.45
4/28/2022 1:30:00 PM 10.06 50.108 0.108 7.51 5.21 11.39
4/28/2022 1:45:00 PM 10.26 50.468 0.108 7.52 5.05 11.34
4/28/2022 2:00:00 PM 10.44 50.792 0.108 7.54 5.05 11.28
4/28/2022 2:15:00 PM 10.58 51.044 0.108 7.54 5.09 11.24
4/28/2022 2:30:00 PM 10.73 51.314 0.108 7.53 5.14 11.2
4/28/2022 2:45:00 PM 10.86 51.548 0.108 7.55 5.01 11.15
4/28/2022 3:00:00 PM 10.95 51.71 0.108 7.54 5.26 11.11
4/28/2022 3:15:00 PM 11.02 51.836 0.108 7.55 5.77 11.08
4/28/2022 3:30:00 PM 11.09 51.962 0.108 7.55 5.24 11.05
4/28/2022 3:45:00 PM 11.12 52.016 0.108 7.53 5.62 11.03
4/28/2022 4:00:00 PM 11.13 52.034 0.108 7.53 5.76 11
4/28/2022 4:15:00 PM 11.14 52.052 0.108 7.56 5.2 10.98
4/28/2022 4:30:00 PM 11.13 52.034 0.108 7.54 5.16 10.96
4/28/2022 4:45:00 PM 11.11 51.998 0.108 7.52 5.25 10.94
4/28/2022 5:00:00 PM 11.08 51.944 0.108 7.54 5.31 10.93
4/28/2022 5:15:00 PM 11 51.8 0.108 7.55 5.56 10.92
4/28/2022 5:30:00 PM 10.92 51.656 0.108 7.52 5.21 10.91
4/28/2022 5:45:00 PM 10.85 51.53 0.108 7.52 5.44 10.9
4/28/2022 6:00:00 PM 10.77 51.386 0.108 7.49 5.15 10.89
4/28/2022 6:15:00 PM 10.7 51.26 0.108 7.52 5.47 10.88
4/28/2022 6:30:00 PM 10.63 51.134 0.108 7.47 5.55 10.85
4/28/2022 6:45:00 PM 10.55 50.99 0.108 7.5 6.03 10.84
4/28/2022 7:00:00 PM 10.48 50.864 0.108 7.48 5.79 10.83
4/28/2022 7:15:00 PM 10.43 50.774 0.108 7.46 5.83 10.81
4/28/2022 7:30:00 PM 10.36 50.648 0.108 7.41 6.22 10.79
4/28/2022 7:45:00 PM 10.31 50.558 0.108 7.41 6.14 10.77
4/28/2022 8:00:00 PM 10.25 50.45 0.108 7.39 5.82 10.75
4/28/2022 8:15:00 PM 10.2 50.36 0.108 7.41 5.91 10.75
4/28/2022 8:30:00 PM 10.14 50.252 0.108 7.4 6.06 10.75
4/28/2022 8:45:00 PM 10.06 50.108 0.109 7.36 8.19 10.75
4/28/2022 9:00:00 PM 9.99 49.982 0.108 7.39 5.7 10.77
4/28/2022 9:15:00 PM 9.91 49.838 0.109 7.38 5.94 10.78
4/28/2022 9:30:00 PM 9.82 49.676 0.109 7.37 5.92 10.8
4/28/2022 9:45:00 PM 9.72 49.496 0.109 7.36 5.88 10.82
4/28/2022 10:00:00 PM 9.62 49.316 0.109 7.36 6.5 10.85
4/28/2022 10:15:00 PM 9.5 49.1 0.109 7.34 9.67 10.87
4/28/2022 10:30:00 PM 9.39 48.902 0.109 7.31 6.24 10.9
4/28/2022 10:45:00 PM 9.26 48.668 0.109 7.35 6.15 10.93
4/28/2022 11:00:00 PM 9.13 48.434 0.109 7.35 6.34 10.97
4/28/2022 11:15:00 PM 9 48.2 0.109 7.33 5.79 11
4/28/2022 11:30:00 PM 8.88 47.984 0.109 7.34 6.75 11.04
4/28/2022 11:45:00 PM 8.75 47.75 0.109 7.3 6.06 11.08
4/29/2022 12:00:00 AM 8.62 47.516 0.109 7.28 5.77 11.11
4/29/2022 12:15:00 AM 8.49 47.282 0.11 7.27 5.95 11.15
4/29/2022 12:30:00 AM 8.36 47.048 0.109 7.29 5.61 11.18
4/29/2022 12:45:00 AM 8.23 46.814 0.109 7.27 5.68 11.23
4/29/2022 1:00:00 AM 8.1 46.58 0.109 7.32 5.59 11.27
4/29/2022 1:15:00 AM 7.97 46.346 0.11 7.27 5.78 11.3
4/29/2022 1:30:00 AM 7.84 46.112 0.109 7.3 6.02 11.34
4/29/2022 1:45:00 AM 7.72 45.896 0.11 7.3 5.52 11.37
4/29/2022 2:00:00 AM 7.6 45.68 0.11 7.3 5.68 11.41
4/29/2022 2:15:00 AM 7.47 45.446 0.11 7.3 5.52 11.45
4/29/2022 2:30:00 AM 7.36 45.248 0.11 7.29 5.74 11.48
4/29/2022 2:45:00 AM 7.24 45.032 0.11 7.3 5.45 11.52
4/29/2022 3:00:00 AM 7.13 44.834 0.11 7.27 5.93 11.55
4/29/2022 3:15:00 AM 7.01 44.618 0.11 7.29 5.57 11.59
4/29/2022 3:30:00 AM 6.91 44.438 0.11 7.3 5.37 11.63
4/29/2022 3:45:00 AM 6.8 44.24 0.11 7.29 5.72 11.66
4/29/2022 4:00:00 AM 6.69 44.042 0.11 7.28 5.33 11.69
4/29/2022 4:15:00 AM 6.59 43.862 0.11 7.25 5.45 11.72
4/29/2022 4:30:00 AM 6.5 43.7 0.11 7.26 5.37 11.75
4/29/2022 4:45:00 AM 6.41 43.538 0.11 7.25 5.39 11.78
4/29/2022 5:00:00 AM 6.32 43.376 0.11 7.26 5.43 11.82
4/29/2022 5:15:00 AM 6.23 43.214 0.11 7.27 5.48 11.84
4/29/2022 5:30:00 AM 6.15 43.07 0.11 7.27 5.41 11.87
4/29/2022 5:45:00 AM 6.07 42.926 0.11 7.26 5.33 11.89
4/29/2022 6:00:00 AM 5.98 42.764 0.11 7.26 5.36 11.92
4/29/2022 6:15:00 AM 5.9 42.62 0.111 7.27 5.28 11.95
4/29/2022 6:30:00 AM 5.83 42.494 0.11 7.26 5.36 12
4/29/2022 6:45:00 AM 5.77 42.386 0.111 7.27 5.18 12.05
4/29/2022 7:00:00 AM 5.71 42.278 0.111 7.28 5.25 12.1
4/29/2022 7:15:00 AM 5.67 42.206 0.111 7.29 5.26 12.15
4/29/2022 7:30:00 AM 5.65 42.17 0.111 7.29 5.92 12.21
4/29/2022 7:45:00 AM 5.66 42.188 0.111 7.29 5.42 12.24
4/29/2022 8:00:00 AM 5.68 42.224 0.111 7.3 5.11 12.28
4/29/2022 8:15:00 AM 5.72 42.296 0.111 7.31 5.08 12.31
4/29/2022 8:30:00 AM 5.78 42.404 0.111 7.33 5.29 12.32
4/29/2022 8:45:00 AM 5.83 42.494 0.111 7.37 5.1 12.35
4/29/2022 9:00:00 AM 5.91 42.638 0.111 7.39 5.26 12.35
4/29/2022 9:15:00 AM 6.01 42.818 0.111 7.39 4.99 12.34
4/29/2022 9:30:00 AM 6.12 43.016 0.111 7.39 4.91 12.34
4/29/2022 9:45:00 AM 6.25 43.25 0.111 7.38 4.99 12.33
4/29/2022 10:00:00 AM 6.4 43.52 0.111 7.42 5.3 12.3
4/29/2022 10:15:00 AM 6.58 43.844 0.111 7.42 4.76 12.28
4/29/2022 10:30:00 AM 6.79 44.222 0.11 7.45 4.62 12.24
4/29/2022 10:45:00 AM 7.02 44.636 0.11 7.45 4.7 12.19
4/29/2022 11:00:00 AM 7.27 45.086 0.11 7.46 5.02 12.15
4/29/2022 11:15:00 AM 7.53 45.554 0.11 7.48 5.14 12.09
4/29/2022 11:30:00 AM 7.8 46.04 0.11 7.49 4.88 12.03
4/29/2022 11:45:00 AM 8.13 46.634 0.11 7.49 5.43 11.96
4/29/2022 12:00:00 PM 8.39 47.102 0.11 7.49 4.84 11.89
4/29/2022 12:15:00 PM 8.71 47.678 0.11 7.5 4.79 11.82
4/29/2022 12:30:00 PM 9 48.2 0.11 7.52 5.67 11.74
4/29/2022 12:45:00 PM 9.25 48.65 0.11 7.53 4.57 11.68
4/29/2022 1:00:00 PM 9.53 49.154 0.11 7.52 4.59 11.6
4/29/2022 1:15:00 PM 9.76 49.568 0.11 7.53 4.97 11.54
4/29/2022 1:30:00 PM 10.01 50.018 0.11 7.55 4.79 11.47
4/29/2022 1:45:00 PM 10.26 50.468 0.11 7.56 4.61 11.4
4/29/2022 2:00:00 PM 10.5 50.9 0.11 7.56 4.63 11.33
4/29/2022 2:15:00 PM 10.69 51.242 0.11 7.57 4.84 11.27
4/29/2022 2:30:00 PM 10.88 51.584 0.11 7.57 4.61 11.21
4/29/2022 2:45:00 PM 11.05 51.89 0.11 7.58 4.92 11.16
4/29/2022 3:00:00 PM 11.19 52.142 0.11 7.59 4.75 11.11
4/29/2022 3:15:00 PM 11.3 52.34 0.11 7.58 4.65 11.07
4/29/2022 3:30:00 PM 11.39 52.502 0.11 7.59 4.82 11.03
4/29/2022 3:45:00 PM 11.45 52.61 0.11 7.59 5.14 11
4/29/2022 4:00:00 PM 11.47 52.646 0.11 7.59 4.68 10.97
4/29/2022 4:15:00 PM 11.5 52.7 0.11 7.59 4.64 10.94
4/29/2022 4:30:00 PM 11.5 52.7 0.109 7.59 4.69 10.92
4/29/2022 4:45:00 PM 11.47 52.646 0.109 7.59 4.79 10.91
4/29/2022 5:00:00 PM 11.44 52.592 0.11 7.59 5.05 10.89
4/29/2022 5:15:00 PM 11.4 52.52 0.109 7.59 5.32 10.88
4/29/2022 5:30:00 PM 11.33 52.394 0.11 7.59 5.06 10.86
4/29/2022 5:45:00 PM 11.25 52.25 0.11 7.57 5.43 10.85
4/29/2022 6:00:00 PM 11.16 52.088 0.11 7.53 5.03 10.83
4/29/2022 6:15:00 PM 11.1 51.98 0.11 7.54 4.91 10.81
4/29/2022 6:30:00 PM 11.04 51.872 0.11 7.54 4.91 10.79
4/29/2022 6:45:00 PM 10.96 51.728 0.11 7.52 4.8 10.77
4/29/2022 7:00:00 PM 10.89 51.602 0.11 7.5 4.61 10.75
4/29/2022 7:15:00 PM 10.82 51.476 0.11 7.47 4.83 10.72
4/29/2022 7:30:00 PM 10.77 51.386 0.11 7.49 5.52 10.7
4/29/2022 7:45:00 PM 10.74 51.332 0.11 7.47 5.03 10.68
4/29/2022 8:00:00 PM 10.65 51.17 0.11 7.45 5.28 10.66
4/29/2022 8:15:00 PM 10.63 51.134 0.11 7.41 5.06 10.64
4/29/2022 8:30:00 PM 10.59 51.062 0.11 7.4 5.07 10.63
4/29/2022 8:45:00 PM 10.55 50.99 0.11 7.4 5.2 10.62
4/29/2022 9:00:00 PM 10.5 50.9 0.11 7.39 5.05 10.62
4/29/2022 9:15:00 PM 10.45 50.81 0.11 7.39 5.1 10.63
4/29/2022 9:30:00 PM 10.37 50.666 0.11 7.39 5.33 10.64
4/29/2022 9:45:00 PM 10.3 50.54 0.11 7.37 5.62 10.65
4/29/2022 10:00:00 PM 10.2 50.36 0.111 7.34 5.44 10.68
4/29/2022 10:15:00 PM 10.12 50.216 0.11 7.37 5.44 10.7
4/29/2022 10:30:00 PM 10.02 50.036 0.11 7.37 5.16 10.72
4/29/2022 10:45:00 PM 9.91 49.838 0.11 7.37 5.08 10.74
4/29/2022 11:00:00 PM 9.81 49.658 0.11 7.36 5.1 10.77
4/29/2022 11:15:00 PM 9.69 49.442 0.111 7.32 5.18 10.79
4/29/2022 11:30:00 PM 9.59 49.262 0.111 7.35 4.96 10.83
4/29/2022 11:45:00 PM 9.47 49.046 0.111 7.34 4.94 10.86
4/30/2022 12:00:00 AM 9.35 48.83 0.111 7.34 5.14 10.89
4/30/2022 12:15:00 AM 9.24 48.632 0.111 7.35 5.02 10.93
4/30/2022 12:30:00 AM 9.11 48.398 0.111 7.36 4.74 10.96
4/30/2022 12:45:00 AM 9 48.2 0.111 7.34 5 10.99
4/30/2022 1:00:00 AM 8.88 47.984 0.111 7.32 5.05 11.02
4/30/2022 1:15:00 AM 8.75 47.75 0.111 7.32 4.69 11.06
4/30/2022 1:30:00 AM 8.63 47.534 0.111 7.29 4.76 11.09
4/30/2022 1:45:00 AM 8.51 47.318 0.111 7.31 4.76 11.12
4/30/2022 2:00:00 AM 8.39 47.102 0.111 7.32 5.13 11.16
4/30/2022 2:15:00 AM 8.27 46.886 0.111 7.32 4.97 11.2
4/30/2022 2:30:00 AM 8.15 46.67 0.111 7.3 4.73 11.22
4/30/2022 2:45:00 AM 8.03 46.454 0.111 7.32 4.88 11.27
4/30/2022 3:00:00 AM 7.92 46.256 0.111 7.32 4.84 11.3
4/30/2022 3:15:00 AM 7.8 46.04 0.111 7.31 4.77 11.33
4/30/2022 3:30:00 AM 7.69 45.842 0.112 7.33 5.02 11.37
4/30/2022 3:45:00 AM 7.58 45.644 0.112 7.29 4.58 11.4
4/30/2022 4:00:00 AM 7.46 45.428 0.112 7.3 4.72 11.43
4/30/2022 4:15:00 AM 7.35 45.23 0.112 7.31 4.8 11.47
4/30/2022 4:30:00 AM 7.25 45.05 0.112 7.29 4.74 11.5
4/30/2022 4:45:00 AM 7.14 44.852 0.112 7.28 4.54 11.53
4/30/2022 5:00:00 AM 7.03 44.654 0.112 7.3 4.52 11.56
4/30/2022 5:15:00 AM 6.93 44.474 0.112 7.32 4.49 11.6
4/30/2022 5:30:00 AM 6.83 44.294 0.112 7.28 4.65 11.63
4/30/2022 5:45:00 AM 6.73 44.114 0.112 7.3 4.75 11.66
4/30/2022 6:00:00 AM 6.63 43.934 0.112 7.29 4.73 11.69
4/30/2022 6:15:00 AM 6.54 43.772 0.112 7.3 4.61 11.74
4/30/2022 6:30:00 AM 6.47 43.646 0.112 7.3 4.86 11.78
4/30/2022 6:45:00 AM 6.38 43.484 0.112 7.29 4.66 11.84
4/30/2022 7:00:00 AM 6.32 43.376 0.112 7.31 4.43 11.89
4/30/2022 7:15:00 AM 6.27 43.286 0.112 7.32 4.47 11.95
4/30/2022 7:30:00 AM 6.25 43.25 0.112 7.33 4.49 12.01
4/30/2022 7:45:00 AM 6.24 43.232 0.112 7.33 4.45 12.06
4/30/2022 8:00:00 AM 6.26 43.268 0.112 7.32 4.51 12.09
4/30/2022 8:15:00 AM 6.29 43.322 0.112 7.36 4.44 12.13
4/30/2022 8:30:00 AM 6.34 43.412 0.112 7.37 4.57 12.16
4/30/2022 8:45:00 AM 6.41 43.538 0.112 7.35 4.53 12.18
4/30/2022 9:00:00 AM 6.49 43.682 0.112 7.39 4.53 12.19
4/30/2022 9:15:00 AM 6.6 43.88 0.112 7.4 4.37 12.19
4/30/2022 9:30:00 AM 6.72 44.096 0.112 7.38 4.23 12.17
4/30/2022 9:45:00 AM 6.88 44.384 0.112 7.43 4.44 12.17
4/30/2022 10:00:00 AM 7.04 44.672 0.112 7.44 4.37 12.14
4/30/2022 10:15:00 AM 7.23 45.014 0.112 7.45 4.36 12.12
4/30/2022 10:30:00 AM 7.44 45.392 0.112 7.44 4.63 12.08
4/30/2022 10:45:00 AM 7.71 45.878 0.113 7.47 4.44 12.03
4/30/2022 11:00:00 AM 7.99 46.382 0.112 7.5 4.41 11.99
4/30/2022 11:15:00 AM 8.25 46.85 0.112 7.5 4.68 11.93
4/30/2022 11:30:00 AM 8.54 47.372 0.113 7.52 4.25 11.86
4/30/2022 11:45:00 AM 8.89 48.002 0.112 7.53 4.29 11.79
4/30/2022 12:00:00 PM 9.2 48.56 0.112 7.54 4.32 11.72
4/30/2022 12:15:00 PM 9.49 49.082 0.112 7.55 4.44 11.64
4/30/2022 12:30:00 PM 9.85 49.73 0.112 7.54 4.37 11.56
4/30/2022 12:45:00 PM 10.13 50.234 0.112 7.53 4.41 11.49
4/30/2022 1:00:00 PM 10.46 50.828 0.112 7.58 4.24 11.41
4/30/2022 1:15:00 PM 10.73 51.314 0.112 7.59 4.4 11.34
4/30/2022 1:30:00 PM 10.99 51.782 0.112 7.59 4.87 11.27
4/30/2022 1:45:00 PM 11.3 52.34 0.112 7.6 4.51 11.19
4/30/2022 2:00:00 PM 11.55 52.79 0.112 7.6 4.49 11.11
4/30/2022 2:15:00 PM 11.78 53.204 0.112 7.6 4.38 11.05
4/30/2022 2:30:00 PM 12.01 53.618 0.112 7.62 4.45 10.98
4/30/2022 2:45:00 PM 12.2 53.96 0.112 7.62 4.57 10.93
4/30/2022 3:00:00 PM 12.36 54.248 0.112 7.63 4.59 10.87
4/30/2022 3:15:00 PM 12.49 54.482 0.112 7.64 4.69 10.83
4/30/2022 3:30:00 PM 12.59 54.662 0.112 7.64 4.78 10.78
4/30/2022 3:45:00 PM 12.67 54.806 0.112 7.61 4.6 10.75
4/30/2022 4:00:00 PM 12.73 54.914 0.112 7.63 4.67 10.71
4/30/2022 4:15:00 PM 12.75 54.95 0.112 7.6 4.65 10.68
4/30/2022 4:30:00 PM 12.76 54.968 0.112 7.63 4.68 10.66
4/30/2022 4:45:00 PM 12.75 54.95 0.111 7.6 4.74 10.64
4/30/2022 5:00:00 PM 12.71 54.878 0.112 7.63 4.99 10.62
4/30/2022 5:15:00 PM 12.65 54.77 0.111 7.6 4.8 10.61
4/30/2022 5:30:00 PM 12.58 54.644 0.111 7.62 4.79 10.6
4/30/2022 5:45:00 PM 12.48 54.464 0.112 7.6 4.63 10.57
4/30/2022 6:00:00 PM 12.37 54.266 0.112 7.56 5.13 10.55
4/30/2022 6:15:00 PM 12.33 54.194 0.111 7.56 4.65 10.55
4/30/2022 6:30:00 PM 12.29 54.122 0.111 7.57 4.73 10.52
4/30/2022 6:45:00 PM 12.22 53.996 0.111 7.52 4.84 10.5
4/30/2022 7:00:00 PM 12.19 53.942 0.111 7.54 4.91 10.47
4/30/2022 7:15:00 PM 12.17 53.906 0.111 7.52 6.16 10.43
4/30/2022 7:30:00 PM 12.16 53.888 0.112 7.49 5.46 10.38
4/30/2022 7:45:00 PM 12.15 53.87 0.112 7.47 5.32 10.34
4/30/2022 8:00:00 PM 12.12 53.816 0.112 7.46 4.92 10.31
4/30/2022 8:15:00 PM 12.09 53.762 0.112 7.41 5.56 10.27
4/30/2022 8:30:00 PM 12.05 53.69 0.112 7.41 6.04 10.25
4/30/2022 8:45:00 PM 12.01 53.618 0.112 7.36 5.01 10.24
4/30/2022 9:00:00 PM 11.95 53.51 0.112 7.4 5.7 10.23
4/30/2022 9:15:00 PM 11.91 53.438 0.112 7.39 5.33 10.23
4/30/2022 9:30:00 PM 11.84 53.312 0.112 7.37 5.5 10.24
4/30/2022 9:45:00 PM 11.78 53.204 0.112 7.39 5.54 10.24
4/30/2022 10:00:00 PM 11.7 53.06 0.112 7.38 5.88 10.27
4/30/2022 10:15:00 PM 11.6 52.88 0.112 7.33 5.52 10.28
4/30/2022 10:30:00 PM 11.5 52.7 0.112 7.34 5.18 10.3
4/30/2022 10:45:00 PM 11.4 52.52 0.112 7.34 5.06 10.32
4/30/2022 11:00:00 PM 11.28 52.304 0.112 7.37 4.92 10.35
4/30/2022 11:15:00 PM 11.18 52.124 0.112 7.37 4.98 10.37
4/30/2022 11:30:00 PM 11.07 51.926 0.112 7.36 5.66 10.41
4/30/2022 11:45:00 PM 10.95 51.71 0.112 7.36 5.14 10.43
5/1/2022 12:00:00 AM 10.85 51.53 0.112 7.31 5.82 10.46
5/1/2022 12:15:00 AM 10.74 51.332 0.112 7.35 5.09 10.49
5/1/2022 12:30:00 AM 10.63 51.134 0.112 7.32 5.16 10.51
5/1/2022 12:45:00 AM 10.51 50.918 0.112 7.34 5.14 10.54
5/1/2022 1:00:00 AM 10.4 50.72 0.112 7.33 5.5 10.57
5/1/2022 1:15:00 AM 10.29 50.522 0.113 7.35 5.13 10.6
5/1/2022 1:30:00 AM 10.17 50.306 0.112 7.35 5.42 10.63
5/1/2022 1:45:00 AM 10.05 50.09 0.113 7.31 4.88 10.66
5/1/2022 2:00:00 AM 9.94 49.892 0.113 7.33 4.98 10.69
5/1/2022 2:15:00 AM 9.82 49.676 0.113 7.33 4.99 10.72
5/1/2022 2:30:00 AM 9.71 49.478 0.113 7.31 4.92 10.76
5/1/2022 2:45:00 AM 9.59 49.262 0.113 7.31 4.73 10.78
5/1/2022 3:00:00 AM 9.49 49.082 0.113 7.32 5.81 10.82
5/1/2022 3:15:00 AM 9.37 48.866 0.113 7.3 5.1 10.86
5/1/2022 3:30:00 AM 9.25 48.65 0.113 7.31 5.04 10.88
5/1/2022 3:45:00 AM 9.13 48.434 0.113 7.31 5.03 10.92
5/1/2022 4:00:00 AM 9.02 48.236 0.113 7.32 4.81 10.95
5/1/2022 4:15:00 AM 8.91 48.038 0.113 7.31 4.7 10.98
5/1/2022 4:30:00 AM 8.79 47.822 0.113 7.32 4.83 11.01
5/1/2022 4:45:00 AM 8.68 47.624 0.113 7.32 4.88 11.05
5/1/2022 5:00:00 AM 8.57 47.426 0.113 7.32 4.91 11.08
5/1/2022 5:15:00 AM 8.46 47.228 0.113 7.31 4.58 11.12
5/1/2022 5:30:00 AM 8.35 47.03 0.113 7.32 4.61 11.14
5/1/2022 5:45:00 AM 8.24 46.832 0.113 7.3 4.61 11.18
5/1/2022 6:00:00 AM 8.14 46.652 0.113 7.28 4.69 11.21
5/1/2022 6:15:00 AM 8.04 46.472 0.113 7.27 4.44 11.25
5/1/2022 6:30:00 AM 7.95 46.31 0.113 7.31 5.03 11.3
5/1/2022 6:45:00 AM 7.87 46.166 0.114 7.3 4.61 11.36
5/1/2022 7:00:00 AM 7.8 46.04 0.113 7.32 4.93 11.42
5/1/2022 7:15:00 AM 7.74 45.932 0.114 7.34 4.5 11.49
5/1/2022 7:30:00 AM 7.71 45.878 0.114 7.36 4.43 11.55
5/1/2022 7:45:00 AM 7.71 45.878 0.113 7.37 4.44 11.6
5/1/2022 8:00:00 AM 7.72 45.896 0.113 7.35 4.54 11.65
5/1/2022 8:15:00 AM 7.75 45.95 0.113 7.39 4.57 11.7
5/1/2022 8:30:00 AM 7.79 46.022 0.114 7.38 4.53 11.73
5/1/2022 8:45:00 AM 7.89 46.202 0.114 7.41 4.45 11.75
5/1/2022 9:00:00 AM 7.96 46.328 0.113 7.4 4.5 11.76
5/1/2022 9:15:00 AM 8.08 46.544 0.113 7.45 4.49 11.76
5/1/2022 9:30:00 AM 8.22 46.796 0.113 7.47 4.44 11.76
5/1/2022 9:45:00 AM 8.37 47.066 0.113 7.48 4.44 11.75
5/1/2022 10:00:00 AM 8.53 47.354 0.114 7.5 4.29 11.73
5/1/2022 10:15:00 AM 8.73 47.714 0.114 7.48 4.18 11.71
5/1/2022 10:30:00 AM 8.97 48.146 0.113 7.52 4.18 11.68
5/1/2022 10:45:00 AM 9.25 48.65 0.114 7.54 4.29 11.64
5/1/2022 11:00:00 AM 9.5 49.1 0.113 7.54 4.38 11.59
5/1/2022 11:15:00 AM 9.73 49.514 0.113 7.53 4.28 11.54
5/1/2022 11:30:00 AM 10.01 50.018 0.113 7.56 4.75 11.49
5/1/2022 11:45:00 AM 10.33 50.594 0.113 7.59 4.12 11.44
5/1/2022 12:00:00 PM 10.59 51.062 0.113 7.61 4.28 11.36
5/1/2022 12:15:00 PM 10.93 51.674 0.113 7.59 4.31 11.3
5/1/2022 12:30:00 PM 11.25 52.25 0.113 7.62 4.29 11.23
5/1/2022 12:45:00 PM 11.54 52.772 0.113 7.64 4.33 11.17
5/1/2022 1:00:00 PM 11.71 53.078 0.113 7.62 6.37 11.09
5/1/2022 1:15:00 PM 12.03 53.654 0.113 7.65 4.94 11.04
5/1/2022 1:30:00 PM 12.34 54.212 0.113 7.67 4.2 10.98
5/1/2022 1:45:00 PM 12.6 54.68 0.113 7.68 4.73 10.91
5/1/2022 2:00:00 PM 12.83 55.094 0.113 7.69 5.47 10.86
5/1/2022 2:15:00 PM 12.95 55.31 0.113 7.68 5.1 10.8
5/1/2022 2:30:00 PM 13.05 55.49 0.119 7.71 4.67 10.76
5/1/2022 2:45:00 PM 13.12 55.616 0.113 7.71 4.76 10.73
5/1/2022 3:00:00 PM 13.13 55.634 0.119 7.69 4.59 10.7
5/1/2022 3:15:00 PM 13.14 55.652 0.113 7.7 4.44 10.68
5/1/2022 3:30:00 PM 13.17 55.706 0.113 7.73 4.74 10.67
5/1/2022 3:45:00 PM 13.19 55.742 0.113 7.73 4.48 10.64
5/1/2022 4:00:00 PM 13.14 55.652 0.113 7.71 4.57 10.59
5/1/2022 4:15:00 PM 13.04 55.472 0.113 7.67 4.84 10.5
5/1/2022 4:30:00 PM 12.98 55.364 0.113 7.62 4.42 10.5
5/1/2022 4:45:00 PM 12.91 55.238 0.113 7.64 4.58 10.48
5/1/2022 5:00:00 PM 12.86 55.148 0.113 7.62 4.71 10.45
5/1/2022 5:15:00 PM 12.81 55.058 0.119 7.6 4.6 10.42
5/1/2022 5:30:00 PM 12.76 54.968 0.113 7.58 4.55 10.38
5/1/2022 5:45:00 PM 12.73 54.914 0.113 7.56 5.25 10.36
5/1/2022 6:00:00 PM 12.71 54.878 0.113 7.55 4.7 10.34
5/1/2022 6:15:00 PM 12.68 54.824 0.113 7.53 5.37 10.31
5/1/2022 6:30:00 PM 12.66 54.788 0.113 7.52 4.62 10.3
5/1/2022 6:45:00 PM 12.64 54.752 0.113 7.51 4.55 10.27
5/1/2022 7:00:00 PM 12.63 54.734 0.113 7.5 4.32 10.24
5/1/2022 7:15:00 PM 12.61 54.698 0.113 7.48 4.48 10.21
5/1/2022 7:30:00 PM 12.61 54.698 0.114 7.47 4.43 10.18
5/1/2022 7:45:00 PM 12.59 54.662 0.114 7.46 4.67 10.16
5/1/2022 8:00:00 PM 12.59 54.662 0.114 7.43 4.68 10.13
5/1/2022 8:15:00 PM 12.58 54.644 0.12 7.42 5.34 10.1
5/1/2022 8:30:00 PM 12.58 54.644 0.114 7.42 5.03 10.08
5/1/2022 8:45:00 PM 12.56 54.608 0.114 7.41 4.91 10.07
5/1/2022 9:00:00 PM 12.55 54.59 0.114 7.4 4.81 10.06
5/1/2022 9:15:00 PM 12.54 54.572 0.114 7.39 4.82 10.06
5/1/2022 9:30:00 PM 12.54 54.572 0.114 7.35 5.53 10.05
5/1/2022 9:45:00 PM 12.54 54.572 0.114 7.37 4.61 10.05
5/1/2022 10:00:00 PM 12.53 54.554 0.114 7.39 4.69 10.04
5/1/2022 10:15:00 PM 12.52 54.536 0.114 7.35 4.77 10.04
5/1/2022 10:30:00 PM 12.51 54.518 0.114 7.38 4.82 10.05
5/1/2022 10:45:00 PM 12.48 54.464 0.114 7.38 4.85 10.05
5/1/2022 11:00:00 PM 12.47 54.446 0.121 7.34 4.89 10.05
5/1/2022 11:15:00 PM 12.45 54.41 0.114 7.32 4.85 10.05
5/1/2022 11:30:00 PM 12.42 54.356 0.114 7.33 4.94 10.06
5/1/2022 11:45:00 PM 12.4 54.32 0.121 7.36 4.89 10.06
5/2/2022 12:00:00 AM 12.38 54.284 0.114 7.36 5.07 10.07
5/2/2022 12:15:00 AM 12.35 54.23 0.114 7.32 4.83 10.07
5/2/2022 12:30:00 AM 12.32 54.176 0.116 7.35 5.29 10.08
5/2/2022 12:45:00 AM 12.29 54.122 0.114 7.36 4.87 10.08
5/2/2022 1:00:00 AM 12.27 54.086 0.114 7.34 4.96 10.09
5/2/2022 1:15:00 AM 12.24 54.032 0.114 7.35 4.86 10.09
5/2/2022 1:30:00 AM 12.21 53.978 0.114 7.37 4.91 10.11
5/2/2022 1:45:00 AM 12.18 53.924 0.114 7.34 4.78 10.1
5/2/2022 2:00:00 AM 12.16 53.888 0.121 7.33 5.17 10.12
5/2/2022 2:15:00 AM 12.13 53.834 0.114 7.36 5.13 10.13
5/2/2022 2:30:00 AM 12.11 53.798 0.114 7.36 4.95 10.13
5/2/2022 2:45:00 AM 12.06 53.708 0.114 7.36 5.24 10.14
5/2/2022 3:00:00 AM 12.03 53.654 0.114 7.36 5.48 10.15
5/2/2022 3:15:00 AM 11.99 53.582 0.114 7.34 5.24 10.16
5/2/2022 3:30:00 AM 11.96 53.528 0.113 7.35 5.18 10.15
5/2/2022 3:45:00 AM 11.92 53.456 0.113 7.35 5.32 10.17
5/2/2022 4:00:00 AM 11.89 53.402 0.114 7.34 5.25 10.17
5/2/2022 4:15:00 AM 11.86 53.348 0.114 7.3 5.56 10.17
5/2/2022 4:30:00 AM 11.83 53.294 0.114 7.33 5.29 10.18
5/2/2022 4:45:00 AM 11.8 53.24 0.114 7.33 5.14 10.19
5/2/2022 5:00:00 AM 11.77 53.186 0.114 7.33 5.3 10.2
5/2/2022 5:15:00 AM 11.73 53.114 0.114 7.31 6.01 10.21
5/2/2022 5:30:00 AM 11.69 53.042 0.114 7.33 5.52 10.22
5/2/2022 5:45:00 AM 11.64 52.952 0.114 7.34 4.91 10.23
5/2/2022 6:00:00 AM 11.6 52.88 0.114 7.35 5.31 10.24
5/2/2022 6:15:00 AM 11.56 52.808 0.114 7.34 5.19 10.25
5/2/2022 6:30:00 AM 11.53 52.754 0.114 7.34 4.99 10.27
5/2/2022 6:45:00 AM 11.5 52.7 0.114 7.34 4.99 10.3
5/2/2022 7:00:00 AM 11.47 52.646 0.114 7.33 5.32 10.31
5/2/2022 7:15:00 AM 11.45 52.61 0.114 7.35 5.21 10.35
5/2/2022 7:30:00 AM 11.43 52.574 0.114 7.35 7.68 10.38
5/2/2022 7:45:00 AM 11.42 52.556 0.115 7.36 4.7 10.42
5/2/2022 8:00:00 AM 11.42 52.556 0.115 7.36 4.89 10.48
5/2/2022 8:15:00 AM 11.42 52.556 0.115 7.4 4.92 10.53
5/2/2022 8:30:00 AM 11.42 52.556 0.115 7.37 4.89 10.57
5/2/2022 8:45:00 AM 11.42 52.556 0.115 7.4 4.77 10.6
5/2/2022 9:00:00 AM 11.45 52.61 0.115 7.45 4.69 10.66
5/2/2022 9:15:00 AM 11.48 52.664 0.115 7.48 4.52 10.71
5/2/2022 9:30:00 AM 11.52 52.736 0.115 7.46 4.83 10.74
5/2/2022 9:45:00 AM 11.58 52.844 0.115 7.51 4.43 10.78
5/2/2022 10:00:00 AM 11.62 52.916 0.121 7.49 4.42 10.8
5/2/2022 10:15:00 AM 11.7 53.06 0.115 7.51 4.46 10.82
5/2/2022 10:30:00 AM 11.76 53.168 0.115 7.56 4.46 10.83
5/2/2022 10:45:00 AM 11.91 53.438 0.115 7.6 4.57 10.86
5/2/2022 11:00:00 AM 12.06 53.708 0.115 7.59 4.44 10.88
5/2/2022 11:15:00 AM 12.2 53.96 0.115 7.64 4.44 10.86
5/2/2022 11:30:00 AM 12.3 54.14 0.115 7.66 4.38 10.83
5/2/2022 11:45:00 AM 12.37 54.266 0.114 7.64 4.51 10.8
5/2/2022 12:00:00 PM 12.39 54.302 0.114 7.68 4.4 10.78
5/2/2022 12:15:00 PM 12.37 54.266 0.115 7.68 4.55 10.77
5/2/2022 12:30:00 PM 12.36 54.248 0.115 7.64 4.5 10.75
5/2/2022 12:45:00 PM 12.35 54.23 0.115 7.67 4.59 10.74
5/2/2022 1:00:00 PM 12.34 54.212 0.114 7.67 4.56 10.73
5/2/2022 1:15:00 PM 12.34 54.212 0.115 7.65 4.85 10.67
5/2/2022 1:30:00 PM 12.42 54.356 0.115 7.66 4.67 10.7
5/2/2022 1:45:00 PM 12.47 54.446 0.115 7.65 4.5 10.7
5/2/2022 2:00:00 PM 12.67 54.806 0.115 7.66 4.67 10.72
5/2/2022 2:15:00 PM 12.94 55.292 0.114 7.71 4.96 10.72
5/2/2022 2:30:00 PM 13.21 55.778 0.115 7.72 5.34 10.68
5/2/2022 2:45:00 PM 13.29 55.922 0.121 7.72 4.79 10.59
5/2/2022 3:00:00 PM 13.33 55.994 0.121 7.7 4.53 10.47
5/2/2022 3:15:00 PM 13.33 55.994 0.115 7.63 4.98 10.41
5/2/2022 3:30:00 PM 13.38 56.084 0.114 7.66 4.93 10.46
5/2/2022 3:45:00 PM 13.38 56.084 0.121 7.67 4.98 10.47
5/2/2022 4:00:00 PM 13.3 55.94 0.121 7.65 4.91 10.38
5/2/2022 4:15:00 PM 13.31 55.958 0.114 7.59 4.82 10.38
5/2/2022 4:30:00 PM 13.45 56.21 0.121 7.64 4.8 10.45
5/2/2022 4:45:00 PM 13.57 56.426 0.121 7.67 4.94 10.43
5/2/2022 5:00:00 PM 13.58 56.444 0.121 7.65 4.82 10.31
5/2/2022 5:15:00 PM 13.5 56.3 0.121 7.58 4.86 10.24
5/2/2022 5:30:00 PM 13.53 56.354 0.115 7.62 5.15 10.31
5/2/2022 5:45:00 PM 13.52 56.336 0.121 7.61 5.2 10.33
5/2/2022 6:00:00 PM 13.47 56.246 0.121 7.6 4.9 10.28
5/2/2022 6:15:00 PM 13.43 56.174 0.121 7.59 5.05 10.22
5/2/2022 6:30:00 PM 13.39 56.102 0.121 7.57 5.09 10.2
5/2/2022 6:45:00 PM 13.34 56.012 0.115 7.55 5.17 10.14
5/2/2022 7:00:00 PM 13.29 55.922 0.122 7.52 5.11 10.11
5/2/2022 7:15:00 PM 13.23 55.814 0.122 7.45 4.99 10.08
5/2/2022 7:30:00 PM 13.16 55.688 0.122 7.42 5.09 10.06
5/2/2022 7:45:00 PM 13.11 55.598 0.116 7.42 5.08 10.04
5/2/2022 8:00:00 PM 13.08 55.544 0.122 7.4 5.18 10.02
5/2/2022 8:15:00 PM 13.05 55.49 0.122 7.41 5.14 10
5/2/2022 8:30:00 PM 13.02 55.436 0.122 7.41 5.1 10
5/2/2022 8:45:00 PM 13 55.4 0.122 7.37 5.25 9.99
5/2/2022 9:00:00 PM 12.98 55.364 0.116 7.39 5.72 9.98
5/2/2022 9:15:00 PM 12.95 55.31 0.116 7.35 5.33 9.98
5/2/2022 9:30:00 PM 12.92 55.256 0.116 7.37 5.29 9.98
5/2/2022 9:45:00 PM 12.89 55.202 0.122 7.35 5.4 9.99
5/2/2022 10:00:00 PM 12.87 55.166 0.122 7.32 5.35 9.99
5/2/2022 10:15:00 PM 12.84 55.112 0.122 7.35 5.7 9.99
5/2/2022 10:30:00 PM 12.82 55.076 0.122 7.3 5.49 9.99
5/2/2022 10:45:00 PM 12.8 55.04 0.116 7.31 5.67 10
5/2/2022 11:00:00 PM 12.78 55.004 0.116 7.29 5.71 10
5/2/2022 11:15:00 PM 12.75 54.95 0.116 7.33 5.56 10.01
5/2/2022 11:30:00 PM 12.72 54.896 0.122 7.32 5.46 10.01
5/2/2022 11:45:00 PM 12.69 54.842 0.116 7.34 5.84 10.02
5/3/2022 12:00:00 AM 12.65 54.77 0.122 7.29 5.44 10.03
5/3/2022 12:15:00 AM 12.58 54.644 0.116 7.31 5.35 10.04
5/3/2022 12:30:00 AM 12.54 54.572 0.116 7.3 5.68 10.05
5/3/2022 12:45:00 AM 12.51 54.518 0.116 7.33 5.56 10.06
5/3/2022 1:00:00 AM 12.48 54.464 0.116 7.28 5.63 10.07
5/3/2022 1:15:00 AM 12.45 54.41 0.116 7.32 5.46 10.08
5/3/2022 1:30:00 AM 12.42 54.356 0.116 7.32 5.28 10.08
5/3/2022 1:45:00 AM 12.39 54.302 0.122 7.31 5.47 10.09
5/3/2022 2:00:00 AM 12.36 54.248 0.116 7.31 5.51 10.09
5/3/2022 2:15:00 AM 12.33 54.194 0.116 7.28 5.63 10.1
5/3/2022 2:30:00 AM 12.31 54.158 0.116 7.28 5.81 10.1
5/3/2022 2:45:00 AM 12.28 54.104 0.116 7.3 5.35 10.11
5/3/2022 3:00:00 AM 12.24 54.032 0.116 7.32 5.54 10.12
5/3/2022 3:15:00 AM 12.19 53.942 0.116 7.31 5.37 10.12
5/3/2022 3:30:00 AM 12.13 53.834 0.117 7.29 5.91 10.14
5/3/2022 3:45:00 AM 12.07 53.726 0.122 7.29 5.49 10.15
5/3/2022 4:00:00 AM 12.02 53.636 0.122 7.32 5.38 10.17
5/3/2022 4:15:00 AM 11.94 53.492 0.123 7.29 5.63 10.19
5/3/2022 4:30:00 AM 11.87 53.366 0.116 7.31 5.43 10.2
5/3/2022 4:45:00 AM 11.78 53.204 0.116 7.3 5.45 10.22
5/3/2022 5:00:00 AM 11.7 53.06 0.116 7.27 5.48 10.24
5/3/2022 5:15:00 AM 11.63 52.934 0.116 7.32 5.45 10.26
5/3/2022 5:30:00 AM 11.56 52.808 0.116 7.27 5.44 10.28
5/3/2022 5:45:00 AM 11.48 52.664 0.123 7.25 5.73 10.29
5/3/2022 6:00:00 AM 11.4 52.52 0.116 7.31 5.48 10.31
5/3/2022 6:15:00 AM 11.33 52.394 0.116 7.27 5.67 10.35
5/3/2022 6:30:00 AM 11.27 52.286 0.117 7.32 5.32 10.39
5/3/2022 6:45:00 AM 11.22 52.196 0.117 7.3 5.34 10.45
5/3/2022 7:00:00 AM 11.17 52.106 0.117 7.35 5.26 10.51
5/3/2022 7:15:00 AM 11.14 52.052 0.117 7.33 530.67 10.58
5/3/2022 7:30:00 AM 11.13 52.034 0.117 7.39 5.01 10.65
5/3/2022 7:45:00 AM 11.14 52.052 0.116 7.4 4.91 10.71
5/3/2022 8:00:00 AM 11.17 52.106 0.117 7.4 5.05 10.76
5/3/2022 8:15:00 AM 11.21 52.178 0.117 7.44 4.8 10.8
5/3/2022 8:30:00 AM 11.29 52.322 0.117 7.47 4.97 10.84
5/3/2022 8:45:00 AM 11.39 52.502 0.117 7.5 4.99 10.87
5/3/2022 9:00:00 AM 11.48 52.664 0.116 7.52 4.92 10.89
5/3/2022 9:15:00 AM 11.58 52.844 0.116 7.54 5.2 10.91
5/3/2022 9:30:00 AM 11.7 53.06 0.123 7.56 5.35 10.92
5/3/2022 9:45:00 AM 11.85 53.33 0.116 7.58 4.96 10.92
5/3/2022 10:00:00 AM 12.02 53.636 0.123 7.59 5.03 10.92
5/3/2022 10:15:00 AM 12.23 54.014 0.123 7.62 4.81 10.91
5/3/2022 10:30:00 AM 12.44 54.392 0.123 7.64 5.14 10.89
5/3/2022 10:45:00 AM 12.67 54.806 0.123 7.67 5.09 10.87
5/3/2022 11:00:00 AM 12.88 55.184 0.116 7.68 4.83 10.84
5/3/2022 11:15:00 AM 13.21 55.778 0.123 7.71 5 10.81
5/3/2022 11:30:00 AM 13.47 56.246 0.123 7.73 5.73 10.77
5/3/2022 11:45:00 AM 13.84 56.912 0.123 7.76 5.09 10.72
5/3/2022 12:00:00 PM 14.1 57.38 0.122 7.77 4.88 10.67
5/3/2022 12:15:00 PM 14.33 57.794 0.122 7.79 4.76 10.6
5/3/2022 12:30:00 PM 14.57 58.226 0.122 7.81 5.07 10.56
5/3/2022 12:45:00 PM 14.81 58.658 0.122 7.82 4.87 10.51
5/3/2022 1:00:00 PM 15.04 59.072 0.122 7.83 4.88 10.46
5/3/2022 1:15:00 PM 15.13 59.234 0.122 7.83 4.88 10.41
5/3/2022 1:30:00 PM 15.3 59.54 0.122 7.87 4.85 10.38
5/3/2022 1:45:00 PM 15.43 59.774 0.122 7.88 4.74 10.35
5/3/2022 2:00:00 PM 15.49 59.882 0.122 7.89 5.06 10.31
5/3/2022 2:15:00 PM 15.57 60.026 0.122 7.89 4.94 10.28
5/3/2022 2:30:00 PM 15.62 60.116 0.122 7.9 4.9 10.26
5/3/2022 2:45:00 PM 15.67 60.206 0.122 7.87 4.73 10.23
5/3/2022 3:00:00 PM 15.7 60.26 0.122 7.86 4.89 10.21
5/3/2022 3:15:00 PM 15.72 60.296 0.122 7.85 4.98 10.18
5/3/2022 3:30:00 PM 15.78 60.404 0.122 7.89 4.79 10.19
5/3/2022 3:45:00 PM 15.82 60.476 0.122 7.87 4.86 10.16
5/3/2022 4:00:00 PM 15.84 60.512 0.122 7.88 4.78 10.12
5/3/2022 4:15:00 PM 15.81 60.458 0.122 7.83 4.92 10.08
5/3/2022 4:30:00 PM 15.77 60.386 0.122 7.84 4.96 10.04
5/3/2022 4:45:00 PM 15.74 60.332 0.122 7.82 4.97 10.02
5/3/2022 5:00:00 PM 15.7 60.26 0.122 7.76 4.91 9.99
5/3/2022 5:15:00 PM 15.67 60.206 0.122 7.73 4.93 9.97
5/3/2022 5:30:00 PM 15.64 60.152 0.122 7.75 5.16 9.94
5/3/2022 5:45:00 PM 15.62 60.116 0.122 7.71 5.17 9.9
5/3/2022 6:00:00 PM 15.6 60.08 0.122 7.66 5.16 9.86
5/3/2022 6:15:00 PM 15.58 60.044 0.122 7.65 5.46 9.83
5/3/2022 6:30:00 PM 15.6 60.08 0.122 7.66 5.03 9.85
5/3/2022 6:45:00 PM 15.58 60.044 0.122 7.62 5.33 9.81
5/3/2022 7:00:00 PM 15.54 59.972 0.122 7.62 5.29 9.74
5/3/2022 7:15:00 PM 15.49 59.882 0.122 7.59 5.46 9.67
5/3/2022 7:30:00 PM 15.45 59.81 0.123 7.56 5.31 9.61
5/3/2022 7:45:00 PM 15.39 59.702 0.123 7.53 5.22 9.56
5/3/2022 8:00:00 PM 15.34 59.612 0.123 7.5 5.34 9.51
5/3/2022 8:15:00 PM 15.3 59.54 0.123 7.46 5.25 9.47
5/3/2022 8:30:00 PM 15.26 59.468 0.123 7.45 5.41 9.44
5/3/2022 8:45:00 PM 15.22 59.396 0.124 7.44 5.43 9.43
5/3/2022 9:00:00 PM 15.19 59.342 0.124 7.39 5.71 9.41
5/3/2022 9:15:00 PM 15.15 59.27 0.124 7.41 5.7 9.41
5/3/2022 9:30:00 PM 15.11 59.198 0.124 7.41 5.55 9.41
5/3/2022 9:45:00 PM 15.08 59.144 0.124 7.4 5.57 9.41
5/3/2022 10:00:00 PM 15.05 59.09 0.124 7.36 5.47 9.41
5/3/2022 10:15:00 PM 15.01 59.018 0.124 7.4 5.47 9.42
5/3/2022 10:30:00 PM 14.96 58.928 0.124 7.37 5.67 9.43
5/3/2022 10:45:00 PM 14.93 58.874 0.124 7.38 5.92 9.44
5/3/2022 11:00:00 PM 14.9 58.82 0.124 7.34 5.44 9.44
5/3/2022 11:15:00 PM 14.87 58.766 0.124 7.38 5.66 9.44
5/3/2022 11:30:00 PM 14.83 58.694 0.124 7.34 5.88 9.45
5/3/2022 11:45:00 PM 14.78 58.604 0.124 7.32 5.58 9.47
5/4/2022 12:00:00 AM 14.72 58.496 0.124 7.32 5.62 9.46
5/4/2022 12:15:00 AM 14.66 58.388 0.124 7.38 5.6 9.48
5/4/2022 12:30:00 AM 14.59 58.262 0.124 7.33 5.62 9.5
5/4/2022 12:45:00 AM 14.5 58.1 0.124 7.37 5.46 9.51
5/4/2022 1:00:00 AM 14.44 57.992 0.124 7.37 5.59 9.52
5/4/2022 1:15:00 AM 14.36 57.848 0.124 7.37 5.6 9.54
5/4/2022 1:30:00 AM 14.27 57.686 0.123 7.37 6.21 9.56
5/4/2022 1:45:00 AM 14.2 57.56 0.123 7.37 5.59 9.57
5/4/2022 2:00:00 AM 14.12 57.416 0.123 7.32 5.78 9.58
5/4/2022 2:15:00 AM 14.04 57.272 0.123 7.36 5.75 9.59
5/4/2022 2:30:00 AM 13.94 57.092 0.123 7.36 5.64 9.61
5/4/2022 2:45:00 AM 13.87 56.966 0.123 7.35 5.59 9.63
5/4/2022 3:00:00 AM 13.8 56.84 0.123 7.31 5.99 9.64
5/4/2022 3:15:00 AM 13.74 56.732 0.123 7.36 5.82 9.66
5/4/2022 3:30:00 AM 13.68 56.624 0.123 7.36 5.86 9.67
5/4/2022 3:45:00 AM 13.63 56.534 0.123 7.34 5.64 9.69
5/4/2022 4:00:00 AM 13.58 56.444 0.123 7.35 5.8 9.7
5/4/2022 4:15:00 AM 13.52 56.336 0.124 7.31 5.66 9.72
5/4/2022 4:30:00 AM 13.46 56.228 0.124 7.36 5.8 9.73
5/4/2022 4:45:00 AM 13.4 56.12 0.124 7.31 5.93 9.74
5/4/2022 5:00:00 AM 13.34 56.012 0.124 7.35 5.85 9.75
5/4/2022 5:15:00 AM 13.29 55.922 0.124 7.31 5.84 9.77
5/4/2022 5:30:00 AM 13.23 55.814 0.124 7.35 5.83 9.78
5/4/2022 5:45:00 AM 13.19 55.742 0.124 7.36 5.82 9.79
5/4/2022 6:00:00 AM 13.14 55.652 0.125 7.35 5.82 9.81
5/4/2022 6:15:00 AM 13.09 55.562 0.125 7.36 5.86 9.82
5/4/2022 6:30:00 AM 13.05 55.49 0.125 7.32 5.89 9.84
5/4/2022 6:45:00 AM 13 55.4 0.125 7.32 5.93 9.87
5/4/2022 7:00:00 AM 12.95 55.31 0.125 7.38 6.06 9.9
5/4/2022 7:15:00 AM 12.92 55.256 0.126 7.37 5.97 9.93
5/4/2022 7:30:00 AM 12.89 55.202 0.126 7.37 5.71 9.99
5/4/2022 7:45:00 AM 12.86 55.148 0.126 7.4 5.63 10
5/4/2022 8:00:00 AM 12.82 55.076 0.126 7.41 5.58 10.01
5/4/2022 8:15:00 AM 12.78 55.004 0.126 7.41 5.79 10.02
5/4/2022 8:30:00 AM 12.75 54.95 0.126 7.41 5.63 10.03
5/4/2022 8:45:00 AM 12.72 54.896 0.126 7.42 5.47 10.06
5/4/2022 9:00:00 AM 12.73 54.914 0.126 7.44 5.51 10.17
5/4/2022 9:15:00 AM 12.72 54.896 0.126 7.44 5.62 10.22
5/4/2022 9:30:00 AM 12.74 54.932 0.126 7.47 5.44 10.27
5/4/2022 9:45:00 AM 12.75 54.95 0.126 7.51 5.67 10.32
5/4/2022 10:00:00 AM 12.74 54.932 0.126 7.51 5.26 10.33
5/4/2022 10:15:00 AM 12.74 54.932 0.126 7.5 5.48 10.35
5/4/2022 10:30:00 AM 12.75 54.95 0.126 7.55 5.34 10.4
5/4/2022 10:45:00 AM 12.83 55.094 0.126 7.58 5.35 10.48
5/4/2022 11:00:00 AM 12.9 55.22 0.125 7.56 5.26 10.53
5/4/2022 11:15:00 AM 12.92 55.256 0.125 7.63 5.26 10.51
5/4/2022 11:30:00 AM 12.97 55.346 0.125 7.64 5.46 10.53
5/4/2022 11:45:00 AM 13.05 55.49 0.125 7.63 5.22 10.57
5/4/2022 12:00:00 PM 13.1 55.58 0.125 7.69 5.15 10.58
5/4/2022 12:15:00 PM 13.12 55.616 0.125 7.68 5.42 10.56
5/4/2022 12:30:00 PM 13.17 55.706 0.125 7.69 5.5 10.56
5/4/2022 12:45:00 PM 13.34 56.012 0.125 7.74 5.39 10.61
5/4/2022 1:00:00 PM 13.44 56.192 0.125 7.75 5.18 10.6
5/4/2022 1:15:00 PM 13.56 56.408 0.125 7.77 5.34 10.59
5/4/2022 1:30:00 PM 13.57 56.426 0.124 7.78 5.37 10.54
5/4/2022 1:45:00 PM 13.66 56.588 0.124 7.77 5.43 10.56
5/4/2022 2:00:00 PM 13.77 56.786 0.124 7.8 5.26 10.56
5/4/2022 2:15:00 PM 13.96 57.128 0.124 7.85 5.38 10.56
5/4/2022 2:30:00 PM 14.09 57.362 0.124 7.84 5.48 10.53
5/4/2022 2:45:00 PM 14.26 57.668 0.124 7.84 5.45 10.49
5/4/2022 3:00:00 PM 14.48 58.064 0.124 7.89 5.77 10.47
5/4/2022 3:15:00 PM 14.61 58.298 0.124 7.9 5.69 10.41
5/4/2022 3:30:00 PM 14.7 58.46 0.124 7.87 5.72 10.37
5/4/2022 3:45:00 PM 14.84 58.712 0.124 7.87 5.55 10.36
5/4/2022 4:00:00 PM 14.78 58.604 0.124 7.79 5.66 10.18
5/4/2022 4:15:00 PM 14.75 58.55 0.124 7.82 5.51 10.21
5/4/2022 4:30:00 PM 14.71 58.478 0.124 7.79 5.73 10.13
5/4/2022 4:45:00 PM 14.69 58.442 0.125 7.76 5.4 10.1
5/4/2022 5:00:00 PM 14.62 58.316 0.125 7.71 5.63 10.03
5/4/2022 5:15:00 PM 14.57 58.226 0.125 7.68 5.33 9.97
5/4/2022 5:30:00 PM 14.55 58.19 0.125 7.64 5.81 9.94
5/4/2022 5:45:00 PM 14.52 58.136 0.125 7.62 5.75 9.91
5/4/2022 6:00:00 PM 14.47 58.046 0.125 7.57 5.34 9.84
5/4/2022 6:15:00 PM 14.42 57.956 0.125 7.55 5.38 9.8
5/4/2022 6:30:00 PM 14.38 57.884 0.125 7.53 5.45 9.79
5/4/2022 6:45:00 PM 14.34 57.812 0.125 7.52 5.32 9.76
5/4/2022 7:00:00 PM 14.29 57.722 0.125 7.47 5.78 9.75
5/4/2022 7:15:00 PM 14.24 57.632 0.125 7.49 5.63 9.76
5/4/2022 7:30:00 PM 14.19 57.542 0.125 7.46 5.49 9.76
5/4/2022 7:45:00 PM 14.15 57.47 0.125 7.47 5.72 9.75
5/4/2022 8:00:00 PM 14.1 57.38 0.125 7.47 6.03 9.74
5/4/2022 8:15:00 PM 14.05 57.29 0.125 7.43 7.2 9.73
5/4/2022 8:30:00 PM 14 57.2 0.125 7.45 7.12 9.72
5/4/2022 8:45:00 PM 13.95 57.11 0.125 7.4 6.81 9.72
5/4/2022 9:00:00 PM 13.89 57.002 0.125 7.43 6.86 9.72
5/4/2022 9:15:00 PM 13.84 56.912 0.125 7.43 6.28 9.73
5/4/2022 9:30:00 PM 13.79 56.822 0.125 7.38 6.29 9.74
5/4/2022 9:45:00 PM 13.75 56.75 0.125 7.41 6.2 9.75
5/4/2022 10:00:00 PM 13.71 56.678 0.125 7.4 6.49 9.75
5/4/2022 10:15:00 PM 13.66 56.588 0.126 7.36 6.07 9.76
5/4/2022 10:30:00 PM 13.62 56.516 0.126 7.39 6.81 9.77
5/4/2022 10:45:00 PM 13.58 56.444 0.126 7.35 7.02 9.78
5/4/2022 11:00:00 PM 13.55 56.39 0.126 7.38 6.25 9.79
5/4/2022 11:15:00 PM 13.51 56.318 0.126 7.4 6.21 9.8
5/4/2022 11:30:00 PM 13.48 56.264 0.126 7.39 9.34 9.81
5/4/2022 11:45:00 PM 13.46 56.228 0.126 7.4 14.64 9.81
5/5/2022 12:00:00 AM 13.43 56.174 0.126 7.4 6.73 9.81
5/5/2022 12:15:00 AM 13.4 56.12 0.125 7.39 6.58 9.82
5/5/2022 12:30:00 AM 13.38 56.084 0.125 7.4 6.33 9.83
5/5/2022 12:45:00 AM 13.35 56.03 0.125 7.39 6.74 9.83
5/5/2022 1:00:00 AM 13.33 55.994 0.125 7.34 6.15 9.84
5/5/2022 1:15:00 AM 13.3 55.94 0.125 7.35 6.14 9.85
5/5/2022 1:30:00 AM 13.28 55.904 0.125 7.39 6 9.86
5/5/2022 1:45:00 AM 13.26 55.868 0.125 7.34 5.98 9.86
5/5/2022 2:00:00 AM 13.23 55.814 0.125 7.39 7.06 9.87
5/5/2022 2:15:00 AM 13.2 55.76 0.125 7.36 6.8 9.87
5/5/2022 2:30:00 AM 13.18 55.724 0.125 7.38 6.8 9.88
5/5/2022 2:45:00 AM 13.15 55.67 0.125 7.38 7.18 9.88
5/5/2022 3:00:00 AM 13.1 55.58 0.125 7.38 6.58 9.89
5/5/2022 3:15:00 AM 13.04 55.472 0.125 7.34 6.49 9.91
5/5/2022 3:30:00 AM 12.97 55.346 0.125 7.36 6.36 9.92
5/5/2022 3:45:00 AM 12.92 55.256 0.125 7.37 6.46 9.94
5/5/2022 4:00:00 AM 12.85 55.13 0.126 7.37 6.34 9.95
5/5/2022 4:15:00 AM 12.78 55.004 0.126 7.34 6.21 9.97
5/5/2022 4:30:00 AM 12.73 54.914 0.126 7.37 6.49 9.98
5/5/2022 4:45:00 AM 12.69 54.842 0.126 7.37 6.21 9.99
5/5/2022 5:00:00 AM 12.63 54.734 0.126 7.36 5.97 10
5/5/2022 5:15:00 AM 12.56 54.608 0.126 7.33 6.22 10.02
5/5/2022 5:30:00 AM 12.47 54.446 0.126 7.37 6.2 10.03
5/5/2022 5:45:00 AM 12.39 54.302 0.126 7.32 6.48 10.05
5/5/2022 6:00:00 AM 12.31 54.158 0.126 7.32 6.15 10.08
5/5/2022 6:15:00 AM 12.23 54.014 0.126 7.35 6.3 10.11
5/5/2022 6:30:00 AM 12.16 53.888 0.126 7.37 6.04 10.16
5/5/2022 6:45:00 AM 12.1 53.78 0.126 7.37 6.03 10.22
5/5/2022 7:00:00 AM 12.06 53.708 0.126 7.35 6.14 10.28
5/5/2022 7:15:00 AM 12.03 53.654 0.127 7.36 6.15 10.33
5/5/2022 7:30:00 AM 12.01 53.618 0.126 7.43 6.18 10.4
5/5/2022 7:45:00 AM 12.01 53.618 0.126 7.44 6.06 10.46
5/5/2022 8:00:00 AM 12.04 53.672 0.127 7.47 5.83 10.52
5/5/2022 8:15:00 AM 12.05 53.69 0.126 7.49 6.14 10.57
5/5/2022 8:30:00 AM 12.1 53.78 0.126 7.51 6.15 10.61
5/5/2022 8:45:00 AM 12.17 53.906 0.126 7.5 5.48 10.64
5/5/2022 9:00:00 AM 12.25 54.05 0.126 7.56 5.62 10.67
5/5/2022 9:15:00 AM 12.34 54.212 0.126 7.58 5.54 10.69
5/5/2022 9:30:00 AM 12.45 54.41 0.126 7.6 5.69 10.71
5/5/2022 9:45:00 AM 12.57 54.626 0.126 7.63 5.72 10.72
5/5/2022 10:00:00 AM 12.71 54.878 0.126 7.61 5.6 10.73
5/5/2022 10:15:00 AM 12.86 55.148 0.125 7.67 5.9 10.73
5/5/2022 10:30:00 AM 13.02 55.436 0.125 7.69 5.56 10.73
5/5/2022 10:45:00 AM 13.21 55.778 0.125 7.7 5.58 10.72
5/5/2022 11:00:00 AM 13.43 56.174 0.125 7.71 5.6 10.7
5/5/2022 11:15:00 AM 13.64 56.552 0.125 7.75 5.35 10.68
5/5/2022 11:30:00 AM 13.85 56.93 0.125 7.79 5.47 10.66
5/5/2022 11:45:00 AM 14.14 57.452 0.125 7.81 5.32 10.64
5/5/2022 12:00:00 PM 14.36 57.848 0.125 7.83 5.49 10.6
5/5/2022 12:15:00 PM 14.6 58.28 0.124 7.83 5.42 10.56
5/5/2022 12:30:00 PM 14.81 58.658 0.124 7.89 5.5 10.52
5/5/2022 12:45:00 PM 15.06 59.108 0.124 7.91 5.41 10.48
5/5/2022 1:00:00 PM 15.29 59.522 0.124 7.89 5.37 10.45
5/5/2022 1:15:00 PM 15.48 59.864 0.124 7.95 5.52 10.41
5/5/2022 1:30:00 PM 15.66 60.188 0.124 7.97 5.41 10.37
5/5/2022 1:45:00 PM 15.79 60.422 0.124 7.99 5.39 10.33
5/5/2022 2:00:00 PM 15.96 60.728 0.124 7.98 5.54 10.29
5/5/2022 2:15:00 PM 16.09 60.962 0.124 8.01 5.58 10.27
5/5/2022 2:30:00 PM 16.21 61.178 0.124 8.03 5.74 10.23
5/5/2022 2:45:00 PM 16.25 61.25 0.124 8.04 5.5 10.2
5/5/2022 3:00:00 PM 16.24 61.232 0.124 8.02 5.34 10.16
5/5/2022 3:15:00 PM 16.29 61.322 0.124 8.03 5.39 10.16
5/5/2022 3:30:00 PM 16.36 61.448 0.124 8.04 5.26 10.15
5/5/2022 3:45:00 PM 16.44 61.592 0.123 8.04 5.38 10.11
5/5/2022 4:00:00 PM 16.46 61.628 0.123 8.04 6.02 10.08
5/5/2022 4:15:00 PM 16.51 61.718 0.123 8 5.26 10.05
5/5/2022 4:30:00 PM 16.52 61.736 0.123 8 5.57 10.03
5/5/2022 4:45:00 PM 16.5 61.7 0.123 7.97 5.25 10
5/5/2022 5:00:00 PM 16.45 61.61 0.123 7.97 5.2 9.96
5/5/2022 5:15:00 PM 16.45 61.61 0.123 7.93 5.75 9.96
5/5/2022 5:30:00 PM 16.44 61.592 0.123 7.89 5.32 9.9
5/5/2022 5:45:00 PM 16.41 61.538 0.123 7.86 5.36 9.85
5/5/2022 6:00:00 PM 16.34 61.412 0.124 7.86 5.51 9.81
5/5/2022 6:15:00 PM 16.28 61.304 0.124 7.81 5.83 9.76
5/5/2022 6:30:00 PM 16.21 61.178 0.124 7.77 5.49 9.71
5/5/2022 6:45:00 PM 16.14 61.052 0.124 7.72 5.92 9.66
5/5/2022 7:00:00 PM 16.11 60.998 0.124 7.65 5.55 9.6
5/5/2022 7:15:00 PM 16.09 60.962 0.124 7.64 5.63 9.54
5/5/2022 7:30:00 PM 16.07 60.926 0.124 7.56 5.34 9.49
5/5/2022 7:45:00 PM 16.04 60.872 0.125 7.56 5.83 9.44
5/5/2022 8:00:00 PM 16.01 60.818 0.125 7.53 5.78 9.38
5/5/2022 8:15:00 PM 15.96 60.728 0.125 7.5 5.98 9.34
5/5/2022 8:30:00 PM 15.92 60.656 0.125 7.44 5.57 9.31
5/5/2022 8:45:00 PM 15.85 60.53 0.125 7.46 6.28 9.29
5/5/2022 9:00:00 PM 15.8 60.44 0.125 7.42 6.25 9.28
5/5/2022 9:15:00 PM 15.76 60.368 0.126 7.43 6.07 9.28
5/5/2022 9:30:00 PM 15.72 60.296 0.126 7.43 6.15 9.28
5/5/2022 9:45:00 PM 15.68 60.224 0.126 7.42 6.45 9.28
5/5/2022 10:00:00 PM 15.64 60.152 0.126 7.4 6.57 9.29
5/5/2022 10:15:00 PM 15.58 60.044 0.126 7.41 7 9.3
5/5/2022 10:30:00 PM 15.52 59.936 0.126 7.4 6.48 9.3
5/5/2022 10:45:00 PM 15.45 59.81 0.126 7.39 6.43 9.31
5/5/2022 11:00:00 PM 15.38 59.684 0.126 7.38 6.44 9.31
5/5/2022 11:15:00 PM 15.3 59.54 0.126 7.36 6.57 9.33
5/5/2022 11:30:00 PM 15.22 59.396 0.126 7.32 6.71 9.34
5/5/2022 11:45:00 PM 15.14 59.252 0.126 7.32 6.48 9.36
5/6/2022 12:00:00 AM 15.05 59.09 0.125 7.37 6.6 9.37
5/6/2022 12:15:00 AM 14.96 58.928 0.125 7.32 6.44 9.38
5/6/2022 12:30:00 AM 14.87 58.766 0.125 7.33 6.33 9.4
5/6/2022 12:45:00 AM 14.79 58.622 0.125 7.33 6.96 9.42
5/6/2022 1:00:00 AM 14.7 58.46 0.125 7.29 7.01 9.43
5/6/2022 1:15:00 AM 14.61 58.298 0.125 7.29 7.28 9.45
5/6/2022 1:30:00 AM 14.53 58.154 0.125 7.29 6.99 9.47
5/6/2022 1:45:00 AM 14.45 58.01 0.125 7.34 6.82 9.49
5/6/2022 2:00:00 AM 14.38 57.884 0.125 7.32 6.74 9.51
5/6/2022 2:15:00 AM 14.3 57.74 0.125 7.35 6.6 9.52
5/6/2022 2:30:00 AM 14.23 57.614 0.126 7.31 6.59 9.54
5/6/2022 2:45:00 AM 14.15 57.47 0.116 7.32 6.5 9.56
5/6/2022 3:00:00 AM 14.08 57.344 0.126 7.33 5.21 9.58
5/6/2022 3:15:00 AM 14 57.2 0.126 7.33 6.38 9.59
5/6/2022 3:30:00 AM 13.93 57.074 0.126 7.34 6.63 9.6
5/6/2022 3:45:00 AM 13.86 56.948 0.126 7.31 6.49 9.62
5/6/2022 4:00:00 AM 13.79 56.822 0.126 7.33 6.48 9.64
5/6/2022 4:15:00 AM 13.72 56.696 0.126 7.34 6.52 9.65
5/6/2022 4:30:00 AM 13.66 56.588 0.126 7.3 6.64 9.67
5/6/2022 4:45:00 AM 13.59 56.462 0.126 7.34 6.52 9.68
5/6/2022 5:00:00 AM 13.53 56.354 0.127 7.31 6.67 9.7
5/6/2022 5:15:00 AM 13.47 56.246 0.127 7.34 6.83 9.71
5/6/2022 5:30:00 AM 13.41 56.138 0.127 7.32 6.72 9.73
5/6/2022 5:45:00 AM 13.34 56.012 0.127 7.33 6.52 9.74
5/6/2022 6:00:00 AM 13.29 55.922 0.127 7.31 6.65 9.75
5/6/2022 6:15:00 AM 13.23 55.814 0.127 7.34 6.92 9.77
5/6/2022 6:30:00 AM 13.17 55.706 0.127 7.33 7.56 9.8
5/6/2022 6:45:00 AM 13.12 55.616 0.127 7.35 7.11 9.84
5/6/2022 7:00:00 AM 13.07 55.526 0.127 7.34 6.73 9.86
5/6/2022 7:15:00 AM 13.02 55.436 0.128 7.33 6.21 9.91
5/6/2022 7:30:00 AM 12.97 55.346 0.128 7.37 6.15 9.95
5/6/2022 7:45:00 AM 12.92 55.256 0.128 7.37 6.18 9.98
5/6/2022 8:00:00 AM 12.88 55.184 0.128 7.37 6.31 10.03
5/6/2022 8:15:00 AM 12.84 55.112 0.127 7.38 6.25 10.08
5/6/2022 8:30:00 AM 12.81 55.058 0.128 7.42 5.98 10.13
5/6/2022 8:45:00 AM 12.79 55.022 0.127 7.43 5.99 10.2
5/6/2022 9:00:00 AM 12.78 55.004 0.127 7.43 5.78 10.27
5/6/2022 9:15:00 AM 12.78 55.004 0.127 7.48 6.01 10.31
5/6/2022 9:30:00 AM 12.77 54.986 0.127 7.51 5.73 10.35
5/6/2022 9:45:00 AM 12.77 54.986 0.127 7.52 5.89 10.38
5/6/2022 10:00:00 AM 12.77 54.986 0.127 7.55 5.81 10.41
5/6/2022 10:15:00 AM 12.77 54.986 0.127 7.54 6.01 10.46
5/6/2022 10:30:00 AM 12.77 54.986 0.127 7.58 5.97 10.49
5/6/2022 10:45:00 AM 12.78 55.004 0.127 7.58 5.8 10.5
5/6/2022 11:00:00 AM 12.78 55.004 0.127 7.61 5.63 10.52
5/6/2022 11:15:00 AM 12.79 55.022 0.127 7.63 5.73 10.55
5/6/2022 11:30:00 AM 12.81 55.058 0.126 7.65 5.9 10.59
5/6/2022 11:45:00 AM 12.84 55.112 0.126 7.66 5.66 10.61
5/6/2022 12:00:00 PM 12.87 55.166 0.126 7.69 5.56 10.62
5/6/2022 12:15:00 PM 12.89 55.202 0.126 7.71 5.6 10.62
5/6/2022 12:30:00 PM 12.91 55.238 0.126 7.73 5.56 10.64
5/6/2022 12:45:00 PM 12.94 55.292 0.126 7.72 5.73 10.63
5/6/2022 1:00:00 PM 12.95 55.31 0.126 7.75 5.63 10.63
5/6/2022 1:15:00 PM 12.96 55.328 0.126 7.75 5.78 10.61
5/6/2022 1:30:00 PM 12.97 55.346 0.126 7.76 5.51 10.6
5/6/2022 1:45:00 PM 12.99 55.382 0.126 7.76 5.68 10.6
5/6/2022 2:00:00 PM 13.01 55.418 0.126 7.76 5.52 10.62
5/6/2022 2:15:00 PM 13.02 55.436 0.126 7.78 5.61 10.61
5/6/2022 2:30:00 PM 13.02 55.436 0.126 7.77 5.63 10.58
5/6/2022 2:45:00 PM 13.01 55.418 0.126 7.77 5.82 10.57
5/6/2022 3:00:00 PM 13.01 55.418 0.126 7.73 5.69 10.55
5/6/2022 3:15:00 PM 13.01 55.418 0.126 7.75 5.8 10.54
5/6/2022 3:30:00 PM 13.01 55.418 0.126 7.75 5.65 10.52
5/6/2022 3:45:00 PM 13.01 55.418 0.126 7.74 5.9 10.5
5/6/2022 4:00:00 PM 13 55.4 0.126 7.73 5.84 10.48
5/6/2022 4:15:00 PM 12.99 55.382 0.126 7.69 5.78 10.46
5/6/2022 4:30:00 PM 12.97 55.346 0.126 7.7 6.05 10.43
5/6/2022 4:45:00 PM 12.94 55.292 0.126 7.68 5.95 10.39
5/6/2022 5:00:00 PM 12.92 55.256 0.126 7.67 5.9 10.37
5/6/2022 5:15:00 PM 12.91 55.238 0.126 7.65 6.18 10.35
5/6/2022 5:30:00 PM 12.89 55.202 0.126 7.63 5.72 10.33
5/6/2022 5:45:00 PM 12.88 55.184 0.126 7.62 5.92 10.3
5/6/2022 6:00:00 PM 12.86 55.148 0.126 7.56 6.21 10.27
5/6/2022 6:15:00 PM 12.84 55.112 0.127 7.54 6.04 10.23
5/6/2022 6:30:00 PM 12.82 55.076 0.127 7.53 6.57 10.19
5/6/2022 6:45:00 PM 12.8 55.04 0.127 7.5 5.85 10.17
5/6/2022 7:00:00 PM 12.77 54.986 0.127 7.48 6.44 10.15
5/6/2022 7:15:00 PM 12.75 54.95 0.127 7.49 6.44 10.12
5/6/2022 7:30:00 PM 12.72 54.896 0.128 7.46 6.63 10.1
5/6/2022 7:45:00 PM 12.7 54.86 0.128 7.49 6.69 10.07
5/6/2022 8:00:00 PM 12.67 54.806 0.128 7.46 6.63 10.03
5/6/2022 8:15:00 PM 12.65 54.77 0.128 7.45 6.59 10.01
5/6/2022 8:30:00 PM 12.63 54.734 0.128 7.42 6.59 9.99
5/6/2022 8:45:00 PM 12.6 54.68 0.128 7.4 7.05 9.98
5/6/2022 9:00:00 PM 12.57 54.626 0.128 7.42 7.09 9.97
5/6/2022 9:15:00 PM 12.54 54.572 0.128 7.41 7.25 9.97
5/6/2022 9:30:00 PM 12.51 54.518 0.129 7.4 7.14 9.98
5/6/2022 9:45:00 PM 12.48 54.464 0.129 7.4 7.6 9.98
5/6/2022 10:00:00 PM 12.45 54.41 0.129 7.4 7.54 9.97
5/6/2022 10:15:00 PM 12.42 54.356 0.129 7.4 8.04 9.98
5/6/2022 10:30:00 PM 12.4 54.32 0.13 7.37 7.87 9.98
5/6/2022 10:45:00 PM 12.37 54.266 0.13 7.39 7.8 9.99
5/6/2022 11:00:00 PM 12.35 54.23 0.13 7.35 7.97 9.99
5/6/2022 11:15:00 PM 12.32 54.176 0.13 7.35 7.37 10
5/6/2022 11:30:00 PM 12.3 54.14 0.13 7.37 7.63 10.01
5/6/2022 11:45:00 PM 12.27 54.086 0.13 7.38 7.87 10.01
5/7/2022 12:00:00 AM 12.25 54.05 0.13 7.37 7.7 10.01
5/7/2022 12:15:00 AM 12.22 53.996 0.131 7.35 7.64 10.02
5/7/2022 12:30:00 AM 12.2 53.96 0.131 7.35 8.55 10.02
5/7/2022 12:45:00 AM 12.17 53.906 0.131 7.37 8.06 10.03
5/7/2022 1:00:00 AM 12.14 53.852 0.131 7.33 8.34 10.02
5/7/2022 1:15:00 AM 12.12 53.816 0.131 7.36 8.69 10.03
5/7/2022 1:30:00 AM 12.09 53.762 0.131 7.35 8.2 10.04
5/7/2022 1:45:00 AM 12.07 53.726 0.131 7.33 8.11 10.04
5/7/2022 2:00:00 AM 12.05 53.69 0.131 7.35 8.46 10.04
5/7/2022 2:15:00 AM 12.02 53.636 0.132 7.37 8.62 10.05
5/7/2022 2:30:00 AM 11.99 53.582 0.132 7.37 8.41 10.05
5/7/2022 2:45:00 AM 11.96 53.528 0.132 7.37 8.14 10.05
5/7/2022 3:00:00 AM 11.94 53.492 0.132 7.37 8.14 10.06
5/7/2022 3:15:00 AM 11.91 53.438 0.132 7.36 8.58 10.06
5/7/2022 3:30:00 AM 11.88 53.384 0.132 7.37 8.77 10.07
5/7/2022 3:45:00 AM 11.86 53.348 0.132 7.36 9.08 10.07
5/7/2022 4:00:00 AM 11.83 53.294 0.132 7.33 9.02 10.09
5/7/2022 4:15:00 AM 11.8 53.24 0.132 7.32 8.26 10.09
5/7/2022 4:30:00 AM 11.77 53.186 0.132 7.38 8.85 10.1
5/7/2022 4:45:00 AM 11.75 53.15 0.132 7.33 8.59 10.1
5/7/2022 5:00:00 AM 11.73 53.114 0.132 7.36 8.76 10.11
5/7/2022 5:15:00 AM 11.7 53.06 0.132 7.36 9.23 10.12
5/7/2022 5:30:00 AM 11.68 53.024 0.132 7.34 8.78 10.12
5/7/2022 5:45:00 AM 11.65 52.97 0.132 7.36 8.89 10.12
5/7/2022 6:00:00 AM 11.63 52.934 0.132 7.38 9.44 10.14
5/7/2022 6:15:00 AM 11.6 52.88 0.132 7.38 9.49 10.14
5/7/2022 6:30:00 AM 11.56 52.808 0.132 7.35 8.98 10.16
5/7/2022 6:45:00 AM 11.53 52.754 0.132 7.39 9.46 10.19
5/7/2022 7:00:00 AM 11.5 52.7 0.132 7.35 8.73 10.21
5/7/2022 7:15:00 AM 11.46 52.628 0.132 7.38 9.03 10.23
5/7/2022 7:30:00 AM 11.44 52.592 0.132 7.38 8.71 10.25
5/7/2022 7:45:00 AM 11.41 52.538 0.132 7.39 9.25 10.28
5/7/2022 8:00:00 AM 11.38 52.484 0.132 7.38 8.57 10.32
5/7/2022 8:15:00 AM 11.37 52.466 0.131 7.4 8.24 10.35
5/7/2022 8:30:00 AM 11.35 52.43 0.131 7.39 8.28 10.39
5/7/2022 8:45:00 AM 11.34 52.412 0.131 7.39 8.66 10.43
5/7/2022 9:00:00 AM 11.34 52.412 0.131 7.44 8.4 10.46
5/7/2022 9:15:00 AM 11.33 52.394 0.131 7.41 7.89 10.48
5/7/2022 9:30:00 AM 11.32 52.376 0.131 7.45 7.83 10.49
5/7/2022 9:45:00 AM 11.32 52.376 0.13 7.44 8.15 10.52
5/7/2022 10:00:00 AM 11.32 52.376 0.13 7.45 8.06